<?xml version="1.0" encoding="UTF-8"?>
<gpx version="1.0" creator="Trackator" xmlns:xsi="http://www.w3.org/2001/XMLSchema-instance" xmlns="http://www.topografix.com/GPX/1/0" xmlns:topografix="http://www.topografix.com/GPX/Private/TopoGrafix/0/1" xsi:schemaLocation="http://www.topografix.com/GPX/1/0 http://www.topografix.com/GPX/1/0/gpx.xsd http://www.topografix.com/GPX/Private/TopoGrafix/0/1 http://www.topografix.com/GPX/Private/TopoGrafix/0/1/topografix.xsd">
<metadata>
<link href="http://www.trackator.com">
<text>Trackator</text>
</link>
</metadata>
<time>2016-06-19T19:29:11Z</time>
<trk>
<name>Track: </name>
<desc>Cycling</desc>
<trkseg>
<trkpt lat="53.3481298" lon="18.4459131">
<ele>124</ele>
<time>2016-06-19T19:29:11Z</time>
</trkpt>
<trkpt lat="53.3481298" lon="18.4459131">
<ele>124</ele>
<time>2016-06-19T19:29:13Z</time>
</trkpt>
<trkpt lat="53.3481298" lon="18.4459131">
<ele>124</ele>
<time>2016-06-19T19:29:15Z</time>
</trkpt>
<trkpt lat="53.3481298" lon="18.4459131">
<ele>124</ele>
<time>2016-06-19T19:29:17Z</time>
</trkpt>
<trkpt lat="53.3481298" lon="18.4459131">
<ele>124</ele>
<time>2016-06-19T19:29:19Z</time>
</trkpt>
<trkpt lat="53.3481657" lon="18.4459082">
<ele>121</ele>
<time>2016-06-19T19:29:21Z</time>
</trkpt>
<trkpt lat="53.3482358" lon="18.4458712">
<ele>119</ele>
<time>2016-06-19T19:29:23Z</time>
</trkpt>
<trkpt lat="53.3482898" lon="18.4458296">
<ele>121</ele>
<time>2016-06-19T19:29:25Z</time>
</trkpt>
<trkpt lat="53.3483305" lon="18.4457736">
<ele>121</ele>
<time>2016-06-19T19:29:27Z</time>
</trkpt>
<trkpt lat="53.3483599" lon="18.4456962">
<ele>120</ele>
<time>2016-06-19T19:29:29Z</time>
</trkpt>
<trkpt lat="53.3483729" lon="18.4456311">
<ele>119</ele>
<time>2016-06-19T19:29:31Z</time>
</trkpt>
<trkpt lat="53.3483757" lon="18.4455651">
<ele>118</ele>
<time>2016-06-19T19:29:33Z</time>
</trkpt>
<trkpt lat="53.3483740" lon="18.4455349">
<ele>115</ele>
<time>2016-06-19T19:29:35Z</time>
</trkpt>
<trkpt lat="53.3483921" lon="18.4455502">
<ele>113</ele>
<time>2016-06-19T19:29:37Z</time>
</trkpt>
<trkpt lat="53.3484228" lon="18.4456011">
<ele>112</ele>
<time>2016-06-19T19:29:39Z</time>
</trkpt>
<trkpt lat="53.3484393" lon="18.4456167">
<ele>112</ele>
<time>2016-06-19T19:29:41Z</time>
</trkpt>
<trkpt lat="53.3484768" lon="18.4456493">
<ele>111</ele>
<time>2016-06-19T19:29:43Z</time>
</trkpt>
<trkpt lat="53.3485207" lon="18.4457069">
<ele>108</ele>
<time>2016-06-19T19:29:45Z</time>
</trkpt>
<trkpt lat="53.3485701" lon="18.4457397">
<ele>106</ele>
<time>2016-06-19T19:29:47Z</time>
</trkpt>
<trkpt lat="53.3485961" lon="18.4457551">
<ele>106</ele>
<time>2016-06-19T19:29:49Z</time>
</trkpt>
<trkpt lat="53.3486239" lon="18.4457574">
<ele>106</ele>
<time>2016-06-19T19:29:51Z</time>
</trkpt>
<trkpt lat="53.3486517" lon="18.4457683">
<ele>105</ele>
<time>2016-06-19T19:29:53Z</time>
</trkpt>
<trkpt lat="53.3486666" lon="18.4457723">
<ele>105</ele>
<time>2016-06-19T19:29:55Z</time>
</trkpt>
<trkpt lat="53.3487054" lon="18.4457679">
<ele>105</ele>
<time>2016-06-19T19:29:57Z</time>
</trkpt>
<trkpt lat="53.3487545" lon="18.4457702">
<ele>105</ele>
<time>2016-06-19T19:29:59Z</time>
</trkpt>
<trkpt lat="53.3488094" lon="18.4457892">
<ele>103</ele>
<time>2016-06-19T19:30:01Z</time>
</trkpt>
<trkpt lat="53.3488574" lon="18.4458006">
<ele>102</ele>
<time>2016-06-19T19:30:03Z</time>
</trkpt>
<trkpt lat="53.3488948" lon="18.4457812">
<ele>101</ele>
<time>2016-06-19T19:30:05Z</time>
</trkpt>
<trkpt lat="53.3489343" lon="18.4457333">
<ele>101</ele>
<time>2016-06-19T19:30:07Z</time>
</trkpt>
<trkpt lat="53.3489695" lon="18.4456813">
<ele>100</ele>
<time>2016-06-19T19:30:09Z</time>
</trkpt>
<trkpt lat="53.3489948" lon="18.4456443">
<ele>101</ele>
<time>2016-06-19T19:30:11Z</time>
</trkpt>
<trkpt lat="53.3490120" lon="18.4456674">
<ele>101</ele>
<time>2016-06-19T19:30:13Z</time>
</trkpt>
<trkpt lat="53.3490243" lon="18.4457037">
<ele>101</ele>
<time>2016-06-19T19:30:15Z</time>
</trkpt>
<trkpt lat="53.3490424" lon="18.4457416">
<ele>101</ele>
<time>2016-06-19T19:30:17Z</time>
</trkpt>
<trkpt lat="53.3490589" lon="18.4457556">
<ele>102</ele>
<time>2016-06-19T19:30:19Z</time>
</trkpt>
<trkpt lat="53.3490608" lon="18.4457542">
<ele>102</ele>
<time>2016-06-19T19:30:21Z</time>
</trkpt>
<trkpt lat="53.3490865" lon="18.4457379">
<ele>102</ele>
<time>2016-06-19T19:30:23Z</time>
</trkpt>
<trkpt lat="53.3491219" lon="18.4457330">
<ele>102</ele>
<time>2016-06-19T19:30:25Z</time>
</trkpt>
<trkpt lat="53.3491587" lon="18.4457300">
<ele>101</ele>
<time>2016-06-19T19:30:27Z</time>
</trkpt>
<trkpt lat="53.3492050" lon="18.4457351">
<ele>100</ele>
<time>2016-06-19T19:30:29Z</time>
</trkpt>
<trkpt lat="53.3492526" lon="18.4457604">
<ele>99</ele>
<time>2016-06-19T19:30:31Z</time>
</trkpt>
<trkpt lat="53.3492959" lon="18.4457916">
<ele>98</ele>
<time>2016-06-19T19:30:33Z</time>
</trkpt>
<trkpt lat="53.3493336" lon="18.4458230">
<ele>98</ele>
<time>2016-06-19T19:30:35Z</time>
</trkpt>
<trkpt lat="53.3493829" lon="18.4458201">
<ele>97</ele>
<time>2016-06-19T19:30:37Z</time>
</trkpt>
<trkpt lat="53.3494241" lon="18.4458041">
<ele>95</ele>
<time>2016-06-19T19:30:39Z</time>
</trkpt>
<trkpt lat="53.3494602" lon="18.4458301">
<ele>95</ele>
<time>2016-06-19T19:30:41Z</time>
</trkpt>
<trkpt lat="53.3495004" lon="18.4458689">
<ele>95</ele>
<time>2016-06-19T19:30:43Z</time>
</trkpt>
<trkpt lat="53.3495384" lon="18.4459098">
<ele>95</ele>
<time>2016-06-19T19:30:45Z</time>
</trkpt>
<trkpt lat="53.3495632" lon="18.4459657">
<ele>94</ele>
<time>2016-06-19T19:30:47Z</time>
</trkpt>
<trkpt lat="53.3495868" lon="18.4460122">
<ele>94</ele>
<time>2016-06-19T19:30:49Z</time>
</trkpt>
<trkpt lat="53.3496196" lon="18.4460648">
<ele>93</ele>
<time>2016-06-19T19:30:51Z</time>
</trkpt>
<trkpt lat="53.3496572" lon="18.4461139">
<ele>93</ele>
<time>2016-06-19T19:30:53Z</time>
</trkpt>
<trkpt lat="53.3496987" lon="18.4461965">
<ele>91</ele>
<time>2016-06-19T19:30:55Z</time>
</trkpt>
<trkpt lat="53.3497475" lon="18.4462792">
<ele>91</ele>
<time>2016-06-19T19:30:57Z</time>
</trkpt>
<trkpt lat="53.3497914" lon="18.4463477">
<ele>90</ele>
<time>2016-06-19T19:30:59Z</time>
</trkpt>
<trkpt lat="53.3498355" lon="18.4464350">
<ele>91</ele>
<time>2016-06-19T19:31:01Z</time>
</trkpt>
<trkpt lat="53.3498698" lon="18.4465111">
<ele>91</ele>
<time>2016-06-19T19:31:03Z</time>
</trkpt>
<trkpt lat="53.3499096" lon="18.4465696">
<ele>92</ele>
<time>2016-06-19T19:31:05Z</time>
</trkpt>
<trkpt lat="53.3499541" lon="18.4466341">
<ele>92</ele>
<time>2016-06-19T19:31:07Z</time>
</trkpt>
<trkpt lat="53.3499871" lon="18.4466918">
<ele>91</ele>
<time>2016-06-19T19:31:09Z</time>
</trkpt>
<trkpt lat="53.3500251" lon="18.4467643">
<ele>91</ele>
<time>2016-06-19T19:31:11Z</time>
</trkpt>
<trkpt lat="53.3500693" lon="18.4468533">
<ele>90</ele>
<time>2016-06-19T19:31:13Z</time>
</trkpt>
<trkpt lat="53.3501381" lon="18.4469914">
<ele>88</ele>
<time>2016-06-19T19:31:15Z</time>
</trkpt>
<trkpt lat="53.3502298" lon="18.4471528">
<ele>85</ele>
<time>2016-06-19T19:31:17Z</time>
</trkpt>
<trkpt lat="53.3502966" lon="18.4472743">
<ele>84</ele>
<time>2016-06-19T19:31:19Z</time>
</trkpt>
<trkpt lat="53.3503458" lon="18.4473678">
<ele>83</ele>
<time>2016-06-19T19:31:21Z</time>
</trkpt>
<trkpt lat="53.3503927" lon="18.4474585">
<ele>84</ele>
<time>2016-06-19T19:31:23Z</time>
</trkpt>
<trkpt lat="53.3504225" lon="18.4475357">
<ele>83</ele>
<time>2016-06-19T19:31:25Z</time>
</trkpt>
<trkpt lat="53.3504482" lon="18.4476011">
<ele>83</ele>
<time>2016-06-19T19:31:27Z</time>
</trkpt>
<trkpt lat="53.3504866" lon="18.4476682">
<ele>82</ele>
<time>2016-06-19T19:31:29Z</time>
</trkpt>
<trkpt lat="53.3505346" lon="18.4477554">
<ele>82</ele>
<time>2016-06-19T19:31:31Z</time>
</trkpt>
<trkpt lat="53.3505874" lon="18.4478646">
<ele>82</ele>
<time>2016-06-19T19:31:33Z</time>
</trkpt>
<trkpt lat="53.3506219" lon="18.4479198">
<ele>82</ele>
<time>2016-06-19T19:31:35Z</time>
</trkpt>
<trkpt lat="53.3506249" lon="18.4478644">
<ele>83</ele>
<time>2016-06-19T19:31:37Z</time>
</trkpt>
<trkpt lat="53.3506052" lon="18.4477960">
<ele>83</ele>
<time>2016-06-19T19:31:39Z</time>
</trkpt>
<trkpt lat="53.3505799" lon="18.4477323">
<ele>84</ele>
<time>2016-06-19T19:31:41Z</time>
</trkpt>
<trkpt lat="53.3505541" lon="18.4476653">
<ele>85</ele>
<time>2016-06-19T19:31:43Z</time>
</trkpt>
<trkpt lat="53.3505280" lon="18.4475979">
<ele>86</ele>
<time>2016-06-19T19:31:45Z</time>
</trkpt>
<trkpt lat="53.3504988" lon="18.4475182">
<ele>87</ele>
<time>2016-06-19T19:31:47Z</time>
</trkpt>
<trkpt lat="53.3504757" lon="18.4474541">
<ele>88</ele>
<time>2016-06-19T19:31:49Z</time>
</trkpt>
<trkpt lat="53.3504459" lon="18.4473935">
<ele>89</ele>
<time>2016-06-19T19:31:51Z</time>
</trkpt>
<trkpt lat="53.3504183" lon="18.4473272">
<ele>90</ele>
<time>2016-06-19T19:31:53Z</time>
</trkpt>
<trkpt lat="53.3503856" lon="18.4472697">
<ele>91</ele>
<time>2016-06-19T19:31:55Z</time>
</trkpt>
<trkpt lat="53.3503547" lon="18.4472241">
<ele>91</ele>
<time>2016-06-19T19:31:57Z</time>
</trkpt>
<trkpt lat="53.3503208" lon="18.4471965">
<ele>90</ele>
<time>2016-06-19T19:31:59Z</time>
</trkpt>
<trkpt lat="53.3502943" lon="18.4471575">
<ele>91</ele>
<time>2016-06-19T19:32:01Z</time>
</trkpt>
<trkpt lat="53.3502732" lon="18.4471055">
<ele>92</ele>
<time>2016-06-19T19:32:03Z</time>
</trkpt>
<trkpt lat="53.3502516" lon="18.4470494">
<ele>93</ele>
<time>2016-06-19T19:32:05Z</time>
</trkpt>
<trkpt lat="53.3502361" lon="18.4469912">
<ele>93</ele>
<time>2016-06-19T19:32:07Z</time>
</trkpt>
<trkpt lat="53.3502157" lon="18.4469201">
<ele>92</ele>
<time>2016-06-19T19:32:09Z</time>
</trkpt>
<trkpt lat="53.3501890" lon="18.4468490">
<ele>93</ele>
<time>2016-06-19T19:32:11Z</time>
</trkpt>
<trkpt lat="53.3501667" lon="18.4467818">
<ele>92</ele>
<time>2016-06-19T19:32:13Z</time>
</trkpt>
<trkpt lat="53.3501414" lon="18.4467200">
<ele>92</ele>
<time>2016-06-19T19:32:15Z</time>
</trkpt>
<trkpt lat="53.3501266" lon="18.4466394">
<ele>93</ele>
<time>2016-06-19T19:32:17Z</time>
</trkpt>
<trkpt lat="53.3501436" lon="18.4465653">
<ele>93</ele>
<time>2016-06-19T19:32:19Z</time>
</trkpt>
<trkpt lat="53.3501846" lon="18.4465227">
<ele>94</ele>
<time>2016-06-19T19:32:21Z</time>
</trkpt>
<trkpt lat="53.3502328" lon="18.4464890">
<ele>93</ele>
<time>2016-06-19T19:32:23Z</time>
</trkpt>
<trkpt lat="53.3502750" lon="18.4464645">
<ele>94</ele>
<time>2016-06-19T19:32:25Z</time>
</trkpt>
<trkpt lat="53.3503054" lon="18.4464407">
<ele>94</ele>
<time>2016-06-19T19:32:27Z</time>
</trkpt>
<trkpt lat="53.3503308" lon="18.4464166">
<ele>94</ele>
<time>2016-06-19T19:32:29Z</time>
</trkpt>
<trkpt lat="53.3503538" lon="18.4463878">
<ele>95</ele>
<time>2016-06-19T19:32:31Z</time>
</trkpt>
<trkpt lat="53.3503864" lon="18.4463560">
<ele>95</ele>
<time>2016-06-19T19:32:33Z</time>
</trkpt>
<trkpt lat="53.3504262" lon="18.4463136">
<ele>96</ele>
<time>2016-06-19T19:32:35Z</time>
</trkpt>
<trkpt lat="53.3504683" lon="18.4462779">
<ele>95</ele>
<time>2016-06-19T19:32:37Z</time>
</trkpt>
<trkpt lat="53.3505037" lon="18.4462333">
<ele>97</ele>
<time>2016-06-19T19:32:39Z</time>
</trkpt>
<trkpt lat="53.3505419" lon="18.4461871">
<ele>98</ele>
<time>2016-06-19T19:32:41Z</time>
</trkpt>
<trkpt lat="53.3505779" lon="18.4461372">
<ele>99</ele>
<time>2016-06-19T19:32:43Z</time>
</trkpt>
<trkpt lat="53.3506122" lon="18.4460890">
<ele>100</ele>
<time>2016-06-19T19:32:45Z</time>
</trkpt>
<trkpt lat="53.3506490" lon="18.4460421">
<ele>101</ele>
<time>2016-06-19T19:32:47Z</time>
</trkpt>
<trkpt lat="53.3506928" lon="18.4459936">
<ele>101</ele>
<time>2016-06-19T19:32:49Z</time>
</trkpt>
<trkpt lat="53.3507395" lon="18.4459556">
<ele>101</ele>
<time>2016-06-19T19:32:51Z</time>
</trkpt>
<trkpt lat="53.3507877" lon="18.4459261">
<ele>102</ele>
<time>2016-06-19T19:32:53Z</time>
</trkpt>
<trkpt lat="53.3508332" lon="18.4459012">
<ele>102</ele>
<time>2016-06-19T19:32:55Z</time>
</trkpt>
<trkpt lat="53.3508764" lon="18.4458718">
<ele>103</ele>
<time>2016-06-19T19:32:57Z</time>
</trkpt>
<trkpt lat="53.3509137" lon="18.4458307">
<ele>105</ele>
<time>2016-06-19T19:32:59Z</time>
</trkpt>
<trkpt lat="53.3509269" lon="18.4457851">
<ele>105</ele>
<time>2016-06-19T19:33:01Z</time>
</trkpt>
<trkpt lat="53.3509294" lon="18.4457344">
<ele>106</ele>
<time>2016-06-19T19:33:03Z</time>
</trkpt>
<trkpt lat="53.3509300" lon="18.4456786">
<ele>107</ele>
<time>2016-06-19T19:33:05Z</time>
</trkpt>
<trkpt lat="53.3509207" lon="18.4456211">
<ele>108</ele>
<time>2016-06-19T19:33:07Z</time>
</trkpt>
<trkpt lat="53.3509097" lon="18.4455462">
<ele>107</ele>
<time>2016-06-19T19:33:09Z</time>
</trkpt>
<trkpt lat="53.3508835" lon="18.4454691">
<ele>106</ele>
<time>2016-06-19T19:33:11Z</time>
</trkpt>
<trkpt lat="53.3508551" lon="18.4454086">
<ele>105</ele>
<time>2016-06-19T19:33:13Z</time>
</trkpt>
<trkpt lat="53.3508220" lon="18.4453616">
<ele>105</ele>
<time>2016-06-19T19:33:15Z</time>
</trkpt>
<trkpt lat="53.3507883" lon="18.4453156">
<ele>104</ele>
<time>2016-06-19T19:33:17Z</time>
</trkpt>
<trkpt lat="53.3507400" lon="18.4452763">
<ele>104</ele>
<time>2016-06-19T19:33:19Z</time>
</trkpt>
<trkpt lat="53.3506933" lon="18.4452549">
<ele>105</ele>
<time>2016-06-19T19:33:21Z</time>
</trkpt>
<trkpt lat="53.3506517" lon="18.4452347">
<ele>106</ele>
<time>2016-06-19T19:33:23Z</time>
</trkpt>
<trkpt lat="53.3506117" lon="18.4452248">
<ele>107</ele>
<time>2016-06-19T19:33:25Z</time>
</trkpt>
<trkpt lat="53.3505772" lon="18.4452132">
<ele>108</ele>
<time>2016-06-19T19:33:27Z</time>
</trkpt>
<trkpt lat="53.3505322" lon="18.4452009">
<ele>107</ele>
<time>2016-06-19T19:33:29Z</time>
</trkpt>
<trkpt lat="53.3504896" lon="18.4451965">
<ele>105</ele>
<time>2016-06-19T19:33:31Z</time>
</trkpt>
<trkpt lat="53.3504550" lon="18.4451858">
<ele>105</ele>
<time>2016-06-19T19:33:33Z</time>
</trkpt>
<trkpt lat="53.3504180" lon="18.4451563">
<ele>106</ele>
<time>2016-06-19T19:33:35Z</time>
</trkpt>
<trkpt lat="53.3503711" lon="18.4451017">
<ele>106</ele>
<time>2016-06-19T19:33:37Z</time>
</trkpt>
<trkpt lat="53.3503246" lon="18.4450661">
<ele>105</ele>
<time>2016-06-19T19:33:39Z</time>
</trkpt>
<trkpt lat="53.3502750" lon="18.4450233">
<ele>105</ele>
<time>2016-06-19T19:33:41Z</time>
</trkpt>
<trkpt lat="53.3502166" lon="18.4449774">
<ele>105</ele>
<time>2016-06-19T19:33:43Z</time>
</trkpt>
<trkpt lat="53.3501646" lon="18.4449580">
<ele>105</ele>
<time>2016-06-19T19:33:45Z</time>
</trkpt>
<trkpt lat="53.3501125" lon="18.4449410">
<ele>105</ele>
<time>2016-06-19T19:33:47Z</time>
</trkpt>
<trkpt lat="53.3500758" lon="18.4449213">
<ele>105</ele>
<time>2016-06-19T19:33:49Z</time>
</trkpt>
<trkpt lat="53.3500466" lon="18.4448921">
<ele>107</ele>
<time>2016-06-19T19:33:51Z</time>
</trkpt>
<trkpt lat="53.3500119" lon="18.4448726">
<ele>107</ele>
<time>2016-06-19T19:33:53Z</time>
</trkpt>
<trkpt lat="53.3499889" lon="18.4448562">
<ele>107</ele>
<time>2016-06-19T19:33:55Z</time>
</trkpt>
<trkpt lat="53.3499883" lon="18.4448628">
<ele>107</ele>
<time>2016-06-19T19:33:57Z</time>
</trkpt>
<trkpt lat="53.3499824" lon="18.4448722">
<ele>109</ele>
<time>2016-06-19T19:33:59Z</time>
</trkpt>
<trkpt lat="53.3499782" lon="18.4448714">
<ele>110</ele>
<time>2016-06-19T19:34:01Z</time>
</trkpt>
<trkpt lat="53.3499782" lon="18.4448714">
<ele>110</ele>
<time>2016-06-19T19:34:03Z</time>
</trkpt>
<trkpt lat="53.3499782" lon="18.4448714">
<ele>110</ele>
<time>2016-06-19T19:34:05Z</time>
</trkpt>
<trkpt lat="53.3499782" lon="18.4448714">
<ele>110</ele>
<time>2016-06-19T19:34:07Z</time>
</trkpt>
<trkpt lat="53.3499690" lon="18.4448160">
<ele>112</ele>
<time>2016-06-19T19:34:09Z</time>
</trkpt>
<trkpt lat="53.3499503" lon="18.4447754">
<ele>113</ele>
<time>2016-06-19T19:34:11Z</time>
</trkpt>
<trkpt lat="53.3499463" lon="18.4447571">
<ele>113</ele>
<time>2016-06-19T19:34:13Z</time>
</trkpt>
<trkpt lat="53.3499437" lon="18.4447144">
<ele>115</ele>
<time>2016-06-19T19:34:15Z</time>
</trkpt>
<trkpt lat="53.3499416" lon="18.4446801">
<ele>115</ele>
<time>2016-06-19T19:34:17Z</time>
</trkpt>
<trkpt lat="53.3499416" lon="18.4446801">
<ele>115</ele>
<time>2016-06-19T19:34:19Z</time>
</trkpt>
<trkpt lat="53.3499416" lon="18.4446801">
<ele>115</ele>
<time>2016-06-19T19:34:21Z</time>
</trkpt>
<trkpt lat="53.3499416" lon="18.4446801">
<ele>115</ele>
<time>2016-06-19T19:34:23Z</time>
</trkpt>
<trkpt lat="53.3499396" lon="18.4446463">
<ele>115</ele>
<time>2016-06-19T19:34:25Z</time>
</trkpt>
<trkpt lat="53.3499242" lon="18.4445892">
<ele>116</ele>
<time>2016-06-19T19:34:27Z</time>
</trkpt>
<trkpt lat="53.3499223" lon="18.4445338">
<ele>116</ele>
<time>2016-06-19T19:34:29Z</time>
</trkpt>
<trkpt lat="53.3499319" lon="18.4444685">
<ele>118</ele>
<time>2016-06-19T19:34:31Z</time>
</trkpt>
<trkpt lat="53.3499451" lon="18.4444108">
<ele>118</ele>
<time>2016-06-19T19:34:33Z</time>
</trkpt>
<trkpt lat="53.3499572" lon="18.4443580">
<ele>119</ele>
<time>2016-06-19T19:34:35Z</time>
</trkpt>
<trkpt lat="53.3499686" lon="18.4442993">
<ele>120</ele>
<time>2016-06-19T19:34:37Z</time>
</trkpt>
<trkpt lat="53.3499815" lon="18.4442393">
<ele>122</ele>
<time>2016-06-19T19:34:39Z</time>
</trkpt>
<trkpt lat="53.3499955" lon="18.4441811">
<ele>123</ele>
<time>2016-06-19T19:34:41Z</time>
</trkpt>
<trkpt lat="53.3500118" lon="18.4441298">
<ele>124</ele>
<time>2016-06-19T19:34:43Z</time>
</trkpt>
<trkpt lat="53.3500202" lon="18.4440587">
<ele>125</ele>
<time>2016-06-19T19:34:45Z</time>
</trkpt>
<trkpt lat="53.3500303" lon="18.4439794">
<ele>126</ele>
<time>2016-06-19T19:34:47Z</time>
</trkpt>
<trkpt lat="53.3500373" lon="18.4438975">
<ele>127</ele>
<time>2016-06-19T19:34:49Z</time>
</trkpt>
<trkpt lat="53.3500473" lon="18.4438194">
<ele>127</ele>
<time>2016-06-19T19:34:51Z</time>
</trkpt>
<trkpt lat="53.3500570" lon="18.4437322">
<ele>129</ele>
<time>2016-06-19T19:34:53Z</time>
</trkpt>
<trkpt lat="53.3500633" lon="18.4436309">
<ele>130</ele>
<time>2016-06-19T19:34:55Z</time>
</trkpt>
<trkpt lat="53.3500725" lon="18.4435350">
<ele>130</ele>
<time>2016-06-19T19:34:57Z</time>
</trkpt>
<trkpt lat="53.3500901" lon="18.4434588">
<ele>129</ele>
<time>2016-06-19T19:34:59Z</time>
</trkpt>
<trkpt lat="53.3501029" lon="18.4433766">
<ele>127</ele>
<time>2016-06-19T19:35:01Z</time>
</trkpt>
<trkpt lat="53.3501179" lon="18.4432989">
<ele>126</ele>
<time>2016-06-19T19:35:03Z</time>
</trkpt>
<trkpt lat="53.3501354" lon="18.4432246">
<ele>125</ele>
<time>2016-06-19T19:35:05Z</time>
</trkpt>
<trkpt lat="53.3501563" lon="18.4431358">
<ele>125</ele>
<time>2016-06-19T19:35:07Z</time>
</trkpt>
<trkpt lat="53.3501728" lon="18.4430484">
<ele>124</ele>
<time>2016-06-19T19:35:09Z</time>
</trkpt>
<trkpt lat="53.3501850" lon="18.4429567">
<ele>124</ele>
<time>2016-06-19T19:35:11Z</time>
</trkpt>
<trkpt lat="53.3502046" lon="18.4428642">
<ele>123</ele>
<time>2016-06-19T19:35:13Z</time>
</trkpt>
<trkpt lat="53.3502230" lon="18.4427804">
<ele>123</ele>
<time>2016-06-19T19:35:15Z</time>
</trkpt>
<trkpt lat="53.3502371" lon="18.4427030">
<ele>122</ele>
<time>2016-06-19T19:35:17Z</time>
</trkpt>
<trkpt lat="53.3502563" lon="18.4426362">
<ele>122</ele>
<time>2016-06-19T19:35:19Z</time>
</trkpt>
<trkpt lat="53.3503036" lon="18.4425780">
<ele>123</ele>
<time>2016-06-19T19:35:21Z</time>
</trkpt>
<trkpt lat="53.3503388" lon="18.4425159">
<ele>126</ele>
<time>2016-06-19T19:35:23Z</time>
</trkpt>
<trkpt lat="53.3503391" lon="18.4424261">
<ele>125</ele>
<time>2016-06-19T19:35:25Z</time>
</trkpt>
<trkpt lat="53.3503442" lon="18.4422987">
<ele>124</ele>
<time>2016-06-19T19:35:27Z</time>
</trkpt>
<trkpt lat="53.3503378" lon="18.4421686">
<ele>124</ele>
<time>2016-06-19T19:35:29Z</time>
</trkpt>
<trkpt lat="53.3503437" lon="18.4420419">
<ele>123</ele>
<time>2016-06-19T19:35:31Z</time>
</trkpt>
<trkpt lat="53.3503461" lon="18.4419213">
<ele>121</ele>
<time>2016-06-19T19:35:33Z</time>
</trkpt>
<trkpt lat="53.3503498" lon="18.4417834">
<ele>121</ele>
<time>2016-06-19T19:35:35Z</time>
</trkpt>
<trkpt lat="53.3503603" lon="18.4416318">
<ele>120</ele>
<time>2016-06-19T19:35:37Z</time>
</trkpt>
<trkpt lat="53.3503963" lon="18.4414819">
<ele>119</ele>
<time>2016-06-19T19:35:39Z</time>
</trkpt>
<trkpt lat="53.3504453" lon="18.4413380">
<ele>118</ele>
<time>2016-06-19T19:35:41Z</time>
</trkpt>
<trkpt lat="53.3504793" lon="18.4411989">
<ele>117</ele>
<time>2016-06-19T19:35:43Z</time>
</trkpt>
<trkpt lat="53.3505036" lon="18.4410648">
<ele>118</ele>
<time>2016-06-19T19:35:45Z</time>
</trkpt>
<trkpt lat="53.3505250" lon="18.4409358">
<ele>119</ele>
<time>2016-06-19T19:35:47Z</time>
</trkpt>
<trkpt lat="53.3505572" lon="18.4408146">
<ele>119</ele>
<time>2016-06-19T19:35:49Z</time>
</trkpt>
<trkpt lat="53.3505735" lon="18.4407005">
<ele>120</ele>
<time>2016-06-19T19:35:51Z</time>
</trkpt>
<trkpt lat="53.3505864" lon="18.4405977">
<ele>120</ele>
<time>2016-06-19T19:35:53Z</time>
</trkpt>
<trkpt lat="53.3506054" lon="18.4404998">
<ele>119</ele>
<time>2016-06-19T19:35:55Z</time>
</trkpt>
<trkpt lat="53.3506213" lon="18.4404047">
<ele>119</ele>
<time>2016-06-19T19:35:57Z</time>
</trkpt>
<trkpt lat="53.3506316" lon="18.4403168">
<ele>119</ele>
<time>2016-06-19T19:35:59Z</time>
</trkpt>
<trkpt lat="53.3506487" lon="18.4402237">
<ele>118</ele>
<time>2016-06-19T19:36:01Z</time>
</trkpt>
<trkpt lat="53.3506695" lon="18.4401330">
<ele>118</ele>
<time>2016-06-19T19:36:03Z</time>
</trkpt>
<trkpt lat="53.3506898" lon="18.4400256">
<ele>118</ele>
<time>2016-06-19T19:36:05Z</time>
</trkpt>
<trkpt lat="53.3506950" lon="18.4399254">
<ele>118</ele>
<time>2016-06-19T19:36:07Z</time>
</trkpt>
<trkpt lat="53.3506935" lon="18.4398350">
<ele>119</ele>
<time>2016-06-19T19:36:09Z</time>
</trkpt>
<trkpt lat="53.3507069" lon="18.4397527">
<ele>119</ele>
<time>2016-06-19T19:36:11Z</time>
</trkpt>
<trkpt lat="53.3507164" lon="18.4396537">
<ele>119</ele>
<time>2016-06-19T19:36:13Z</time>
</trkpt>
<trkpt lat="53.3507250" lon="18.4395249">
<ele>118</ele>
<time>2016-06-19T19:36:15Z</time>
</trkpt>
<trkpt lat="53.3507341" lon="18.4394028">
<ele>117</ele>
<time>2016-06-19T19:36:17Z</time>
</trkpt>
<trkpt lat="53.3507474" lon="18.4392831">
<ele>116</ele>
<time>2016-06-19T19:36:19Z</time>
</trkpt>
<trkpt lat="53.3507626" lon="18.4391763">
<ele>116</ele>
<time>2016-06-19T19:36:21Z</time>
</trkpt>
<trkpt lat="53.3507642" lon="18.4390880">
<ele>114</ele>
<time>2016-06-19T19:36:23Z</time>
</trkpt>
<trkpt lat="53.3507729" lon="18.4389809">
<ele>113</ele>
<time>2016-06-19T19:36:25Z</time>
</trkpt>
<trkpt lat="53.3507877" lon="18.4388835">
<ele>113</ele>
<time>2016-06-19T19:36:27Z</time>
</trkpt>
<trkpt lat="53.3508082" lon="18.4388036">
<ele>113</ele>
<time>2016-06-19T19:36:29Z</time>
</trkpt>
<trkpt lat="53.3508329" lon="18.4387238">
<ele>112</ele>
<time>2016-06-19T19:36:31Z</time>
</trkpt>
<trkpt lat="53.3508581" lon="18.4386396">
<ele>112</ele>
<time>2016-06-19T19:36:33Z</time>
</trkpt>
<trkpt lat="53.3508864" lon="18.4385597">
<ele>111</ele>
<time>2016-06-19T19:36:35Z</time>
</trkpt>
<trkpt lat="53.3509036" lon="18.4384700">
<ele>111</ele>
<time>2016-06-19T19:36:37Z</time>
</trkpt>
<trkpt lat="53.3509170" lon="18.4383651">
<ele>112</ele>
<time>2016-06-19T19:36:39Z</time>
</trkpt>
<trkpt lat="53.3509413" lon="18.4382755">
<ele>110</ele>
<time>2016-06-19T19:36:41Z</time>
</trkpt>
<trkpt lat="53.3509561" lon="18.4381682">
<ele>110</ele>
<time>2016-06-19T19:36:43Z</time>
</trkpt>
<trkpt lat="53.3509774" lon="18.4380584">
<ele>110</ele>
<time>2016-06-19T19:36:45Z</time>
</trkpt>
<trkpt lat="53.3509934" lon="18.4379531">
<ele>110</ele>
<time>2016-06-19T19:36:47Z</time>
</trkpt>
<trkpt lat="53.3510011" lon="18.4378495">
<ele>110</ele>
<time>2016-06-19T19:36:49Z</time>
</trkpt>
<trkpt lat="53.3510205" lon="18.4377684">
<ele>110</ele>
<time>2016-06-19T19:36:51Z</time>
</trkpt>
<trkpt lat="53.3510483" lon="18.4376952">
<ele>109</ele>
<time>2016-06-19T19:36:53Z</time>
</trkpt>
<trkpt lat="53.3510813" lon="18.4376453">
<ele>108</ele>
<time>2016-06-19T19:36:55Z</time>
</trkpt>
<trkpt lat="53.3511097" lon="18.4375937">
<ele>107</ele>
<time>2016-06-19T19:36:57Z</time>
</trkpt>
<trkpt lat="53.3511351" lon="18.4375580">
<ele>109</ele>
<time>2016-06-19T19:36:59Z</time>
</trkpt>
<trkpt lat="53.3511503" lon="18.4374462">
<ele>111</ele>
<time>2016-06-19T19:37:01Z</time>
</trkpt>
<trkpt lat="53.3511810" lon="18.4373655">
<ele>111</ele>
<time>2016-06-19T19:37:03Z</time>
</trkpt>
<trkpt lat="53.3512134" lon="18.4373358">
<ele>111</ele>
<time>2016-06-19T19:37:05Z</time>
</trkpt>
<trkpt lat="53.3512520" lon="18.4373661">
<ele>109</ele>
<time>2016-06-19T19:37:07Z</time>
</trkpt>
<trkpt lat="53.3512667" lon="18.4374261">
<ele>109</ele>
<time>2016-06-19T19:37:09Z</time>
</trkpt>
<trkpt lat="53.3512810" lon="18.4375062">
<ele>109</ele>
<time>2016-06-19T19:37:11Z</time>
</trkpt>
<trkpt lat="53.3513025" lon="18.4375629">
<ele>109</ele>
<time>2016-06-19T19:37:13Z</time>
</trkpt>
<trkpt lat="53.3513097" lon="18.4376233">
<ele>109</ele>
<time>2016-06-19T19:37:15Z</time>
</trkpt>
<trkpt lat="53.3513148" lon="18.4376624">
<ele>110</ele>
<time>2016-06-19T19:37:17Z</time>
</trkpt>
<trkpt lat="53.3513215" lon="18.4376980">
<ele>111</ele>
<time>2016-06-19T19:37:19Z</time>
</trkpt>
<trkpt lat="53.3513194" lon="18.4377431">
<ele>112</ele>
<time>2016-06-19T19:37:21Z</time>
</trkpt>
<trkpt lat="53.3513149" lon="18.4378014">
<ele>114</ele>
<time>2016-06-19T19:37:23Z</time>
</trkpt>
<trkpt lat="53.3513138" lon="18.4378510">
<ele>115</ele>
<time>2016-06-19T19:37:25Z</time>
</trkpt>
<trkpt lat="53.3513069" lon="18.4378923">
<ele>117</ele>
<time>2016-06-19T19:37:27Z</time>
</trkpt>
<trkpt lat="53.3513034" lon="18.4379081">
<ele>118</ele>
<time>2016-06-19T19:37:29Z</time>
</trkpt>
<trkpt lat="53.3513036" lon="18.4379017">
<ele>118</ele>
<time>2016-06-19T19:37:31Z</time>
</trkpt>
<trkpt lat="53.3513005" lon="18.4378894">
<ele>117</ele>
<time>2016-06-19T19:37:33Z</time>
</trkpt>
<trkpt lat="53.3513025" lon="18.4378369">
<ele>118</ele>
<time>2016-06-19T19:37:35Z</time>
</trkpt>
<trkpt lat="53.3513151" lon="18.4377802">
<ele>117</ele>
<time>2016-06-19T19:37:37Z</time>
</trkpt>
<trkpt lat="53.3513161" lon="18.4377282">
<ele>118</ele>
<time>2016-06-19T19:37:39Z</time>
</trkpt>
<trkpt lat="53.3513216" lon="18.4376538">
<ele>117</ele>
<time>2016-06-19T19:37:41Z</time>
</trkpt>
<trkpt lat="53.3513137" lon="18.4375736">
<ele>116</ele>
<time>2016-06-19T19:37:43Z</time>
</trkpt>
<trkpt lat="53.3513058" lon="18.4374969">
<ele>115</ele>
<time>2016-06-19T19:37:45Z</time>
</trkpt>
<trkpt lat="53.3512895" lon="18.4374159">
<ele>113</ele>
<time>2016-06-19T19:37:47Z</time>
</trkpt>
<trkpt lat="53.3512632" lon="18.4373207">
<ele>112</ele>
<time>2016-06-19T19:37:49Z</time>
</trkpt>
<trkpt lat="53.3512383" lon="18.4372294">
<ele>111</ele>
<time>2016-06-19T19:37:51Z</time>
</trkpt>
<trkpt lat="53.3512090" lon="18.4371492">
<ele>110</ele>
<time>2016-06-19T19:37:53Z</time>
</trkpt>
<trkpt lat="53.3511904" lon="18.4370777">
<ele>109</ele>
<time>2016-06-19T19:37:55Z</time>
</trkpt>
<trkpt lat="53.3511788" lon="18.4370100">
<ele>109</ele>
<time>2016-06-19T19:37:57Z</time>
</trkpt>
<trkpt lat="53.3511697" lon="18.4369349">
<ele>111</ele>
<time>2016-06-19T19:37:59Z</time>
</trkpt>
<trkpt lat="53.3511693" lon="18.4368603">
<ele>110</ele>
<time>2016-06-19T19:38:01Z</time>
</trkpt>
<trkpt lat="53.3511617" lon="18.4367811">
<ele>109</ele>
<time>2016-06-19T19:38:03Z</time>
</trkpt>
<trkpt lat="53.3511484" lon="18.4366924">
<ele>109</ele>
<time>2016-06-19T19:38:05Z</time>
</trkpt>
<trkpt lat="53.3511328" lon="18.4366136">
<ele>109</ele>
<time>2016-06-19T19:38:07Z</time>
</trkpt>
<trkpt lat="53.3511270" lon="18.4365449">
<ele>108</ele>
<time>2016-06-19T19:38:09Z</time>
</trkpt>
<trkpt lat="53.3511177" lon="18.4364688">
<ele>108</ele>
<time>2016-06-19T19:38:11Z</time>
</trkpt>
<trkpt lat="53.3510944" lon="18.4364056">
<ele>108</ele>
<time>2016-06-19T19:38:13Z</time>
</trkpt>
<trkpt lat="53.3510593" lon="18.4363350">
<ele>109</ele>
<time>2016-06-19T19:38:15Z</time>
</trkpt>
<trkpt lat="53.3510186" lon="18.4362808">
<ele>108</ele>
<time>2016-06-19T19:38:17Z</time>
</trkpt>
<trkpt lat="53.3509930" lon="18.4362324">
<ele>107</ele>
<time>2016-06-19T19:38:19Z</time>
</trkpt>
<trkpt lat="53.3509852" lon="18.4361440">
<ele>108</ele>
<time>2016-06-19T19:38:21Z</time>
</trkpt>
<trkpt lat="53.3509845" lon="18.4360625">
<ele>110</ele>
<time>2016-06-19T19:38:23Z</time>
</trkpt>
<trkpt lat="53.3509883" lon="18.4359798">
<ele>110</ele>
<time>2016-06-19T19:38:25Z</time>
</trkpt>
<trkpt lat="53.3509894" lon="18.4359036">
<ele>110</ele>
<time>2016-06-19T19:38:27Z</time>
</trkpt>
<trkpt lat="53.3509926" lon="18.4358288">
<ele>111</ele>
<time>2016-06-19T19:38:29Z</time>
</trkpt>
<trkpt lat="53.3510076" lon="18.4357595">
<ele>111</ele>
<time>2016-06-19T19:38:31Z</time>
</trkpt>
<trkpt lat="53.3510160" lon="18.4356824">
<ele>112</ele>
<time>2016-06-19T19:38:33Z</time>
</trkpt>
<trkpt lat="53.3510167" lon="18.4356026">
<ele>113</ele>
<time>2016-06-19T19:38:35Z</time>
</trkpt>
<trkpt lat="53.3510166" lon="18.4355177">
<ele>115</ele>
<time>2016-06-19T19:38:37Z</time>
</trkpt>
<trkpt lat="53.3510141" lon="18.4354256">
<ele>116</ele>
<time>2016-06-19T19:38:39Z</time>
</trkpt>
<trkpt lat="53.3510137" lon="18.4353277">
<ele>116</ele>
<time>2016-06-19T19:38:41Z</time>
</trkpt>
<trkpt lat="53.3510107" lon="18.4352398">
<ele>119</ele>
<time>2016-06-19T19:38:43Z</time>
</trkpt>
<trkpt lat="53.3510206" lon="18.4351494">
<ele>122</ele>
<time>2016-06-19T19:38:45Z</time>
</trkpt>
<trkpt lat="53.3510286" lon="18.4350464">
<ele>125</ele>
<time>2016-06-19T19:38:47Z</time>
</trkpt>
<trkpt lat="53.3510230" lon="18.4349612">
<ele>127</ele>
<time>2016-06-19T19:38:49Z</time>
</trkpt>
<trkpt lat="53.3509944" lon="18.4348757">
<ele>127</ele>
<time>2016-06-19T19:38:51Z</time>
</trkpt>
<trkpt lat="53.3509912" lon="18.4348096">
<ele>128</ele>
<time>2016-06-19T19:38:53Z</time>
</trkpt>
<trkpt lat="53.3509911" lon="18.4347494">
<ele>131</ele>
<time>2016-06-19T19:38:55Z</time>
</trkpt>
<trkpt lat="53.3509929" lon="18.4346505">
<ele>135</ele>
<time>2016-06-19T19:38:57Z</time>
</trkpt>
<trkpt lat="53.3509835" lon="18.4345764">
<ele>137</ele>
<time>2016-06-19T19:38:59Z</time>
</trkpt>
<trkpt lat="53.3509518" lon="18.4344930">
<ele>137</ele>
<time>2016-06-19T19:39:01Z</time>
</trkpt>
<trkpt lat="53.3509202" lon="18.4343885">
<ele>135</ele>
<time>2016-06-19T19:39:03Z</time>
</trkpt>
<trkpt lat="53.3508900" lon="18.4342727">
<ele>133</ele>
<time>2016-06-19T19:39:05Z</time>
</trkpt>
<trkpt lat="53.3508646" lon="18.4341789">
<ele>131</ele>
<time>2016-06-19T19:39:07Z</time>
</trkpt>
<trkpt lat="53.3508537" lon="18.4340980">
<ele>131</ele>
<time>2016-06-19T19:39:09Z</time>
</trkpt>
<trkpt lat="53.3508439" lon="18.4340215">
<ele>131</ele>
<time>2016-06-19T19:39:11Z</time>
</trkpt>
<trkpt lat="53.3508182" lon="18.4339416">
<ele>130</ele>
<time>2016-06-19T19:39:13Z</time>
</trkpt>
<trkpt lat="53.3507947" lon="18.4338712">
<ele>129</ele>
<time>2016-06-19T19:39:15Z</time>
</trkpt>
<trkpt lat="53.3507567" lon="18.4338061">
<ele>128</ele>
<time>2016-06-19T19:39:17Z</time>
</trkpt>
<trkpt lat="53.3507250" lon="18.4337559">
<ele>128</ele>
<time>2016-06-19T19:39:19Z</time>
</trkpt>
<trkpt lat="53.3507037" lon="18.4336921">
<ele>129</ele>
<time>2016-06-19T19:39:21Z</time>
</trkpt>
<trkpt lat="53.3506931" lon="18.4336121">
<ele>127</ele>
<time>2016-06-19T19:39:23Z</time>
</trkpt>
<trkpt lat="53.3506965" lon="18.4335910">
<ele>127</ele>
<time>2016-06-19T19:39:25Z</time>
</trkpt>
<trkpt lat="53.3507088" lon="18.4335407">
<ele>126</ele>
<time>2016-06-19T19:39:27Z</time>
</trkpt>
<trkpt lat="53.3507306" lon="18.4335013">
<ele>127</ele>
<time>2016-06-19T19:39:29Z</time>
</trkpt>
<trkpt lat="53.3507723" lon="18.4334530">
<ele>127</ele>
<time>2016-06-19T19:39:31Z</time>
</trkpt>
<trkpt lat="53.3508051" lon="18.4334169">
<ele>127</ele>
<time>2016-06-19T19:39:33Z</time>
</trkpt>
<trkpt lat="53.3508388" lon="18.4334014">
<ele>127</ele>
<time>2016-06-19T19:39:35Z</time>
</trkpt>
<trkpt lat="53.3508700" lon="18.4334002">
<ele>127</ele>
<time>2016-06-19T19:39:37Z</time>
</trkpt>
<trkpt lat="53.3509046" lon="18.4333905">
<ele>128</ele>
<time>2016-06-19T19:39:39Z</time>
</trkpt>
<trkpt lat="53.3509314" lon="18.4333728">
<ele>128</ele>
<time>2016-06-19T19:39:41Z</time>
</trkpt>
<trkpt lat="53.3509670" lon="18.4333494">
<ele>127</ele>
<time>2016-06-19T19:39:43Z</time>
</trkpt>
<trkpt lat="53.3510059" lon="18.4333241">
<ele>127</ele>
<time>2016-06-19T19:39:45Z</time>
</trkpt>
<trkpt lat="53.3510520" lon="18.4332738">
<ele>127</ele>
<time>2016-06-19T19:39:47Z</time>
</trkpt>
<trkpt lat="53.3510959" lon="18.4332405">
<ele>125</ele>
<time>2016-06-19T19:39:49Z</time>
</trkpt>
<trkpt lat="53.3511356" lon="18.4332213">
<ele>125</ele>
<time>2016-06-19T19:39:51Z</time>
</trkpt>
<trkpt lat="53.3511863" lon="18.4332069">
<ele>122</ele>
<time>2016-06-19T19:39:53Z</time>
</trkpt>
<trkpt lat="53.3512417" lon="18.4331790">
<ele>121</ele>
<time>2016-06-19T19:39:55Z</time>
</trkpt>
<trkpt lat="53.3512828" lon="18.4331671">
<ele>121</ele>
<time>2016-06-19T19:39:57Z</time>
</trkpt>
<trkpt lat="53.3513335" lon="18.4331745">
<ele>120</ele>
<time>2016-06-19T19:39:59Z</time>
</trkpt>
<trkpt lat="53.3513630" lon="18.4331966">
<ele>121</ele>
<time>2016-06-19T19:40:01Z</time>
</trkpt>
<trkpt lat="53.3513832" lon="18.4332448">
<ele>119</ele>
<time>2016-06-19T19:40:03Z</time>
</trkpt>
<trkpt lat="53.3513914" lon="18.4332969">
<ele>120</ele>
<time>2016-06-19T19:40:05Z</time>
</trkpt>
<trkpt lat="53.3514006" lon="18.4333704">
<ele>119</ele>
<time>2016-06-19T19:40:07Z</time>
</trkpt>
<trkpt lat="53.3514028" lon="18.4334292">
<ele>118</ele>
<time>2016-06-19T19:40:09Z</time>
</trkpt>
<trkpt lat="53.3514146" lon="18.4334983">
<ele>119</ele>
<time>2016-06-19T19:40:11Z</time>
</trkpt>
<trkpt lat="53.3514220" lon="18.4335734">
<ele>119</ele>
<time>2016-06-19T19:40:13Z</time>
</trkpt>
<trkpt lat="53.3514306" lon="18.4336452">
<ele>120</ele>
<time>2016-06-19T19:40:15Z</time>
</trkpt>
<trkpt lat="53.3514332" lon="18.4337096">
<ele>121</ele>
<time>2016-06-19T19:40:17Z</time>
</trkpt>
<trkpt lat="53.3514342" lon="18.4337647">
<ele>121</ele>
<time>2016-06-19T19:40:19Z</time>
</trkpt>
<trkpt lat="53.3514388" lon="18.4338282">
<ele>122</ele>
<time>2016-06-19T19:40:21Z</time>
</trkpt>
<trkpt lat="53.3514382" lon="18.4339214">
<ele>122</ele>
<time>2016-06-19T19:40:23Z</time>
</trkpt>
<trkpt lat="53.3514441" lon="18.4339988">
<ele>121</ele>
<time>2016-06-19T19:40:25Z</time>
</trkpt>
<trkpt lat="53.3514490" lon="18.4340762">
<ele>122</ele>
<time>2016-06-19T19:40:27Z</time>
</trkpt>
<trkpt lat="53.3514516" lon="18.4341463">
<ele>122</ele>
<time>2016-06-19T19:40:29Z</time>
</trkpt>
<trkpt lat="53.3514614" lon="18.4342079">
<ele>123</ele>
<time>2016-06-19T19:40:31Z</time>
</trkpt>
<trkpt lat="53.3514689" lon="18.4342653">
<ele>123</ele>
<time>2016-06-19T19:40:33Z</time>
</trkpt>
<trkpt lat="53.3514735" lon="18.4343248">
<ele>123</ele>
<time>2016-06-19T19:40:35Z</time>
</trkpt>
<trkpt lat="53.3514877" lon="18.4343713">
<ele>122</ele>
<time>2016-06-19T19:40:37Z</time>
</trkpt>
<trkpt lat="53.3515070" lon="18.4344299">
<ele>123</ele>
<time>2016-06-19T19:40:39Z</time>
</trkpt>
<trkpt lat="53.3515321" lon="18.4344941">
<ele>123</ele>
<time>2016-06-19T19:40:41Z</time>
</trkpt>
<trkpt lat="53.3515492" lon="18.4345767">
<ele>125</ele>
<time>2016-06-19T19:40:43Z</time>
</trkpt>
<trkpt lat="53.3515638" lon="18.4346443">
<ele>127</ele>
<time>2016-06-19T19:40:45Z</time>
</trkpt>
<trkpt lat="53.3515786" lon="18.4347212">
<ele>128</ele>
<time>2016-06-19T19:40:47Z</time>
</trkpt>
<trkpt lat="53.3515871" lon="18.4348183">
<ele>129</ele>
<time>2016-06-19T19:40:49Z</time>
</trkpt>
<trkpt lat="53.3515809" lon="18.4349141">
<ele>131</ele>
<time>2016-06-19T19:40:51Z</time>
</trkpt>
<trkpt lat="53.3515487" lon="18.4350243">
<ele>133</ele>
<time>2016-06-19T19:40:53Z</time>
</trkpt>
<trkpt lat="53.3515245" lon="18.4351492">
<ele>136</ele>
<time>2016-06-19T19:40:55Z</time>
</trkpt>
<trkpt lat="53.3515218" lon="18.4352606">
<ele>139</ele>
<time>2016-06-19T19:40:57Z</time>
</trkpt>
<trkpt lat="53.3515350" lon="18.4353668">
<ele>141</ele>
<time>2016-06-19T19:40:59Z</time>
</trkpt>
<trkpt lat="53.3515332" lon="18.4354663">
<ele>144</ele>
<time>2016-06-19T19:41:01Z</time>
</trkpt>
<trkpt lat="53.3515330" lon="18.4355634">
<ele>146</ele>
<time>2016-06-19T19:41:03Z</time>
</trkpt>
<trkpt lat="53.3515478" lon="18.4356416">
<ele>148</ele>
<time>2016-06-19T19:41:05Z</time>
</trkpt>
<trkpt lat="53.3515576" lon="18.4357000">
<ele>153</ele>
<time>2016-06-19T19:41:07Z</time>
</trkpt>
<trkpt lat="53.3516114" lon="18.4357466">
<ele>152</ele>
<time>2016-06-19T19:41:09Z</time>
</trkpt>
<trkpt lat="53.3516738" lon="18.4357537">
<ele>153</ele>
<time>2016-06-19T19:41:11Z</time>
</trkpt>
<trkpt lat="53.3517447" lon="18.4357121">
<ele>155</ele>
<time>2016-06-19T19:41:13Z</time>
</trkpt>
<trkpt lat="53.3518165" lon="18.4356699">
<ele>154</ele>
<time>2016-06-19T19:41:15Z</time>
</trkpt>
<trkpt lat="53.3518834" lon="18.4356288">
<ele>155</ele>
<time>2016-06-19T19:41:17Z</time>
</trkpt>
<trkpt lat="53.3519602" lon="18.4355913">
<ele>155</ele>
<time>2016-06-19T19:41:19Z</time>
</trkpt>
<trkpt lat="53.3520628" lon="18.4355865">
<ele>154</ele>
<time>2016-06-19T19:41:21Z</time>
</trkpt>
<trkpt lat="53.3521362" lon="18.4355600">
<ele>152</ele>
<time>2016-06-19T19:41:23Z</time>
</trkpt>
<trkpt lat="53.3521867" lon="18.4355161">
<ele>149</ele>
<time>2016-06-19T19:41:25Z</time>
</trkpt>
<trkpt lat="53.3522204" lon="18.4355012">
<ele>148</ele>
<time>2016-06-19T19:41:27Z</time>
</trkpt>
<trkpt lat="53.3522652" lon="18.4354517">
<ele>148</ele>
<time>2016-06-19T19:41:29Z</time>
</trkpt>
<trkpt lat="53.3522962" lon="18.4354114">
<ele>148</ele>
<time>2016-06-19T19:41:31Z</time>
</trkpt>
<trkpt lat="53.3523287" lon="18.4353883">
<ele>147</ele>
<time>2016-06-19T19:41:33Z</time>
</trkpt>
<trkpt lat="53.3523629" lon="18.4353772">
<ele>145</ele>
<time>2016-06-19T19:41:35Z</time>
</trkpt>
<trkpt lat="53.3523965" lon="18.4353618">
<ele>143</ele>
<time>2016-06-19T19:41:37Z</time>
</trkpt>
<trkpt lat="53.3524269" lon="18.4353551">
<ele>144</ele>
<time>2016-06-19T19:41:39Z</time>
</trkpt>
<trkpt lat="53.3524529" lon="18.4353229">
<ele>145</ele>
<time>2016-06-19T19:41:41Z</time>
</trkpt>
<trkpt lat="53.3524609" lon="18.4353156">
<ele>145</ele>
<time>2016-06-19T19:41:43Z</time>
</trkpt>
<trkpt lat="53.3524668" lon="18.4353003">
<ele>145</ele>
<time>2016-06-19T19:41:45Z</time>
</trkpt>
<trkpt lat="53.3524708" lon="18.4353176">
<ele>142</ele>
<time>2016-06-19T19:41:47Z</time>
</trkpt>
<trkpt lat="53.3524708" lon="18.4353176">
<ele>142</ele>
<time>2016-06-19T19:41:49Z</time>
</trkpt>
<trkpt lat="53.3524822" lon="18.4353210">
<ele>142</ele>
<time>2016-06-19T19:41:51Z</time>
</trkpt>
<trkpt lat="53.3524937" lon="18.4353259">
<ele>142</ele>
<time>2016-06-19T19:41:53Z</time>
</trkpt>
<trkpt lat="53.3524937" lon="18.4353259">
<ele>142</ele>
<time>2016-06-19T19:41:55Z</time>
</trkpt>
<trkpt lat="53.3524881" lon="18.4353233">
<ele>142</ele>
<time>2016-06-19T19:41:57Z</time>
</trkpt>
<trkpt lat="53.3524844" lon="18.4353174">
<ele>140</ele>
<time>2016-06-19T19:41:59Z</time>
</trkpt>
<trkpt lat="53.3524845" lon="18.4353231">
<ele>140</ele>
<time>2016-06-19T19:42:01Z</time>
</trkpt>
<trkpt lat="53.3524969" lon="18.4353246">
<ele>140</ele>
<time>2016-06-19T19:42:03Z</time>
</trkpt>
<trkpt lat="53.3525241" lon="18.4352995">
<ele>141</ele>
<time>2016-06-19T19:42:05Z</time>
</trkpt>
<trkpt lat="53.3525495" lon="18.4352806">
<ele>142</ele>
<time>2016-06-19T19:42:07Z</time>
</trkpt>
<trkpt lat="53.3525586" lon="18.4352685">
<ele>142</ele>
<time>2016-06-19T19:42:09Z</time>
</trkpt>
<trkpt lat="53.3525783" lon="18.4352544">
<ele>141</ele>
<time>2016-06-19T19:42:11Z</time>
</trkpt>
<trkpt lat="53.3526030" lon="18.4352379">
<ele>141</ele>
<time>2016-06-19T19:42:13Z</time>
</trkpt>
<trkpt lat="53.3526423" lon="18.4352125">
<ele>140</ele>
<time>2016-06-19T19:42:15Z</time>
</trkpt>
<trkpt lat="53.3526643" lon="18.4351857">
<ele>139</ele>
<time>2016-06-19T19:42:17Z</time>
</trkpt>
<trkpt lat="53.3526823" lon="18.4351489">
<ele>138</ele>
<time>2016-06-19T19:42:19Z</time>
</trkpt>
<trkpt lat="53.3527061" lon="18.4351189">
<ele>136</ele>
<time>2016-06-19T19:42:21Z</time>
</trkpt>
<trkpt lat="53.3527301" lon="18.4351046">
<ele>135</ele>
<time>2016-06-19T19:42:23Z</time>
</trkpt>
<trkpt lat="53.3527371" lon="18.4350998">
<ele>135</ele>
<time>2016-06-19T19:42:25Z</time>
</trkpt>
<trkpt lat="53.3527371" lon="18.4350998">
<ele>135</ele>
<time>2016-06-19T19:42:27Z</time>
</trkpt>
<trkpt lat="53.3527371" lon="18.4350998">
<ele>135</ele>
<time>2016-06-19T19:42:29Z</time>
</trkpt>
<trkpt lat="53.3527371" lon="18.4350998">
<ele>135</ele>
<time>2016-06-19T19:42:31Z</time>
</trkpt>
<trkpt lat="53.3527637" lon="18.4350873">
<ele>134</ele>
<time>2016-06-19T19:42:33Z</time>
</trkpt>
<trkpt lat="53.3528135" lon="18.4350452">
<ele>133</ele>
<time>2016-06-19T19:42:35Z</time>
</trkpt>
<trkpt lat="53.3528552" lon="18.4349921">
<ele>132</ele>
<time>2016-06-19T19:42:37Z</time>
</trkpt>
<trkpt lat="53.3529106" lon="18.4349424">
<ele>132</ele>
<time>2016-06-19T19:42:39Z</time>
</trkpt>
<trkpt lat="53.3529728" lon="18.4348674">
<ele>131</ele>
<time>2016-06-19T19:42:41Z</time>
</trkpt>
<trkpt lat="53.3530556" lon="18.4347766">
<ele>130</ele>
<time>2016-06-19T19:42:43Z</time>
</trkpt>
<trkpt lat="53.3531333" lon="18.4346813">
<ele>129</ele>
<time>2016-06-19T19:42:45Z</time>
</trkpt>
<trkpt lat="53.3531916" lon="18.4346190">
<ele>128</ele>
<time>2016-06-19T19:42:47Z</time>
</trkpt>
<trkpt lat="53.3532374" lon="18.4345843">
<ele>127</ele>
<time>2016-06-19T19:42:49Z</time>
</trkpt>
<trkpt lat="53.3532915" lon="18.4345587">
<ele>126</ele>
<time>2016-06-19T19:42:51Z</time>
</trkpt>
<trkpt lat="53.3533328" lon="18.4345463">
<ele>125</ele>
<time>2016-06-19T19:42:53Z</time>
</trkpt>
<trkpt lat="53.3533606" lon="18.4345314">
<ele>125</ele>
<time>2016-06-19T19:42:55Z</time>
</trkpt>
<trkpt lat="53.3533865" lon="18.4345512">
<ele>125</ele>
<time>2016-06-19T19:42:57Z</time>
</trkpt>
<trkpt lat="53.3534032" lon="18.4345665">
<ele>124</ele>
<time>2016-06-19T19:42:59Z</time>
</trkpt>
<trkpt lat="53.3534243" lon="18.4345891">
<ele>122</ele>
<time>2016-06-19T19:43:01Z</time>
</trkpt>
<trkpt lat="53.3534225" lon="18.4346287">
<ele>121</ele>
<time>2016-06-19T19:43:03Z</time>
</trkpt>
<trkpt lat="53.3534089" lon="18.4346858">
<ele>120</ele>
<time>2016-06-19T19:43:05Z</time>
</trkpt>
<trkpt lat="53.3534064" lon="18.4347380">
<ele>120</ele>
<time>2016-06-19T19:43:07Z</time>
</trkpt>
<trkpt lat="53.3534008" lon="18.4347872">
<ele>121</ele>
<time>2016-06-19T19:43:09Z</time>
</trkpt>
<trkpt lat="53.3533961" lon="18.4348266">
<ele>122</ele>
<time>2016-06-19T19:43:11Z</time>
</trkpt>
<trkpt lat="53.3533951" lon="18.4348468">
<ele>122</ele>
<time>2016-06-19T19:43:13Z</time>
</trkpt>
<trkpt lat="53.3533920" lon="18.4348543">
<ele>122</ele>
<time>2016-06-19T19:43:15Z</time>
</trkpt>
<trkpt lat="53.3533875" lon="18.4348555">
<ele>122</ele>
<time>2016-06-19T19:43:17Z</time>
</trkpt>
<trkpt lat="53.3533875" lon="18.4348555">
<ele>122</ele>
<time>2016-06-19T19:43:19Z</time>
</trkpt>
<trkpt lat="53.3533875" lon="18.4348555">
<ele>122</ele>
<time>2016-06-19T19:43:21Z</time>
</trkpt>
<trkpt lat="53.3533875" lon="18.4348555">
<ele>122</ele>
<time>2016-06-19T19:43:23Z</time>
</trkpt>
<trkpt lat="53.3533875" lon="18.4348555">
<ele>122</ele>
<time>2016-06-19T19:43:25Z</time>
</trkpt>
<trkpt lat="53.3533875" lon="18.4348555">
<ele>122</ele>
<time>2016-06-19T19:43:27Z</time>
</trkpt>
<trkpt lat="53.3533875" lon="18.4348555">
<ele>122</ele>
<time>2016-06-19T19:43:29Z</time>
</trkpt>
<trkpt lat="53.3533875" lon="18.4348555">
<ele>122</ele>
<time>2016-06-19T19:43:31Z</time>
</trkpt>
<trkpt lat="53.3533875" lon="18.4348555">
<ele>122</ele>
<time>2016-06-19T19:43:33Z</time>
</trkpt>
<trkpt lat="53.3533875" lon="18.4348555">
<ele>122</ele>
<time>2016-06-19T19:43:35Z</time>
</trkpt>
<trkpt lat="53.3533875" lon="18.4348555">
<ele>122</ele>
<time>2016-06-19T19:43:37Z</time>
</trkpt>
<trkpt lat="53.3533875" lon="18.4348555">
<ele>122</ele>
<time>2016-06-19T19:43:39Z</time>
</trkpt>
<trkpt lat="53.3533875" lon="18.4348555">
<ele>122</ele>
<time>2016-06-19T19:43:41Z</time>
</trkpt>
<trkpt lat="53.3533875" lon="18.4348555">
<ele>122</ele>
<time>2016-06-19T19:43:43Z</time>
</trkpt>
<trkpt lat="53.3533875" lon="18.4348555">
<ele>122</ele>
<time>2016-06-19T19:43:45Z</time>
</trkpt>
<trkpt lat="53.3533875" lon="18.4348555">
<ele>122</ele>
<time>2016-06-19T19:43:47Z</time>
</trkpt>
<trkpt lat="53.3533793" lon="18.4348675">
<ele>123</ele>
<time>2016-06-19T19:43:49Z</time>
</trkpt>
<trkpt lat="53.3533760" lon="18.4348846">
<ele>123</ele>
<time>2016-06-19T19:43:51Z</time>
</trkpt>
<trkpt lat="53.3533760" lon="18.4348846">
<ele>123</ele>
<time>2016-06-19T19:43:53Z</time>
</trkpt>
<trkpt lat="53.3533760" lon="18.4348846">
<ele>123</ele>
<time>2016-06-19T19:43:55Z</time>
</trkpt>
<trkpt lat="53.3533760" lon="18.4348846">
<ele>123</ele>
<time>2016-06-19T19:43:57Z</time>
</trkpt>
<trkpt lat="53.3533760" lon="18.4348846">
<ele>123</ele>
<time>2016-06-19T19:43:59Z</time>
</trkpt>
<trkpt lat="53.3533760" lon="18.4348846">
<ele>123</ele>
<time>2016-06-19T19:44:01Z</time>
</trkpt>
<trkpt lat="53.3533760" lon="18.4348846">
<ele>123</ele>
<time>2016-06-19T19:44:03Z</time>
</trkpt>
<trkpt lat="53.3533760" lon="18.4348846">
<ele>123</ele>
<time>2016-06-19T19:44:05Z</time>
</trkpt>
<trkpt lat="53.3533760" lon="18.4348846">
<ele>123</ele>
<time>2016-06-19T19:44:07Z</time>
</trkpt>
<trkpt lat="53.3533760" lon="18.4348846">
<ele>123</ele>
<time>2016-06-19T19:44:09Z</time>
</trkpt>
<trkpt lat="53.3533760" lon="18.4348846">
<ele>123</ele>
<time>2016-06-19T19:44:11Z</time>
</trkpt>
<trkpt lat="53.3533760" lon="18.4348846">
<ele>123</ele>
<time>2016-06-19T19:44:13Z</time>
</trkpt>
<trkpt lat="53.3533760" lon="18.4348846">
<ele>123</ele>
<time>2016-06-19T19:44:15Z</time>
</trkpt>
<trkpt lat="53.3533760" lon="18.4348846">
<ele>123</ele>
<time>2016-06-19T19:44:17Z</time>
</trkpt>
<trkpt lat="53.3533760" lon="18.4348846">
<ele>123</ele>
<time>2016-06-19T19:44:19Z</time>
</trkpt>
<trkpt lat="53.3533760" lon="18.4348846">
<ele>123</ele>
<time>2016-06-19T19:44:21Z</time>
</trkpt>
<trkpt lat="53.3533760" lon="18.4348846">
<ele>123</ele>
<time>2016-06-19T19:44:23Z</time>
</trkpt>
<trkpt lat="53.3533760" lon="18.4348846">
<ele>123</ele>
<time>2016-06-19T19:44:25Z</time>
</trkpt>
<trkpt lat="53.3533760" lon="18.4348846">
<ele>123</ele>
<time>2016-06-19T19:44:27Z</time>
</trkpt>
<trkpt lat="53.3533760" lon="18.4348846">
<ele>123</ele>
<time>2016-06-19T19:44:29Z</time>
</trkpt>
<trkpt lat="53.3533760" lon="18.4348846">
<ele>123</ele>
<time>2016-06-19T19:44:31Z</time>
</trkpt>
<trkpt lat="53.3533760" lon="18.4348846">
<ele>123</ele>
<time>2016-06-19T19:44:33Z</time>
</trkpt>
<trkpt lat="53.3533760" lon="18.4348846">
<ele>123</ele>
<time>2016-06-19T19:44:35Z</time>
</trkpt>
<trkpt lat="53.3533760" lon="18.4348846">
<ele>123</ele>
<time>2016-06-19T19:44:37Z</time>
</trkpt>
<trkpt lat="53.3533760" lon="18.4348846">
<ele>123</ele>
<time>2016-06-19T19:44:39Z</time>
</trkpt>
<trkpt lat="53.3533760" lon="18.4348846">
<ele>123</ele>
<time>2016-06-19T19:44:41Z</time>
</trkpt>
<trkpt lat="53.3533760" lon="18.4348846">
<ele>123</ele>
<time>2016-06-19T19:44:43Z</time>
</trkpt>
<trkpt lat="53.3533760" lon="18.4348846">
<ele>123</ele>
<time>2016-06-19T19:44:45Z</time>
</trkpt>
<trkpt lat="53.3533760" lon="18.4348846">
<ele>123</ele>
<time>2016-06-19T19:44:47Z</time>
</trkpt>
<trkpt lat="53.3533760" lon="18.4348846">
<ele>123</ele>
<time>2016-06-19T19:44:49Z</time>
</trkpt>
<trkpt lat="53.3533760" lon="18.4348846">
<ele>123</ele>
<time>2016-06-19T19:44:51Z</time>
</trkpt>
<trkpt lat="53.3533760" lon="18.4348846">
<ele>123</ele>
<time>2016-06-19T19:44:53Z</time>
</trkpt>
<trkpt lat="53.3533760" lon="18.4348846">
<ele>123</ele>
<time>2016-06-19T19:44:55Z</time>
</trkpt>
<trkpt lat="53.3533760" lon="18.4348846">
<ele>123</ele>
<time>2016-06-19T19:44:57Z</time>
</trkpt>
<trkpt lat="53.3533760" lon="18.4348846">
<ele>123</ele>
<time>2016-06-19T19:44:59Z</time>
</trkpt>
<trkpt lat="53.3533760" lon="18.4348846">
<ele>123</ele>
<time>2016-06-19T19:45:01Z</time>
</trkpt>
<trkpt lat="53.3533760" lon="18.4348846">
<ele>123</ele>
<time>2016-06-19T19:45:03Z</time>
</trkpt>
<trkpt lat="53.3533760" lon="18.4348846">
<ele>123</ele>
<time>2016-06-19T19:45:05Z</time>
</trkpt>
<trkpt lat="53.3533760" lon="18.4348846">
<ele>123</ele>
<time>2016-06-19T19:45:07Z</time>
</trkpt>
<trkpt lat="53.3533760" lon="18.4348846">
<ele>123</ele>
<time>2016-06-19T19:45:09Z</time>
</trkpt>
<trkpt lat="53.3533760" lon="18.4348846">
<ele>123</ele>
<time>2016-06-19T19:45:11Z</time>
</trkpt>
<trkpt lat="53.3533760" lon="18.4348846">
<ele>123</ele>
<time>2016-06-19T19:45:13Z</time>
</trkpt>
<trkpt lat="53.3533760" lon="18.4348846">
<ele>123</ele>
<time>2016-06-19T19:45:15Z</time>
</trkpt>
<trkpt lat="53.3533760" lon="18.4348846">
<ele>123</ele>
<time>2016-06-19T19:45:17Z</time>
</trkpt>
<trkpt lat="53.3533760" lon="18.4348846">
<ele>123</ele>
<time>2016-06-19T19:45:19Z</time>
</trkpt>
<trkpt lat="53.3533760" lon="18.4348846">
<ele>123</ele>
<time>2016-06-19T19:45:21Z</time>
</trkpt>
<trkpt lat="53.3533760" lon="18.4348846">
<ele>123</ele>
<time>2016-06-19T19:45:23Z</time>
</trkpt>
<trkpt lat="53.3533890" lon="18.4348769">
<ele>122</ele>
<time>2016-06-19T19:45:25Z</time>
</trkpt>
<trkpt lat="53.3534076" lon="18.4348357">
<ele>121</ele>
<time>2016-06-19T19:45:27Z</time>
</trkpt>
<trkpt lat="53.3534302" lon="18.4347770">
<ele>121</ele>
<time>2016-06-19T19:45:29Z</time>
</trkpt>
<trkpt lat="53.3534478" lon="18.4347221">
<ele>120</ele>
<time>2016-06-19T19:45:31Z</time>
</trkpt>
<trkpt lat="53.3534479" lon="18.4346634">
<ele>119</ele>
<time>2016-06-19T19:45:33Z</time>
</trkpt>
<trkpt lat="53.3534427" lon="18.4345981">
<ele>119</ele>
<time>2016-06-19T19:45:35Z</time>
</trkpt>
<trkpt lat="53.3534153" lon="18.4345483">
<ele>119</ele>
<time>2016-06-19T19:45:37Z</time>
</trkpt>
<trkpt lat="53.3533751" lon="18.4345197">
<ele>119</ele>
<time>2016-06-19T19:45:39Z</time>
</trkpt>
<trkpt lat="53.3533183" lon="18.4344912">
<ele>119</ele>
<time>2016-06-19T19:45:41Z</time>
</trkpt>
<trkpt lat="53.3532676" lon="18.4345141">
<ele>118</ele>
<time>2016-06-19T19:45:43Z</time>
</trkpt>
<trkpt lat="53.3532127" lon="18.4345480">
<ele>118</ele>
<time>2016-06-19T19:45:45Z</time>
</trkpt>
<trkpt lat="53.3531489" lon="18.4345558">
<ele>118</ele>
<time>2016-06-19T19:45:47Z</time>
</trkpt>
<trkpt lat="53.3530975" lon="18.4345676">
<ele>119</ele>
<time>2016-06-19T19:45:49Z</time>
</trkpt>
<trkpt lat="53.3530509" lon="18.4345645">
<ele>118</ele>
<time>2016-06-19T19:45:51Z</time>
</trkpt>
<trkpt lat="53.3530164" lon="18.4345731">
<ele>117</ele>
<time>2016-06-19T19:45:53Z</time>
</trkpt>
<trkpt lat="53.3529720" lon="18.4345831">
<ele>117</ele>
<time>2016-06-19T19:45:55Z</time>
</trkpt>
<trkpt lat="53.3528884" lon="18.4346165">
<ele>117</ele>
<time>2016-06-19T19:45:59Z</time>
</trkpt>
<trkpt lat="53.3528369" lon="18.4346429">
<ele>116</ele>
<time>2016-06-19T19:46:01Z</time>
</trkpt>
<trkpt lat="53.3527821" lon="18.4346662">
<ele>116</ele>
<time>2016-06-19T19:46:03Z</time>
</trkpt>
<trkpt lat="53.3527338" lon="18.4346821">
<ele>116</ele>
<time>2016-06-19T19:46:05Z</time>
</trkpt>
<trkpt lat="53.3526935" lon="18.4346994">
<ele>115</ele>
<time>2016-06-19T19:46:07Z</time>
</trkpt>
<trkpt lat="53.3526585" lon="18.4347256">
<ele>115</ele>
<time>2016-06-19T19:46:09Z</time>
</trkpt>
<trkpt lat="53.3526285" lon="18.4347582">
<ele>115</ele>
<time>2016-06-19T19:46:11Z</time>
</trkpt>
<trkpt lat="53.3526159" lon="18.4347998">
<ele>115</ele>
<time>2016-06-19T19:46:13Z</time>
</trkpt>
<trkpt lat="53.3526330" lon="18.4348483">
<ele>117</ele>
<time>2016-06-19T19:46:15Z</time>
</trkpt>
<trkpt lat="53.3526367" lon="18.4348657">
<ele>117</ele>
<time>2016-06-19T19:46:17Z</time>
</trkpt>
<trkpt lat="53.3526359" lon="18.4348858">
<ele>117</ele>
<time>2016-06-19T19:46:19Z</time>
</trkpt>
<trkpt lat="53.3526407" lon="18.4348968">
<ele>117</ele>
<time>2016-06-19T19:46:21Z</time>
</trkpt>
<trkpt lat="53.3526407" lon="18.4348968">
<ele>117</ele>
<time>2016-06-19T19:46:23Z</time>
</trkpt>
<trkpt lat="53.3526300" lon="18.4349320">
<ele>117</ele>
<time>2016-06-19T19:46:25Z</time>
</trkpt>
<trkpt lat="53.3526057" lon="18.4349604">
<ele>117</ele>
<time>2016-06-19T19:46:27Z</time>
</trkpt>
<trkpt lat="53.3525883" lon="18.4349797">
<ele>117</ele>
<time>2016-06-19T19:46:29Z</time>
</trkpt>
<trkpt lat="53.3525850" lon="18.4349924">
<ele>117</ele>
<time>2016-06-19T19:46:31Z</time>
</trkpt>
<trkpt lat="53.3525850" lon="18.4349924">
<ele>117</ele>
<time>2016-06-19T19:46:33Z</time>
</trkpt>
<trkpt lat="53.3525926" lon="18.4349932">
<ele>116</ele>
<time>2016-06-19T19:46:35Z</time>
</trkpt>
<trkpt lat="53.3525907" lon="18.4349531">
<ele>116</ele>
<time>2016-06-19T19:46:37Z</time>
</trkpt>
<trkpt lat="53.3525733" lon="18.4349044">
<ele>115</ele>
<time>2016-06-19T19:46:39Z</time>
</trkpt>
<trkpt lat="53.3525496" lon="18.4348619">
<ele>115</ele>
<time>2016-06-19T19:46:41Z</time>
</trkpt>
<trkpt lat="53.3525318" lon="18.4348341">
<ele>114</ele>
<time>2016-06-19T19:46:43Z</time>
</trkpt>
<trkpt lat="53.3525094" lon="18.4347957">
<ele>115</ele>
<time>2016-06-19T19:46:45Z</time>
</trkpt>
<trkpt lat="53.3524741" lon="18.4347536">
<ele>113</ele>
<time>2016-06-19T19:46:47Z</time>
</trkpt>
<trkpt lat="53.3524342" lon="18.4347045">
<ele>113</ele>
<time>2016-06-19T19:46:49Z</time>
</trkpt>
<trkpt lat="53.3524010" lon="18.4346351">
<ele>112</ele>
<time>2016-06-19T19:46:51Z</time>
</trkpt>
<trkpt lat="53.3523728" lon="18.4345739">
<ele>110</ele>
<time>2016-06-19T19:46:53Z</time>
</trkpt>
<trkpt lat="53.3523558" lon="18.4345166">
<ele>109</ele>
<time>2016-06-19T19:46:55Z</time>
</trkpt>
<trkpt lat="53.3523398" lon="18.4344579">
<ele>109</ele>
<time>2016-06-19T19:46:57Z</time>
</trkpt>
<trkpt lat="53.3523193" lon="18.4344206">
<ele>109</ele>
<time>2016-06-19T19:46:59Z</time>
</trkpt>
<trkpt lat="53.3522747" lon="18.4344198">
<ele>109</ele>
<time>2016-06-19T19:47:01Z</time>
</trkpt>
<trkpt lat="53.3522261" lon="18.4344286">
<ele>108</ele>
<time>2016-06-19T19:47:03Z</time>
</trkpt>
<trkpt lat="53.3521952" lon="18.4344474">
<ele>107</ele>
<time>2016-06-19T19:47:05Z</time>
</trkpt>
<trkpt lat="53.3521541" lon="18.4344737">
<ele>107</ele>
<time>2016-06-19T19:47:07Z</time>
</trkpt>
<trkpt lat="53.3521136" lon="18.4344904">
<ele>107</ele>
<time>2016-06-19T19:47:09Z</time>
</trkpt>
<trkpt lat="53.3520752" lon="18.4345106">
<ele>107</ele>
<time>2016-06-19T19:47:11Z</time>
</trkpt>
<trkpt lat="53.3520383" lon="18.4345240">
<ele>106</ele>
<time>2016-06-19T19:47:13Z</time>
</trkpt>
<trkpt lat="53.3520058" lon="18.4345158">
<ele>107</ele>
<time>2016-06-19T19:47:15Z</time>
</trkpt>
<trkpt lat="53.3519700" lon="18.4344974">
<ele>108</ele>
<time>2016-06-19T19:47:17Z</time>
</trkpt>
<trkpt lat="53.3519328" lon="18.4344831">
<ele>109</ele>
<time>2016-06-19T19:47:19Z</time>
</trkpt>
<trkpt lat="53.3518879" lon="18.4344837">
<ele>110</ele>
<time>2016-06-19T19:47:21Z</time>
</trkpt>
<trkpt lat="53.3518283" lon="18.4344951">
<ele>109</ele>
<time>2016-06-19T19:47:23Z</time>
</trkpt>
<trkpt lat="53.3517734" lon="18.4345278">
<ele>107</ele>
<time>2016-06-19T19:47:25Z</time>
</trkpt>
<trkpt lat="53.3517233" lon="18.4345392">
<ele>107</ele>
<time>2016-06-19T19:47:27Z</time>
</trkpt>
<trkpt lat="53.3516810" lon="18.4345242">
<ele>106</ele>
<time>2016-06-19T19:47:29Z</time>
</trkpt>
<trkpt lat="53.3516803" lon="18.4344747">
<ele>107</ele>
<time>2016-06-19T19:47:31Z</time>
</trkpt>
<trkpt lat="53.3516850" lon="18.4343820">
<ele>108</ele>
<time>2016-06-19T19:47:33Z</time>
</trkpt>
<trkpt lat="53.3516753" lon="18.4342905">
<ele>109</ele>
<time>2016-06-19T19:47:35Z</time>
</trkpt>
<trkpt lat="53.3516513" lon="18.4342305">
<ele>110</ele>
<time>2016-06-19T19:47:37Z</time>
</trkpt>
<trkpt lat="53.3516331" lon="18.4341575">
<ele>109</ele>
<time>2016-06-19T19:47:39Z</time>
</trkpt>
<trkpt lat="53.3516208" lon="18.4340864">
<ele>109</ele>
<time>2016-06-19T19:47:41Z</time>
</trkpt>
<trkpt lat="53.3516159" lon="18.4340194">
<ele>109</ele>
<time>2016-06-19T19:47:43Z</time>
</trkpt>
<trkpt lat="53.3516117" lon="18.4339343">
<ele>109</ele>
<time>2016-06-19T19:47:45Z</time>
</trkpt>
<trkpt lat="53.3515919" lon="18.4338473">
<ele>108</ele>
<time>2016-06-19T19:47:47Z</time>
</trkpt>
<trkpt lat="53.3515702" lon="18.4337590">
<ele>109</ele>
<time>2016-06-19T19:47:49Z</time>
</trkpt>
<trkpt lat="53.3515691" lon="18.4336913">
<ele>109</ele>
<time>2016-06-19T19:47:51Z</time>
</trkpt>
<trkpt lat="53.3515693" lon="18.4336233">
<ele>109</ele>
<time>2016-06-19T19:47:53Z</time>
</trkpt>
<trkpt lat="53.3515658" lon="18.4335569">
<ele>109</ele>
<time>2016-06-19T19:47:55Z</time>
</trkpt>
<trkpt lat="53.3515437" lon="18.4334740">
<ele>108</ele>
<time>2016-06-19T19:47:57Z</time>
</trkpt>
<trkpt lat="53.3515166" lon="18.4333795">
<ele>109</ele>
<time>2016-06-19T19:47:59Z</time>
</trkpt>
<trkpt lat="53.3515449" lon="18.4332077">
<ele>111</ele>
<time>2016-06-19T19:48:03Z</time>
</trkpt>
<trkpt lat="53.3516000" lon="18.4331406">
<ele>111</ele>
<time>2016-06-19T19:48:05Z</time>
</trkpt>
<trkpt lat="53.3516609" lon="18.4330684">
<ele>112</ele>
<time>2016-06-19T19:48:07Z</time>
</trkpt>
<trkpt lat="53.3517388" lon="18.4330117">
<ele>112</ele>
<time>2016-06-19T19:48:09Z</time>
</trkpt>
<trkpt lat="53.3518128" lon="18.4329468">
<ele>112</ele>
<time>2016-06-19T19:48:11Z</time>
</trkpt>
<trkpt lat="53.3518875" lon="18.4329021">
<ele>112</ele>
<time>2016-06-19T19:48:13Z</time>
</trkpt>
<trkpt lat="53.3519645" lon="18.4328559">
<ele>113</ele>
<time>2016-06-19T19:48:15Z</time>
</trkpt>
<trkpt lat="53.3520434" lon="18.4328026">
<ele>112</ele>
<time>2016-06-19T19:48:17Z</time>
</trkpt>
<trkpt lat="53.3521103" lon="18.4327434">
<ele>111</ele>
<time>2016-06-19T19:48:19Z</time>
</trkpt>
<trkpt lat="53.3521630" lon="18.4326825">
<ele>112</ele>
<time>2016-06-19T19:48:21Z</time>
</trkpt>
<trkpt lat="53.3521938" lon="18.4326034">
<ele>112</ele>
<time>2016-06-19T19:48:23Z</time>
</trkpt>
<trkpt lat="53.3522310" lon="18.4325232">
<ele>112</ele>
<time>2016-06-19T19:48:25Z</time>
</trkpt>
<trkpt lat="53.3522586" lon="18.4324521">
<ele>112</ele>
<time>2016-06-19T19:48:27Z</time>
</trkpt>
<trkpt lat="53.3522891" lon="18.4323898">
<ele>112</ele>
<time>2016-06-19T19:48:29Z</time>
</trkpt>
<trkpt lat="53.3523186" lon="18.4323191">
<ele>111</ele>
<time>2016-06-19T19:48:31Z</time>
</trkpt>
<trkpt lat="53.3523471" lon="18.4322432">
<ele>111</ele>
<time>2016-06-19T19:48:33Z</time>
</trkpt>
<trkpt lat="53.3523765" lon="18.4321802">
<ele>113</ele>
<time>2016-06-19T19:48:35Z</time>
</trkpt>
<trkpt lat="53.3524151" lon="18.4321068">
<ele>115</ele>
<time>2016-06-19T19:48:37Z</time>
</trkpt>
<trkpt lat="53.3524557" lon="18.4320241">
<ele>117</ele>
<time>2016-06-19T19:48:39Z</time>
</trkpt>
<trkpt lat="53.3524870" lon="18.4319707">
<ele>117</ele>
<time>2016-06-19T19:48:41Z</time>
</trkpt>
<trkpt lat="53.3525017" lon="18.4319369">
<ele>120</ele>
<time>2016-06-19T19:48:43Z</time>
</trkpt>
<trkpt lat="53.3524789" lon="18.4318636">
<ele>119</ele>
<time>2016-06-19T19:48:45Z</time>
</trkpt>
<trkpt lat="53.3524426" lon="18.4317905">
<ele>118</ele>
<time>2016-06-19T19:48:47Z</time>
</trkpt>
<trkpt lat="53.3524067" lon="18.4317312">
<ele>118</ele>
<time>2016-06-19T19:48:49Z</time>
</trkpt>
<trkpt lat="53.3523753" lon="18.4316843">
<ele>119</ele>
<time>2016-06-19T19:48:51Z</time>
</trkpt>
<trkpt lat="53.3523436" lon="18.4316319">
<ele>120</ele>
<time>2016-06-19T19:48:53Z</time>
</trkpt>
<trkpt lat="53.3523050" lon="18.4315853">
<ele>121</ele>
<time>2016-06-19T19:48:55Z</time>
</trkpt>
<trkpt lat="53.3522624" lon="18.4315435">
<ele>121</ele>
<time>2016-06-19T19:48:57Z</time>
</trkpt>
<trkpt lat="53.3522246" lon="18.4315050">
<ele>122</ele>
<time>2016-06-19T19:48:59Z</time>
</trkpt>
<trkpt lat="53.3521751" lon="18.4314677">
<ele>122</ele>
<time>2016-06-19T19:49:01Z</time>
</trkpt>
<trkpt lat="53.3521258" lon="18.4314355">
<ele>122</ele>
<time>2016-06-19T19:49:03Z</time>
</trkpt>
<trkpt lat="53.3520928" lon="18.4313890">
<ele>122</ele>
<time>2016-06-19T19:49:05Z</time>
</trkpt>
<trkpt lat="53.3520634" lon="18.4313338">
<ele>123</ele>
<time>2016-06-19T19:49:07Z</time>
</trkpt>
<trkpt lat="53.3520300" lon="18.4312897">
<ele>123</ele>
<time>2016-06-19T19:49:09Z</time>
</trkpt>
<trkpt lat="53.3520035" lon="18.4312410">
<ele>124</ele>
<time>2016-06-19T19:49:11Z</time>
</trkpt>
<trkpt lat="53.3519705" lon="18.4311703">
<ele>125</ele>
<time>2016-06-19T19:49:13Z</time>
</trkpt>
<trkpt lat="53.3519260" lon="18.4311199">
<ele>125</ele>
<time>2016-06-19T19:49:15Z</time>
</trkpt>
<trkpt lat="53.3518872" lon="18.4310714">
<ele>125</ele>
<time>2016-06-19T19:49:17Z</time>
</trkpt>
<trkpt lat="53.3518534" lon="18.4310280">
<ele>125</ele>
<time>2016-06-19T19:49:19Z</time>
</trkpt>
<trkpt lat="53.3518323" lon="18.4309914">
<ele>125</ele>
<time>2016-06-19T19:49:21Z</time>
</trkpt>
<trkpt lat="53.3518119" lon="18.4309584">
<ele>124</ele>
<time>2016-06-19T19:49:23Z</time>
</trkpt>
<trkpt lat="53.3518063" lon="18.4309425">
<ele>124</ele>
<time>2016-06-19T19:49:25Z</time>
</trkpt>
<trkpt lat="53.3517832" lon="18.4308927">
<ele>124</ele>
<time>2016-06-19T19:49:27Z</time>
</trkpt>
<trkpt lat="53.3517528" lon="18.4308287">
<ele>124</ele>
<time>2016-06-19T19:49:29Z</time>
</trkpt>
<trkpt lat="53.3517240" lon="18.4307663">
<ele>123</ele>
<time>2016-06-19T19:49:31Z</time>
</trkpt>
<trkpt lat="53.3516990" lon="18.4307157">
<ele>123</ele>
<time>2016-06-19T19:49:33Z</time>
</trkpt>
<trkpt lat="53.3516763" lon="18.4306635">
<ele>123</ele>
<time>2016-06-19T19:49:35Z</time>
</trkpt>
<trkpt lat="53.3516514" lon="18.4306070">
<ele>124</ele>
<time>2016-06-19T19:49:37Z</time>
</trkpt>
<trkpt lat="53.3516194" lon="18.4305510">
<ele>124</ele>
<time>2016-06-19T19:49:39Z</time>
</trkpt>
<trkpt lat="53.3515856" lon="18.4304950">
<ele>124</ele>
<time>2016-06-19T19:49:41Z</time>
</trkpt>
<trkpt lat="53.3515482" lon="18.4304551">
<ele>123</ele>
<time>2016-06-19T19:49:43Z</time>
</trkpt>
<trkpt lat="53.3514843" lon="18.4304178">
<ele>120</ele>
<time>2016-06-19T19:49:45Z</time>
</trkpt>
<trkpt lat="53.3514379" lon="18.4304086">
<ele>120</ele>
<time>2016-06-19T19:49:47Z</time>
</trkpt>
<trkpt lat="53.3513813" lon="18.4304285">
<ele>121</ele>
<time>2016-06-19T19:49:49Z</time>
</trkpt>
<trkpt lat="53.3513227" lon="18.4304461">
<ele>122</ele>
<time>2016-06-19T19:49:51Z</time>
</trkpt>
<trkpt lat="53.3512671" lon="18.4304649">
<ele>124</ele>
<time>2016-06-19T19:49:53Z</time>
</trkpt>
<trkpt lat="53.3512098" lon="18.4304813">
<ele>126</ele>
<time>2016-06-19T19:49:55Z</time>
</trkpt>
<trkpt lat="53.3511559" lon="18.4305106">
<ele>125</ele>
<time>2016-06-19T19:49:57Z</time>
</trkpt>
<trkpt lat="53.3511025" lon="18.4305387">
<ele>125</ele>
<time>2016-06-19T19:49:59Z</time>
</trkpt>
<trkpt lat="53.3510520" lon="18.4305518">
<ele>125</ele>
<time>2016-06-19T19:50:01Z</time>
</trkpt>
<trkpt lat="53.3510046" lon="18.4305686">
<ele>125</ele>
<time>2016-06-19T19:50:03Z</time>
</trkpt>
<trkpt lat="53.3509547" lon="18.4305868">
<ele>126</ele>
<time>2016-06-19T19:50:05Z</time>
</trkpt>
<trkpt lat="53.3509049" lon="18.4305966">
<ele>127</ele>
<time>2016-06-19T19:50:07Z</time>
</trkpt>
<trkpt lat="53.3508644" lon="18.4306130">
<ele>126</ele>
<time>2016-06-19T19:50:09Z</time>
</trkpt>
<trkpt lat="53.3508200" lon="18.4306289">
<ele>125</ele>
<time>2016-06-19T19:50:11Z</time>
</trkpt>
<trkpt lat="53.3507756" lon="18.4306283">
<ele>126</ele>
<time>2016-06-19T19:50:13Z</time>
</trkpt>
<trkpt lat="53.3507396" lon="18.4306346">
<ele>126</ele>
<time>2016-06-19T19:50:15Z</time>
</trkpt>
<trkpt lat="53.3507252" lon="18.4306360">
<ele>126</ele>
<time>2016-06-19T19:50:17Z</time>
</trkpt>
<trkpt lat="53.3507097" lon="18.4306248">
<ele>126</ele>
<time>2016-06-19T19:50:19Z</time>
</trkpt>
<trkpt lat="53.3506872" lon="18.4306199">
<ele>126</ele>
<time>2016-06-19T19:50:21Z</time>
</trkpt>
<trkpt lat="53.3506674" lon="18.4306201">
<ele>126</ele>
<time>2016-06-19T19:50:23Z</time>
</trkpt>
<trkpt lat="53.3506541" lon="18.4306108">
<ele>126</ele>
<time>2016-06-19T19:50:25Z</time>
</trkpt>
<trkpt lat="53.3506530" lon="18.4305848">
<ele>126</ele>
<time>2016-06-19T19:50:27Z</time>
</trkpt>
<trkpt lat="53.3506697" lon="18.4305445">
<ele>126</ele>
<time>2016-06-19T19:50:29Z</time>
</trkpt>
<trkpt lat="53.3506894" lon="18.4304804">
<ele>125</ele>
<time>2016-06-19T19:50:31Z</time>
</trkpt>
<trkpt lat="53.3506981" lon="18.4304132">
<ele>126</ele>
<time>2016-06-19T19:50:33Z</time>
</trkpt>
<trkpt lat="53.3507085" lon="18.4303373">
<ele>126</ele>
<time>2016-06-19T19:50:35Z</time>
</trkpt>
<trkpt lat="53.3507116" lon="18.4302575">
<ele>126</ele>
<time>2016-06-19T19:50:37Z</time>
</trkpt>
<trkpt lat="53.3507197" lon="18.4301789">
<ele>126</ele>
<time>2016-06-19T19:50:39Z</time>
</trkpt>
<trkpt lat="53.3507295" lon="18.4300950">
<ele>127</ele>
<time>2016-06-19T19:50:41Z</time>
</trkpt>
<trkpt lat="53.3507403" lon="18.4300154">
<ele>128</ele>
<time>2016-06-19T19:50:43Z</time>
</trkpt>
<trkpt lat="53.3507488" lon="18.4299441">
<ele>128</ele>
<time>2016-06-19T19:50:45Z</time>
</trkpt>
<trkpt lat="53.3507571" lon="18.4298682">
<ele>129</ele>
<time>2016-06-19T19:50:47Z</time>
</trkpt>
<trkpt lat="53.3507577" lon="18.4298011">
<ele>128</ele>
<time>2016-06-19T19:50:49Z</time>
</trkpt>
<trkpt lat="53.3507641" lon="18.4297196">
<ele>128</ele>
<time>2016-06-19T19:50:51Z</time>
</trkpt>
<trkpt lat="53.3507763" lon="18.4296309">
<ele>129</ele>
<time>2016-06-19T19:50:53Z</time>
</trkpt>
<trkpt lat="53.3507842" lon="18.4295345">
<ele>128</ele>
<time>2016-06-19T19:50:55Z</time>
</trkpt>
<trkpt lat="53.3507926" lon="18.4294446">
<ele>128</ele>
<time>2016-06-19T19:50:57Z</time>
</trkpt>
<trkpt lat="53.3507963" lon="18.4293605">
<ele>128</ele>
<time>2016-06-19T19:50:59Z</time>
</trkpt>
<trkpt lat="53.3508006" lon="18.4292797">
<ele>128</ele>
<time>2016-06-19T19:51:01Z</time>
</trkpt>
<trkpt lat="53.3507946" lon="18.4292005">
<ele>129</ele>
<time>2016-06-19T19:51:03Z</time>
</trkpt>
<trkpt lat="53.3507888" lon="18.4291119">
<ele>128</ele>
<time>2016-06-19T19:51:05Z</time>
</trkpt>
<trkpt lat="53.3507748" lon="18.4290230">
<ele>125</ele>
<time>2016-06-19T19:51:07Z</time>
</trkpt>
<trkpt lat="53.3507714" lon="18.4289025">
<ele>118</ele>
<time>2016-06-19T19:51:09Z</time>
</trkpt>
<trkpt lat="53.3507836" lon="18.4287933">
<ele>116</ele>
<time>2016-06-19T19:51:11Z</time>
</trkpt>
<trkpt lat="53.3508103" lon="18.4286946">
<ele>115</ele>
<time>2016-06-19T19:51:13Z</time>
</trkpt>
<trkpt lat="53.3508298" lon="18.4286007">
<ele>116</ele>
<time>2016-06-19T19:51:15Z</time>
</trkpt>
<trkpt lat="53.3508246" lon="18.4285057">
<ele>116</ele>
<time>2016-06-19T19:51:17Z</time>
</trkpt>
<trkpt lat="53.3507969" lon="18.4284111">
<ele>117</ele>
<time>2016-06-19T19:51:19Z</time>
</trkpt>
<trkpt lat="53.3507681" lon="18.4283362">
<ele>117</ele>
<time>2016-06-19T19:51:21Z</time>
</trkpt>
<trkpt lat="53.3507674" lon="18.4282823">
<ele>119</ele>
<time>2016-06-19T19:51:23Z</time>
</trkpt>
<trkpt lat="53.3507366" lon="18.4282020">
<ele>116</ele>
<time>2016-06-19T19:51:25Z</time>
</trkpt>
<trkpt lat="53.3506755" lon="18.4281835">
<ele>116</ele>
<time>2016-06-19T19:51:27Z</time>
</trkpt>
<trkpt lat="53.3506397" lon="18.4281765">
<ele>116</ele>
<time>2016-06-19T19:51:29Z</time>
</trkpt>
<trkpt lat="53.3506245" lon="18.4281333">
<ele>117</ele>
<time>2016-06-19T19:51:31Z</time>
</trkpt>
<trkpt lat="53.3506010" lon="18.4280570">
<ele>119</ele>
<time>2016-06-19T19:51:33Z</time>
</trkpt>
<trkpt lat="53.3505905" lon="18.4279626">
<ele>119</ele>
<time>2016-06-19T19:51:35Z</time>
</trkpt>
<trkpt lat="53.3505649" lon="18.4278888">
<ele>119</ele>
<time>2016-06-19T19:51:37Z</time>
</trkpt>
<trkpt lat="53.3505364" lon="18.4278114">
<ele>117</ele>
<time>2016-06-19T19:51:39Z</time>
</trkpt>
<trkpt lat="53.3505058" lon="18.4277491">
<ele>116</ele>
<time>2016-06-19T19:51:41Z</time>
</trkpt>
<trkpt lat="53.3504835" lon="18.4276896">
<ele>116</ele>
<time>2016-06-19T19:51:43Z</time>
</trkpt>
<trkpt lat="53.3504563" lon="18.4276187">
<ele>116</ele>
<time>2016-06-19T19:51:45Z</time>
</trkpt>
<trkpt lat="53.3504353" lon="18.4275405">
<ele>116</ele>
<time>2016-06-19T19:51:47Z</time>
</trkpt>
<trkpt lat="53.3503974" lon="18.4274587">
<ele>117</ele>
<time>2016-06-19T19:51:49Z</time>
</trkpt>
<trkpt lat="53.3503495" lon="18.4273683">
<ele>115</ele>
<time>2016-06-19T19:51:51Z</time>
</trkpt>
<trkpt lat="53.3503108" lon="18.4272835">
<ele>114</ele>
<time>2016-06-19T19:51:53Z</time>
</trkpt>
<trkpt lat="53.3502886" lon="18.4272030">
<ele>113</ele>
<time>2016-06-19T19:51:55Z</time>
</trkpt>
<trkpt lat="53.3502699" lon="18.4271257">
<ele>112</ele>
<time>2016-06-19T19:51:57Z</time>
</trkpt>
<trkpt lat="53.3502364" lon="18.4270469">
<ele>111</ele>
<time>2016-06-19T19:51:59Z</time>
</trkpt>
<trkpt lat="53.3502072" lon="18.4269800">
<ele>110</ele>
<time>2016-06-19T19:52:01Z</time>
</trkpt>
<trkpt lat="53.3501788" lon="18.4269153">
<ele>110</ele>
<time>2016-06-19T19:52:03Z</time>
</trkpt>
<trkpt lat="53.3501686" lon="18.4268571">
<ele>110</ele>
<time>2016-06-19T19:52:05Z</time>
</trkpt>
<trkpt lat="53.3501604" lon="18.4267994">
<ele>112</ele>
<time>2016-06-19T19:52:07Z</time>
</trkpt>
<trkpt lat="53.3501532" lon="18.4267396">
<ele>113</ele>
<time>2016-06-19T19:52:09Z</time>
</trkpt>
<trkpt lat="53.3501383" lon="18.4266733">
<ele>113</ele>
<time>2016-06-19T19:52:11Z</time>
</trkpt>
<trkpt lat="53.3501161" lon="18.4266354">
<ele>116</ele>
<time>2016-06-19T19:52:13Z</time>
</trkpt>
<trkpt lat="53.3500867" lon="18.4265783">
<ele>117</ele>
<time>2016-06-19T19:52:15Z</time>
</trkpt>
<trkpt lat="53.3500619" lon="18.4265152">
<ele>117</ele>
<time>2016-06-19T19:52:17Z</time>
</trkpt>
<trkpt lat="53.3500436" lon="18.4264697">
<ele>117</ele>
<time>2016-06-19T19:52:19Z</time>
</trkpt>
<trkpt lat="53.3500164" lon="18.4264175">
<ele>117</ele>
<time>2016-06-19T19:52:21Z</time>
</trkpt>
<trkpt lat="53.3499861" lon="18.4263447">
<ele>116</ele>
<time>2016-06-19T19:52:23Z</time>
</trkpt>
<trkpt lat="53.3499393" lon="18.4262667">
<ele>115</ele>
<time>2016-06-19T19:52:25Z</time>
</trkpt>
<trkpt lat="53.3498971" lon="18.4261858">
<ele>113</ele>
<time>2016-06-19T19:52:27Z</time>
</trkpt>
<trkpt lat="53.3498693" lon="18.4261059">
<ele>113</ele>
<time>2016-06-19T19:52:29Z</time>
</trkpt>
<trkpt lat="53.3498550" lon="18.4260243">
<ele>112</ele>
<time>2016-06-19T19:52:31Z</time>
</trkpt>
<trkpt lat="53.3498408" lon="18.4259354">
<ele>110</ele>
<time>2016-06-19T19:52:33Z</time>
</trkpt>
<trkpt lat="53.3498071" lon="18.4258531">
<ele>110</ele>
<time>2016-06-19T19:52:35Z</time>
</trkpt>
<trkpt lat="53.3497750" lon="18.4257680">
<ele>110</ele>
<time>2016-06-19T19:52:37Z</time>
</trkpt>
<trkpt lat="53.3497686" lon="18.4256898">
<ele>109</ele>
<time>2016-06-19T19:52:39Z</time>
</trkpt>
<trkpt lat="53.3497413" lon="18.4256403">
<ele>109</ele>
<time>2016-06-19T19:52:41Z</time>
</trkpt>
<trkpt lat="53.3497051" lon="18.4256065">
<ele>110</ele>
<time>2016-06-19T19:52:43Z</time>
</trkpt>
<trkpt lat="53.3496816" lon="18.4255615">
<ele>110</ele>
<time>2016-06-19T19:52:45Z</time>
</trkpt>
<trkpt lat="53.3496776" lon="18.4255046">
<ele>110</ele>
<time>2016-06-19T19:52:47Z</time>
</trkpt>
<trkpt lat="53.3496624" lon="18.4254339">
<ele>111</ele>
<time>2016-06-19T19:52:49Z</time>
</trkpt>
<trkpt lat="53.3496392" lon="18.4253406">
<ele>112</ele>
<time>2016-06-19T19:52:51Z</time>
</trkpt>
<trkpt lat="53.3496144" lon="18.4252647">
<ele>113</ele>
<time>2016-06-19T19:52:53Z</time>
</trkpt>
<trkpt lat="53.3495891" lon="18.4252057">
<ele>112</ele>
<time>2016-06-19T19:52:55Z</time>
</trkpt>
<trkpt lat="53.3495669" lon="18.4251580">
<ele>113</ele>
<time>2016-06-19T19:52:57Z</time>
</trkpt>
<trkpt lat="53.3495487" lon="18.4251190">
<ele>114</ele>
<time>2016-06-19T19:52:59Z</time>
</trkpt>
<trkpt lat="53.3495373" lon="18.4250796">
<ele>114</ele>
<time>2016-06-19T19:53:01Z</time>
</trkpt>
<trkpt lat="53.3495232" lon="18.4250430">
<ele>114</ele>
<time>2016-06-19T19:53:03Z</time>
</trkpt>
<trkpt lat="53.3495039" lon="18.4250097">
<ele>114</ele>
<time>2016-06-19T19:53:05Z</time>
</trkpt>
<trkpt lat="53.3494887" lon="18.4249661">
<ele>114</ele>
<time>2016-06-19T19:53:07Z</time>
</trkpt>
<trkpt lat="53.3494705" lon="18.4249301">
<ele>114</ele>
<time>2016-06-19T19:53:09Z</time>
</trkpt>
<trkpt lat="53.3494559" lon="18.4248952">
<ele>115</ele>
<time>2016-06-19T19:53:11Z</time>
</trkpt>
<trkpt lat="53.3494373" lon="18.4248737">
<ele>115</ele>
<time>2016-06-19T19:53:13Z</time>
</trkpt>
<trkpt lat="53.3494272" lon="18.4248527">
<ele>115</ele>
<time>2016-06-19T19:53:15Z</time>
</trkpt>
<trkpt lat="53.3494108" lon="18.4248098">
<ele>116</ele>
<time>2016-06-19T19:53:17Z</time>
</trkpt>
<trkpt lat="53.3493962" lon="18.4247654">
<ele>116</ele>
<time>2016-06-19T19:53:19Z</time>
</trkpt>
<trkpt lat="53.3493754" lon="18.4247160">
<ele>116</ele>
<time>2016-06-19T19:53:21Z</time>
</trkpt>
<trkpt lat="53.3493600" lon="18.4246516">
<ele>117</ele>
<time>2016-06-19T19:53:23Z</time>
</trkpt>
<trkpt lat="53.3493410" lon="18.4245842">
<ele>116</ele>
<time>2016-06-19T19:53:25Z</time>
</trkpt>
<trkpt lat="53.3493214" lon="18.4245215">
<ele>115</ele>
<time>2016-06-19T19:53:27Z</time>
</trkpt>
<trkpt lat="53.3493230" lon="18.4244717">
<ele>115</ele>
<time>2016-06-19T19:53:29Z</time>
</trkpt>
<trkpt lat="53.3493389" lon="18.4243806">
<ele>115</ele>
<time>2016-06-19T19:53:31Z</time>
</trkpt>
<trkpt lat="53.3493428" lon="18.4243181">
<ele>114</ele>
<time>2016-06-19T19:53:33Z</time>
</trkpt>
<trkpt lat="53.3493532" lon="18.4242409">
<ele>113</ele>
<time>2016-06-19T19:53:35Z</time>
</trkpt>
<trkpt lat="53.3493468" lon="18.4241765">
<ele>110</ele>
<time>2016-06-19T19:53:37Z</time>
</trkpt>
<trkpt lat="53.3493384" lon="18.4241288">
<ele>110</ele>
<time>2016-06-19T19:53:39Z</time>
</trkpt>
<trkpt lat="53.3493349" lon="18.4240489">
<ele>110</ele>
<time>2016-06-19T19:53:41Z</time>
</trkpt>
<trkpt lat="53.3493392" lon="18.4239633">
<ele>114</ele>
<time>2016-06-19T19:53:43Z</time>
</trkpt>
<trkpt lat="53.3493771" lon="18.4238708">
<ele>114</ele>
<time>2016-06-19T19:53:45Z</time>
</trkpt>
<trkpt lat="53.3494197" lon="18.4237938">
<ele>115</ele>
<time>2016-06-19T19:53:47Z</time>
</trkpt>
<trkpt lat="53.3494296" lon="18.4237182">
<ele>117</ele>
<time>2016-06-19T19:53:49Z</time>
</trkpt>
<trkpt lat="53.3494175" lon="18.4236430">
<ele>116</ele>
<time>2016-06-19T19:53:51Z</time>
</trkpt>
<trkpt lat="53.3494025" lon="18.4235571">
<ele>115</ele>
<time>2016-06-19T19:53:53Z</time>
</trkpt>
<trkpt lat="53.3493991" lon="18.4234871">
<ele>115</ele>
<time>2016-06-19T19:53:55Z</time>
</trkpt>
<trkpt lat="53.3494170" lon="18.4234191">
<ele>114</ele>
<time>2016-06-19T19:53:57Z</time>
</trkpt>
<trkpt lat="53.3494426" lon="18.4233793">
<ele>115</ele>
<time>2016-06-19T19:53:59Z</time>
</trkpt>
<trkpt lat="53.3494599" lon="18.4233412">
<ele>116</ele>
<time>2016-06-19T19:54:01Z</time>
</trkpt>
<trkpt lat="53.3494596" lon="18.4233083">
<ele>119</ele>
<time>2016-06-19T19:54:03Z</time>
</trkpt>
<trkpt lat="53.3494447" lon="18.4232648">
<ele>121</ele>
<time>2016-06-19T19:54:05Z</time>
</trkpt>
<trkpt lat="53.3494481" lon="18.4232060">
<ele>122</ele>
<time>2016-06-19T19:54:07Z</time>
</trkpt>
<trkpt lat="53.3494355" lon="18.4231365">
<ele>123</ele>
<time>2016-06-19T19:54:09Z</time>
</trkpt>
<trkpt lat="53.3494407" lon="18.4230705">
<ele>125</ele>
<time>2016-06-19T19:54:11Z</time>
</trkpt>
<trkpt lat="53.3494474" lon="18.4230013">
<ele>126</ele>
<time>2016-06-19T19:54:13Z</time>
</trkpt>
<trkpt lat="53.3494538" lon="18.4229280">
<ele>127</ele>
<time>2016-06-19T19:54:15Z</time>
</trkpt>
<trkpt lat="53.3494539" lon="18.4228695">
<ele>128</ele>
<time>2016-06-19T19:54:17Z</time>
</trkpt>
<trkpt lat="53.3494346" lon="18.4228238">
<ele>128</ele>
<time>2016-06-19T19:54:19Z</time>
</trkpt>
<trkpt lat="53.3493879" lon="18.4227690">
<ele>126</ele>
<time>2016-06-19T19:54:21Z</time>
</trkpt>
<trkpt lat="53.3493484" lon="18.4227280">
<ele>125</ele>
<time>2016-06-19T19:54:23Z</time>
</trkpt>
<trkpt lat="53.3493244" lon="18.4227056">
<ele>125</ele>
<time>2016-06-19T19:54:25Z</time>
</trkpt>
<trkpt lat="53.3492988" lon="18.4226905">
<ele>124</ele>
<time>2016-06-19T19:54:27Z</time>
</trkpt>
<trkpt lat="53.3492729" lon="18.4226899">
<ele>125</ele>
<time>2016-06-19T19:54:29Z</time>
</trkpt>
<trkpt lat="53.3492350" lon="18.4226976">
<ele>124</ele>
<time>2016-06-19T19:54:31Z</time>
</trkpt>
<trkpt lat="53.3491879" lon="18.4227052">
<ele>123</ele>
<time>2016-06-19T19:54:33Z</time>
</trkpt>
<trkpt lat="53.3491467" lon="18.4227111">
<ele>121</ele>
<time>2016-06-19T19:54:35Z</time>
</trkpt>
<trkpt lat="53.3491301" lon="18.4227183">
<ele>121</ele>
<time>2016-06-19T19:54:37Z</time>
</trkpt>
<trkpt lat="53.3490986" lon="18.4227317">
<ele>121</ele>
<time>2016-06-19T19:54:39Z</time>
</trkpt>
<trkpt lat="53.3490730" lon="18.4227407">
<ele>120</ele>
<time>2016-06-19T19:54:41Z</time>
</trkpt>
<trkpt lat="53.3490416" lon="18.4227435">
<ele>119</ele>
<time>2016-06-19T19:54:43Z</time>
</trkpt>
<trkpt lat="53.3490155" lon="18.4227302">
<ele>119</ele>
<time>2016-06-19T19:54:45Z</time>
</trkpt>
<trkpt lat="53.3489950" lon="18.4226836">
<ele>121</ele>
<time>2016-06-19T19:54:47Z</time>
</trkpt>
<trkpt lat="53.3489697" lon="18.4226536">
<ele>121</ele>
<time>2016-06-19T19:54:49Z</time>
</trkpt>
<trkpt lat="53.3489540" lon="18.4226274">
<ele>121</ele>
<time>2016-06-19T19:54:51Z</time>
</trkpt>
<trkpt lat="53.3489320" lon="18.4226189">
<ele>121</ele>
<time>2016-06-19T19:54:53Z</time>
</trkpt>
<trkpt lat="53.3489147" lon="18.4225936">
<ele>121</ele>
<time>2016-06-19T19:54:55Z</time>
</trkpt>
<trkpt lat="53.3488938" lon="18.4225715">
<ele>121</ele>
<time>2016-06-19T19:54:57Z</time>
</trkpt>
<trkpt lat="53.3488792" lon="18.4225665">
<ele>121</ele>
<time>2016-06-19T19:54:59Z</time>
</trkpt>
<trkpt lat="53.3488602" lon="18.4225686">
<ele>120</ele>
<time>2016-06-19T19:55:01Z</time>
</trkpt>
<trkpt lat="53.3488138" lon="18.4225678">
<ele>118</ele>
<time>2016-06-19T19:55:03Z</time>
</trkpt>
<trkpt lat="53.3487788" lon="18.4225613">
<ele>117</ele>
<time>2016-06-19T19:55:05Z</time>
</trkpt>
<trkpt lat="53.3487594" lon="18.4225297">
<ele>117</ele>
<time>2016-06-19T19:55:07Z</time>
</trkpt>
<trkpt lat="53.3487438" lon="18.4225038">
<ele>116</ele>
<time>2016-06-19T19:55:09Z</time>
</trkpt>
<trkpt lat="53.3487283" lon="18.4224595">
<ele>116</ele>
<time>2016-06-19T19:55:11Z</time>
</trkpt>
<trkpt lat="53.3487050" lon="18.4224132">
<ele>115</ele>
<time>2016-06-19T19:55:13Z</time>
</trkpt>
<trkpt lat="53.3486904" lon="18.4223674">
<ele>115</ele>
<time>2016-06-19T19:55:15Z</time>
</trkpt>
<trkpt lat="53.3486677" lon="18.4223646">
<ele>115</ele>
<time>2016-06-19T19:55:17Z</time>
</trkpt>
<trkpt lat="53.3486473" lon="18.4223780">
<ele>115</ele>
<time>2016-06-19T19:55:19Z</time>
</trkpt>
<trkpt lat="53.3486291" lon="18.4223714">
<ele>115</ele>
<time>2016-06-19T19:55:21Z</time>
</trkpt>
<trkpt lat="53.3486027" lon="18.4223346">
<ele>115</ele>
<time>2016-06-19T19:55:23Z</time>
</trkpt>
<trkpt lat="53.3485750" lon="18.4222547">
<ele>113</ele>
<time>2016-06-19T19:55:25Z</time>
</trkpt>
<trkpt lat="53.3485580" lon="18.4221705">
<ele>110</ele>
<time>2016-06-19T19:55:27Z</time>
</trkpt>
<trkpt lat="53.3485513" lon="18.4220865">
<ele>110</ele>
<time>2016-06-19T19:55:29Z</time>
</trkpt>
<trkpt lat="53.3485299" lon="18.4220130">
<ele>110</ele>
<time>2016-06-19T19:55:31Z</time>
</trkpt>
<trkpt lat="53.3485026" lon="18.4219545">
<ele>110</ele>
<time>2016-06-19T19:55:33Z</time>
</trkpt>
<trkpt lat="53.3484674" lon="18.4219085">
<ele>112</ele>
<time>2016-06-19T19:55:35Z</time>
</trkpt>
<trkpt lat="53.3484324" lon="18.4218295">
<ele>111</ele>
<time>2016-06-19T19:55:37Z</time>
</trkpt>
<trkpt lat="53.3483939" lon="18.4217416">
<ele>108</ele>
<time>2016-06-19T19:55:39Z</time>
</trkpt>
<trkpt lat="53.3483598" lon="18.4216828">
<ele>108</ele>
<time>2016-06-19T19:55:41Z</time>
</trkpt>
<trkpt lat="53.3483180" lon="18.4216065">
<ele>108</ele>
<time>2016-06-19T19:55:43Z</time>
</trkpt>
<trkpt lat="53.3482899" lon="18.4215387">
<ele>108</ele>
<time>2016-06-19T19:55:45Z</time>
</trkpt>
<trkpt lat="53.3482732" lon="18.4214674">
<ele>108</ele>
<time>2016-06-19T19:55:47Z</time>
</trkpt>
<trkpt lat="53.3482599" lon="18.4213976">
<ele>108</ele>
<time>2016-06-19T19:55:49Z</time>
</trkpt>
<trkpt lat="53.3482392" lon="18.4213338">
<ele>109</ele>
<time>2016-06-19T19:55:51Z</time>
</trkpt>
<trkpt lat="53.3482206" lon="18.4212695">
<ele>108</ele>
<time>2016-06-19T19:55:53Z</time>
</trkpt>
<trkpt lat="53.3482110" lon="18.4212175">
<ele>107</ele>
<time>2016-06-19T19:55:55Z</time>
</trkpt>
<trkpt lat="53.3482017" lon="18.4212048">
<ele>107</ele>
<time>2016-06-19T19:55:57Z</time>
</trkpt>
<trkpt lat="53.3481874" lon="18.4211873">
<ele>107</ele>
<time>2016-06-19T19:55:59Z</time>
</trkpt>
<trkpt lat="53.3481580" lon="18.4211725">
<ele>107</ele>
<time>2016-06-19T19:56:01Z</time>
</trkpt>
<trkpt lat="53.3481278" lon="18.4211553">
<ele>107</ele>
<time>2016-06-19T19:56:03Z</time>
</trkpt>
<trkpt lat="53.3480817" lon="18.4211463">
<ele>108</ele>
<time>2016-06-19T19:56:05Z</time>
</trkpt>
<trkpt lat="53.3480292" lon="18.4211770">
<ele>109</ele>
<time>2016-06-19T19:56:07Z</time>
</trkpt>
<trkpt lat="53.3479830" lon="18.4212243">
<ele>110</ele>
<time>2016-06-19T19:56:09Z</time>
</trkpt>
<trkpt lat="53.3479509" lon="18.4212597">
<ele>110</ele>
<time>2016-06-19T19:56:11Z</time>
</trkpt>
<trkpt lat="53.3479177" lon="18.4212922">
<ele>112</ele>
<time>2016-06-19T19:56:13Z</time>
</trkpt>
<trkpt lat="53.3478716" lon="18.4213405">
<ele>114</ele>
<time>2016-06-19T19:56:15Z</time>
</trkpt>
<trkpt lat="53.3478248" lon="18.4213892">
<ele>115</ele>
<time>2016-06-19T19:56:17Z</time>
</trkpt>
<trkpt lat="53.3477891" lon="18.4214389">
<ele>116</ele>
<time>2016-06-19T19:56:19Z</time>
</trkpt>
<trkpt lat="53.3477482" lon="18.4214840">
<ele>116</ele>
<time>2016-06-19T19:56:21Z</time>
</trkpt>
<trkpt lat="53.3477011" lon="18.4215376">
<ele>117</ele>
<time>2016-06-19T19:56:23Z</time>
</trkpt>
<trkpt lat="53.3476569" lon="18.4215765">
<ele>118</ele>
<time>2016-06-19T19:56:25Z</time>
</trkpt>
<trkpt lat="53.3476132" lon="18.4216202">
<ele>119</ele>
<time>2016-06-19T19:56:27Z</time>
</trkpt>
<trkpt lat="53.3475641" lon="18.4216664">
<ele>120</ele>
<time>2016-06-19T19:56:29Z</time>
</trkpt>
<trkpt lat="53.3475120" lon="18.4217165">
<ele>121</ele>
<time>2016-06-19T19:56:31Z</time>
</trkpt>
<trkpt lat="53.3474536" lon="18.4217695">
<ele>121</ele>
<time>2016-06-19T19:56:33Z</time>
</trkpt>
<trkpt lat="53.3474144" lon="18.4218180">
<ele>122</ele>
<time>2016-06-19T19:56:35Z</time>
</trkpt>
<trkpt lat="53.3473897" lon="18.4218475">
<ele>122</ele>
<time>2016-06-19T19:56:37Z</time>
</trkpt>
<trkpt lat="53.3473726" lon="18.4218348">
<ele>122</ele>
<time>2016-06-19T19:56:39Z</time>
</trkpt>
<trkpt lat="53.3473327" lon="18.4217845">
<ele>120</ele>
<time>2016-06-19T19:56:41Z</time>
</trkpt>
<trkpt lat="53.3472975" lon="18.4217091">
<ele>118</ele>
<time>2016-06-19T19:56:43Z</time>
</trkpt>
<trkpt lat="53.3472580" lon="18.4216197">
<ele>115</ele>
<time>2016-06-19T19:56:45Z</time>
</trkpt>
<trkpt lat="53.3472267" lon="18.4215482">
<ele>115</ele>
<time>2016-06-19T19:56:47Z</time>
</trkpt>
<trkpt lat="53.3471946" lon="18.4214837">
<ele>114</ele>
<time>2016-06-19T19:56:49Z</time>
</trkpt>
<trkpt lat="53.3471628" lon="18.4214237">
<ele>113</ele>
<time>2016-06-19T19:56:51Z</time>
</trkpt>
<trkpt lat="53.3471340" lon="18.4213950">
<ele>115</ele>
<time>2016-06-19T19:56:53Z</time>
</trkpt>
<trkpt lat="53.3471197" lon="18.4213241">
<ele>114</ele>
<time>2016-06-19T19:56:55Z</time>
</trkpt>
<trkpt lat="53.3471145" lon="18.4212525">
<ele>112</ele>
<time>2016-06-19T19:56:57Z</time>
</trkpt>
<trkpt lat="53.3471026" lon="18.4212529">
<ele>113</ele>
<time>2016-06-19T19:56:59Z</time>
</trkpt>
<trkpt lat="53.3470694" lon="18.4213022">
<ele>115</ele>
<time>2016-06-19T19:57:01Z</time>
</trkpt>
<trkpt lat="53.3470431" lon="18.4213613">
<ele>116</ele>
<time>2016-06-19T19:57:03Z</time>
</trkpt>
<trkpt lat="53.3470300" lon="18.4214317">
<ele>116</ele>
<time>2016-06-19T19:57:05Z</time>
</trkpt>
<trkpt lat="53.3470218" lon="18.4215274">
<ele>117</ele>
<time>2016-06-19T19:57:07Z</time>
</trkpt>
<trkpt lat="53.3469992" lon="18.4216189">
<ele>118</ele>
<time>2016-06-19T19:57:09Z</time>
</trkpt>
<trkpt lat="53.3469772" lon="18.4217117">
<ele>118</ele>
<time>2016-06-19T19:57:11Z</time>
</trkpt>
<trkpt lat="53.3469604" lon="18.4218034">
<ele>119</ele>
<time>2016-06-19T19:57:13Z</time>
</trkpt>
<trkpt lat="53.3469405" lon="18.4219023">
<ele>119</ele>
<time>2016-06-19T19:57:15Z</time>
</trkpt>
<trkpt lat="53.3469200" lon="18.4219964">
<ele>119</ele>
<time>2016-06-19T19:57:17Z</time>
</trkpt>
<trkpt lat="53.3469100" lon="18.4220831">
<ele>119</ele>
<time>2016-06-19T19:57:19Z</time>
</trkpt>
<trkpt lat="53.3468913" lon="18.4221797">
<ele>119</ele>
<time>2016-06-19T19:57:21Z</time>
</trkpt>
<trkpt lat="53.3468795" lon="18.4222827">
<ele>121</ele>
<time>2016-06-19T19:57:23Z</time>
</trkpt>
<trkpt lat="53.3468636" lon="18.4223869">
<ele>121</ele>
<time>2016-06-19T19:57:25Z</time>
</trkpt>
<trkpt lat="53.3468466" lon="18.4224913">
<ele>121</ele>
<time>2016-06-19T19:57:27Z</time>
</trkpt>
<trkpt lat="53.3468381" lon="18.4225916">
<ele>123</ele>
<time>2016-06-19T19:57:29Z</time>
</trkpt>
<trkpt lat="53.3468246" lon="18.4226837">
<ele>125</ele>
<time>2016-06-19T19:57:31Z</time>
</trkpt>
<trkpt lat="53.3468076" lon="18.4227863">
<ele>124</ele>
<time>2016-06-19T19:57:33Z</time>
</trkpt>
<trkpt lat="53.3467741" lon="18.4229056">
<ele>123</ele>
<time>2016-06-19T19:57:35Z</time>
</trkpt>
<trkpt lat="53.3467497" lon="18.4229767">
<ele>123</ele>
<time>2016-06-19T19:57:37Z</time>
</trkpt>
<trkpt lat="53.3467520" lon="18.4230151">
<ele>125</ele>
<time>2016-06-19T19:57:39Z</time>
</trkpt>
<trkpt lat="53.3467520" lon="18.4230151">
<ele>125</ele>
<time>2016-06-19T19:57:41Z</time>
</trkpt>
<trkpt lat="53.3467520" lon="18.4230151">
<ele>125</ele>
<time>2016-06-19T19:57:43Z</time>
</trkpt>
<trkpt lat="53.3467520" lon="18.4230151">
<ele>125</ele>
<time>2016-06-19T19:57:45Z</time>
</trkpt>
<trkpt lat="53.3467518" lon="18.4230320">
<ele>125</ele>
<time>2016-06-19T19:57:47Z</time>
</trkpt>
<trkpt lat="53.3467394" lon="18.4230839">
<ele>124</ele>
<time>2016-06-19T19:57:49Z</time>
</trkpt>
<trkpt lat="53.3467282" lon="18.4231430">
<ele>124</ele>
<time>2016-06-19T19:57:51Z</time>
</trkpt>
<trkpt lat="53.3467221" lon="18.4231752">
<ele>124</ele>
<time>2016-06-19T19:57:53Z</time>
</trkpt>
<trkpt lat="53.3467148" lon="18.4231760">
<ele>124</ele>
<time>2016-06-19T19:57:55Z</time>
</trkpt>
<trkpt lat="53.3467146" lon="18.4231774">
<ele>124</ele>
<time>2016-06-19T19:57:57Z</time>
</trkpt>
<trkpt lat="53.3467109" lon="18.4231802">
<ele>123</ele>
<time>2016-06-19T19:57:59Z</time>
</trkpt>
<trkpt lat="53.3467011" lon="18.4232092">
<ele>124</ele>
<time>2016-06-19T19:58:01Z</time>
</trkpt>
<trkpt lat="53.3467025" lon="18.4232196">
<ele>123</ele>
<time>2016-06-19T19:58:03Z</time>
</trkpt>
<trkpt lat="53.3466953" lon="18.4232617">
<ele>123</ele>
<time>2016-06-19T19:58:05Z</time>
</trkpt>
<trkpt lat="53.3466847" lon="18.4233010">
<ele>122</ele>
<time>2016-06-19T19:58:07Z</time>
</trkpt>
<trkpt lat="53.3466837" lon="18.4233117">
<ele>122</ele>
<time>2016-06-19T19:58:09Z</time>
</trkpt>
<trkpt lat="53.3466823" lon="18.4233219">
<ele>123</ele>
<time>2016-06-19T19:58:11Z</time>
</trkpt>
<trkpt lat="53.3466833" lon="18.4233231">
<ele>121</ele>
<time>2016-06-19T19:58:13Z</time>
</trkpt>
<trkpt lat="53.3466833" lon="18.4233231">
<ele>121</ele>
<time>2016-06-19T19:58:15Z</time>
</trkpt>
<trkpt lat="53.3466781" lon="18.4233415">
<ele>121</ele>
<time>2016-06-19T19:58:17Z</time>
</trkpt>
<trkpt lat="53.3466836" lon="18.4233556">
<ele>122</ele>
<time>2016-06-19T19:58:19Z</time>
</trkpt>
<trkpt lat="53.3466924" lon="18.4234127">
<ele>122</ele>
<time>2016-06-19T19:58:21Z</time>
</trkpt>
<trkpt lat="53.3466788" lon="18.4235266">
<ele>122</ele>
<time>2016-06-19T19:58:23Z</time>
</trkpt>
<trkpt lat="53.3466638" lon="18.4236593">
<ele>121</ele>
<time>2016-06-19T19:58:25Z</time>
</trkpt>
<trkpt lat="53.3466553" lon="18.4237182">
<ele>121</ele>
<time>2016-06-19T19:58:27Z</time>
</trkpt>
<trkpt lat="53.3466556" lon="18.4237187">
<ele>121</ele>
<time>2016-06-19T19:58:29Z</time>
</trkpt>
<trkpt lat="53.3466559" lon="18.4237491">
<ele>121</ele>
<time>2016-06-19T19:58:31Z</time>
</trkpt>
<trkpt lat="53.3466569" lon="18.4238060">
<ele>121</ele>
<time>2016-06-19T19:58:33Z</time>
</trkpt>
<trkpt lat="53.3466823" lon="18.4238405">
<ele>124</ele>
<time>2016-06-19T19:58:35Z</time>
</trkpt>
<trkpt lat="53.3466799" lon="18.4238558">
<ele>124</ele>
<time>2016-06-19T19:58:37Z</time>
</trkpt>
<trkpt lat="53.3466676" lon="18.4239269">
<ele>124</ele>
<time>2016-06-19T19:58:39Z</time>
</trkpt>
<trkpt lat="53.3466747" lon="18.4239524">
<ele>122</ele>
<time>2016-06-19T19:58:41Z</time>
</trkpt>
<trkpt lat="53.3467023" lon="18.4239588">
<ele>121</ele>
<time>2016-06-19T19:58:43Z</time>
</trkpt>
<trkpt lat="53.3467196" lon="18.4239457">
<ele>119</ele>
<time>2016-06-19T19:58:45Z</time>
</trkpt>
<trkpt lat="53.3467210" lon="18.4239443">
<ele>118</ele>
<time>2016-06-19T19:58:47Z</time>
</trkpt>
<trkpt lat="53.3467210" lon="18.4239443">
<ele>118</ele>
<time>2016-06-19T19:58:49Z</time>
</trkpt>
<trkpt lat="53.3467128" lon="18.4239513">
<ele>119</ele>
<time>2016-06-19T19:58:51Z</time>
</trkpt>
<trkpt lat="53.3466963" lon="18.4240007">
<ele>119</ele>
<time>2016-06-19T19:58:53Z</time>
</trkpt>
<trkpt lat="53.3466592" lon="18.4240161">
<ele>119</ele>
<time>2016-06-19T19:58:55Z</time>
</trkpt>
<trkpt lat="53.3466032" lon="18.4240313">
<ele>119</ele>
<time>2016-06-19T19:58:57Z</time>
</trkpt>
<trkpt lat="53.3465600" lon="18.4240768">
<ele>119</ele>
<time>2016-06-19T19:58:59Z</time>
</trkpt>
<trkpt lat="53.3465429" lon="18.4241454">
<ele>119</ele>
<time>2016-06-19T19:59:01Z</time>
</trkpt>
<trkpt lat="53.3465348" lon="18.4242162">
<ele>118</ele>
<time>2016-06-19T19:59:03Z</time>
</trkpt>
<trkpt lat="53.3465147" lon="18.4242725">
<ele>118</ele>
<time>2016-06-19T19:59:05Z</time>
</trkpt>
<trkpt lat="53.3465037" lon="18.4242989">
<ele>117</ele>
<time>2016-06-19T19:59:07Z</time>
</trkpt>
<trkpt lat="53.3465171" lon="18.4243276">
<ele>117</ele>
<time>2016-06-19T19:59:09Z</time>
</trkpt>
<trkpt lat="53.3465085" lon="18.4243869">
<ele>117</ele>
<time>2016-06-19T19:59:11Z</time>
</trkpt>
<trkpt lat="53.3465103" lon="18.4244496">
<ele>117</ele>
<time>2016-06-19T19:59:13Z</time>
</trkpt>
<trkpt lat="53.3465155" lon="18.4245204">
<ele>117</ele>
<time>2016-06-19T19:59:15Z</time>
</trkpt>
<trkpt lat="53.3465379" lon="18.4245887">
<ele>117</ele>
<time>2016-06-19T19:59:17Z</time>
</trkpt>
<trkpt lat="53.3465620" lon="18.4246424">
<ele>117</ele>
<time>2016-06-19T19:59:19Z</time>
</trkpt>
<trkpt lat="53.3465811" lon="18.4247007">
<ele>117</ele>
<time>2016-06-19T19:59:21Z</time>
</trkpt>
<trkpt lat="53.3466034" lon="18.4247721">
<ele>117</ele>
<time>2016-06-19T19:59:23Z</time>
</trkpt>
<trkpt lat="53.3466391" lon="18.4248345">
<ele>113</ele>
<time>2016-06-19T19:59:25Z</time>
</trkpt>
<trkpt lat="53.3466316" lon="18.4248642">
<ele>116</ele>
<time>2016-06-19T19:59:27Z</time>
</trkpt>
<trkpt lat="53.3465845" lon="18.4248752">
<ele>117</ele>
<time>2016-06-19T19:59:29Z</time>
</trkpt>
<trkpt lat="53.3465438" lon="18.4248816">
<ele>118</ele>
<time>2016-06-19T19:59:31Z</time>
</trkpt>
<trkpt lat="53.3465275" lon="18.4249181">
<ele>118</ele>
<time>2016-06-19T19:59:33Z</time>
</trkpt>
<trkpt lat="53.3465161" lon="18.4249639">
<ele>118</ele>
<time>2016-06-19T19:59:35Z</time>
</trkpt>
<trkpt lat="53.3464986" lon="18.4249780">
<ele>117</ele>
<time>2016-06-19T19:59:37Z</time>
</trkpt>
<trkpt lat="53.3464837" lon="18.4249634">
<ele>118</ele>
<time>2016-06-19T19:59:39Z</time>
</trkpt>
<trkpt lat="53.3464729" lon="18.4249916">
<ele>123</ele>
<time>2016-06-19T19:59:41Z</time>
</trkpt>
<trkpt lat="53.3464613" lon="18.4249985">
<ele>126</ele>
<time>2016-06-19T19:59:43Z</time>
</trkpt>
<trkpt lat="53.3464451" lon="18.4250292">
<ele>129</ele>
<time>2016-06-19T19:59:45Z</time>
</trkpt>
<trkpt lat="53.3464280" lon="18.4250412">
<ele>132</ele>
<time>2016-06-19T19:59:47Z</time>
</trkpt>
<trkpt lat="53.3463921" lon="18.4250305">
<ele>135</ele>
<time>2016-06-19T19:59:49Z</time>
</trkpt>
<trkpt lat="53.3463890" lon="18.4250285">
<ele>135</ele>
<time>2016-06-19T19:59:51Z</time>
</trkpt>
<trkpt lat="53.3463890" lon="18.4250285">
<ele>135</ele>
<time>2016-06-19T19:59:53Z</time>
</trkpt>
<trkpt lat="53.3463890" lon="18.4250285">
<ele>135</ele>
<time>2016-06-19T19:59:55Z</time>
</trkpt>
<trkpt lat="53.3463890" lon="18.4250285">
<ele>135</ele>
<time>2016-06-19T19:59:57Z</time>
</trkpt>
<trkpt lat="53.3463890" lon="18.4250285">
<ele>135</ele>
<time>2016-06-19T19:59:59Z</time>
</trkpt>
<trkpt lat="53.3463890" lon="18.4250285">
<ele>135</ele>
<time>2016-06-19T20:00:01Z</time>
</trkpt>
<trkpt lat="53.3463890" lon="18.4250285">
<ele>135</ele>
<time>2016-06-19T20:00:03Z</time>
</trkpt>
<trkpt lat="53.3463890" lon="18.4250285">
<ele>135</ele>
<time>2016-06-19T20:00:05Z</time>
</trkpt>
<trkpt lat="53.3463890" lon="18.4250285">
<ele>135</ele>
<time>2016-06-19T20:00:07Z</time>
</trkpt>
<trkpt lat="53.3463890" lon="18.4250285">
<ele>135</ele>
<time>2016-06-19T20:00:09Z</time>
</trkpt>
<trkpt lat="53.3463890" lon="18.4250285">
<ele>135</ele>
<time>2016-06-19T20:00:11Z</time>
</trkpt>
<trkpt lat="53.3463890" lon="18.4250285">
<ele>135</ele>
<time>2016-06-19T20:00:13Z</time>
</trkpt>
<trkpt lat="53.3463890" lon="18.4250285">
<ele>135</ele>
<time>2016-06-19T20:00:15Z</time>
</trkpt>
<trkpt lat="53.3463890" lon="18.4250285">
<ele>135</ele>
<time>2016-06-19T20:00:17Z</time>
</trkpt>
<trkpt lat="53.3463890" lon="18.4250285">
<ele>135</ele>
<time>2016-06-19T20:00:19Z</time>
</trkpt>
<trkpt lat="53.3463890" lon="18.4250285">
<ele>135</ele>
<time>2016-06-19T20:00:21Z</time>
</trkpt>
<trkpt lat="53.3463890" lon="18.4250285">
<ele>135</ele>
<time>2016-06-19T20:00:23Z</time>
</trkpt>
<trkpt lat="53.3463890" lon="18.4250285">
<ele>135</ele>
<time>2016-06-19T20:00:25Z</time>
</trkpt>
<trkpt lat="53.3463890" lon="18.4250285">
<ele>135</ele>
<time>2016-06-19T20:00:27Z</time>
</trkpt>
<trkpt lat="53.3463890" lon="18.4250285">
<ele>135</ele>
<time>2016-06-19T20:00:29Z</time>
</trkpt>
<trkpt lat="53.3463890" lon="18.4250285">
<ele>135</ele>
<time>2016-06-19T20:00:31Z</time>
</trkpt>
<trkpt lat="53.3463890" lon="18.4250285">
<ele>135</ele>
<time>2016-06-19T20:00:33Z</time>
</trkpt>
<trkpt lat="53.3463890" lon="18.4250285">
<ele>135</ele>
<time>2016-06-19T20:00:35Z</time>
</trkpt>
<trkpt lat="53.3463890" lon="18.4250285">
<ele>135</ele>
<time>2016-06-19T20:00:37Z</time>
</trkpt>
<trkpt lat="53.3463890" lon="18.4250285">
<ele>135</ele>
<time>2016-06-19T20:00:39Z</time>
</trkpt>
<trkpt lat="53.3463890" lon="18.4250285">
<ele>135</ele>
<time>2016-06-19T20:00:41Z</time>
</trkpt>
<trkpt lat="53.3463890" lon="18.4250285">
<ele>135</ele>
<time>2016-06-19T20:00:43Z</time>
</trkpt>
<trkpt lat="53.3463890" lon="18.4250285">
<ele>135</ele>
<time>2016-06-19T20:00:45Z</time>
</trkpt>
<trkpt lat="53.3463890" lon="18.4250285">
<ele>135</ele>
<time>2016-06-19T20:00:47Z</time>
</trkpt>
<trkpt lat="53.3463890" lon="18.4250285">
<ele>135</ele>
<time>2016-06-19T20:00:49Z</time>
</trkpt>
<trkpt lat="53.3463890" lon="18.4250285">
<ele>135</ele>
<time>2016-06-19T20:00:51Z</time>
</trkpt>
<trkpt lat="53.3463890" lon="18.4250285">
<ele>135</ele>
<time>2016-06-19T20:00:53Z</time>
</trkpt>
<trkpt lat="53.3463890" lon="18.4250285">
<ele>135</ele>
<time>2016-06-19T20:00:55Z</time>
</trkpt>
<trkpt lat="53.3463890" lon="18.4250285">
<ele>135</ele>
<time>2016-06-19T20:00:57Z</time>
</trkpt>
<trkpt lat="53.3463890" lon="18.4250285">
<ele>135</ele>
<time>2016-06-19T20:00:59Z</time>
</trkpt>
<trkpt lat="53.3463890" lon="18.4250285">
<ele>135</ele>
<time>2016-06-19T20:01:01Z</time>
</trkpt>
<trkpt lat="53.3463890" lon="18.4250285">
<ele>135</ele>
<time>2016-06-19T20:01:03Z</time>
</trkpt>
<trkpt lat="53.3463890" lon="18.4250285">
<ele>135</ele>
<time>2016-06-19T20:01:05Z</time>
</trkpt>
<trkpt lat="53.3463890" lon="18.4250285">
<ele>135</ele>
<time>2016-06-19T20:01:07Z</time>
</trkpt>
<trkpt lat="53.3463890" lon="18.4250285">
<ele>135</ele>
<time>2016-06-19T20:01:09Z</time>
</trkpt>
<trkpt lat="53.3463890" lon="18.4250285">
<ele>135</ele>
<time>2016-06-19T20:01:11Z</time>
</trkpt>
<trkpt lat="53.3463890" lon="18.4250285">
<ele>135</ele>
<time>2016-06-19T20:01:13Z</time>
</trkpt>
<trkpt lat="53.3463890" lon="18.4250285">
<ele>135</ele>
<time>2016-06-19T20:01:15Z</time>
</trkpt>
<trkpt lat="53.3463890" lon="18.4250285">
<ele>135</ele>
<time>2016-06-19T20:01:17Z</time>
</trkpt>
<trkpt lat="53.3463890" lon="18.4250285">
<ele>135</ele>
<time>2016-06-19T20:01:19Z</time>
</trkpt>
<trkpt lat="53.3463890" lon="18.4250285">
<ele>135</ele>
<time>2016-06-19T20:01:21Z</time>
</trkpt>
<trkpt lat="53.3463890" lon="18.4250285">
<ele>135</ele>
<time>2016-06-19T20:01:23Z</time>
</trkpt>
<trkpt lat="53.3463890" lon="18.4250285">
<ele>135</ele>
<time>2016-06-19T20:01:25Z</time>
</trkpt>
<trkpt lat="53.3463890" lon="18.4250285">
<ele>135</ele>
<time>2016-06-19T20:01:27Z</time>
</trkpt>
<trkpt lat="53.3463890" lon="18.4250285">
<ele>135</ele>
<time>2016-06-19T20:01:29Z</time>
</trkpt>
<trkpt lat="53.3463890" lon="18.4250285">
<ele>135</ele>
<time>2016-06-19T20:01:31Z</time>
</trkpt>
<trkpt lat="53.3463890" lon="18.4250285">
<ele>135</ele>
<time>2016-06-19T20:01:33Z</time>
</trkpt>
<trkpt lat="53.3463890" lon="18.4250285">
<ele>135</ele>
<time>2016-06-19T20:01:35Z</time>
</trkpt>
<trkpt lat="53.3463890" lon="18.4250285">
<ele>135</ele>
<time>2016-06-19T20:01:37Z</time>
</trkpt>
<trkpt lat="53.3463890" lon="18.4250285">
<ele>135</ele>
<time>2016-06-19T20:01:39Z</time>
</trkpt>
<trkpt lat="53.3463890" lon="18.4250285">
<ele>135</ele>
<time>2016-06-19T20:01:41Z</time>
</trkpt>
<trkpt lat="53.3463890" lon="18.4250285">
<ele>135</ele>
<time>2016-06-19T20:01:43Z</time>
</trkpt>
<trkpt lat="53.3463890" lon="18.4250285">
<ele>135</ele>
<time>2016-06-19T20:01:45Z</time>
</trkpt>
<trkpt lat="53.3463890" lon="18.4250285">
<ele>135</ele>
<time>2016-06-19T20:01:47Z</time>
</trkpt>
<trkpt lat="53.3463890" lon="18.4250285">
<ele>135</ele>
<time>2016-06-19T20:01:49Z</time>
</trkpt>
<trkpt lat="53.3463890" lon="18.4250285">
<ele>135</ele>
<time>2016-06-19T20:01:51Z</time>
</trkpt>
<trkpt lat="53.3463890" lon="18.4250285">
<ele>135</ele>
<time>2016-06-19T20:01:53Z</time>
</trkpt>
<trkpt lat="53.3463890" lon="18.4250285">
<ele>135</ele>
<time>2016-06-19T20:01:55Z</time>
</trkpt>
<trkpt lat="53.3463890" lon="18.4250285">
<ele>135</ele>
<time>2016-06-19T20:01:57Z</time>
</trkpt>
<trkpt lat="53.3463890" lon="18.4250285">
<ele>135</ele>
<time>2016-06-19T20:01:59Z</time>
</trkpt>
<trkpt lat="53.3463890" lon="18.4250285">
<ele>135</ele>
<time>2016-06-19T20:02:01Z</time>
</trkpt>
<trkpt lat="53.3463890" lon="18.4250285">
<ele>135</ele>
<time>2016-06-19T20:02:03Z</time>
</trkpt>
<trkpt lat="53.3463890" lon="18.4250285">
<ele>135</ele>
<time>2016-06-19T20:02:05Z</time>
</trkpt>
<trkpt lat="53.3463890" lon="18.4250285">
<ele>135</ele>
<time>2016-06-19T20:02:07Z</time>
</trkpt>
<trkpt lat="53.3463890" lon="18.4250285">
<ele>135</ele>
<time>2016-06-19T20:02:09Z</time>
</trkpt>
<trkpt lat="53.3463890" lon="18.4250285">
<ele>135</ele>
<time>2016-06-19T20:02:11Z</time>
</trkpt>
<trkpt lat="53.3463890" lon="18.4250285">
<ele>135</ele>
<time>2016-06-19T20:02:13Z</time>
</trkpt>
<trkpt lat="53.3463890" lon="18.4250285">
<ele>135</ele>
<time>2016-06-19T20:02:15Z</time>
</trkpt>
<trkpt lat="53.3463890" lon="18.4250285">
<ele>135</ele>
<time>2016-06-19T20:02:17Z</time>
</trkpt>
<trkpt lat="53.3463890" lon="18.4250285">
<ele>135</ele>
<time>2016-06-19T20:02:19Z</time>
</trkpt>
<trkpt lat="53.3463890" lon="18.4250285">
<ele>135</ele>
<time>2016-06-19T20:02:21Z</time>
</trkpt>
<trkpt lat="53.3463890" lon="18.4250285">
<ele>135</ele>
<time>2016-06-19T20:02:23Z</time>
</trkpt>
<trkpt lat="53.3463890" lon="18.4250285">
<ele>135</ele>
<time>2016-06-19T20:02:25Z</time>
</trkpt>
<trkpt lat="53.3463890" lon="18.4250285">
<ele>135</ele>
<time>2016-06-19T20:02:27Z</time>
</trkpt>
<trkpt lat="53.3463890" lon="18.4250285">
<ele>135</ele>
<time>2016-06-19T20:02:29Z</time>
</trkpt>
<trkpt lat="53.3463890" lon="18.4250285">
<ele>135</ele>
<time>2016-06-19T20:02:31Z</time>
</trkpt>
<trkpt lat="53.3463890" lon="18.4250285">
<ele>135</ele>
<time>2016-06-19T20:02:33Z</time>
</trkpt>
<trkpt lat="53.3463890" lon="18.4250285">
<ele>135</ele>
<time>2016-06-19T20:02:35Z</time>
</trkpt>
<trkpt lat="53.3463890" lon="18.4250285">
<ele>135</ele>
<time>2016-06-19T20:02:37Z</time>
</trkpt>
<trkpt lat="53.3463890" lon="18.4250285">
<ele>135</ele>
<time>2016-06-19T20:02:39Z</time>
</trkpt>
<trkpt lat="53.3463890" lon="18.4250285">
<ele>135</ele>
<time>2016-06-19T20:02:41Z</time>
</trkpt>
<trkpt lat="53.3463890" lon="18.4250285">
<ele>135</ele>
<time>2016-06-19T20:02:43Z</time>
</trkpt>
<trkpt lat="53.3463890" lon="18.4250285">
<ele>135</ele>
<time>2016-06-19T20:02:45Z</time>
</trkpt>
<trkpt lat="53.3463890" lon="18.4250285">
<ele>135</ele>
<time>2016-06-19T20:02:47Z</time>
</trkpt>
<trkpt lat="53.3464068" lon="18.4250307">
<ele>133</ele>
<time>2016-06-19T20:02:49Z</time>
</trkpt>
<trkpt lat="53.3464531" lon="18.4250140">
<ele>131</ele>
<time>2016-06-19T20:02:51Z</time>
</trkpt>
<trkpt lat="53.3464849" lon="18.4249917">
<ele>129</ele>
<time>2016-06-19T20:02:53Z</time>
</trkpt>
<trkpt lat="53.3465113" lon="18.4249750">
<ele>127</ele>
<time>2016-06-19T20:02:55Z</time>
</trkpt>
<trkpt lat="53.3465424" lon="18.4249468">
<ele>126</ele>
<time>2016-06-19T20:02:57Z</time>
</trkpt>
<trkpt lat="53.3465854" lon="18.4249546">
<ele>125</ele>
<time>2016-06-19T20:02:59Z</time>
</trkpt>
<trkpt lat="53.3466212" lon="18.4249770">
<ele>123</ele>
<time>2016-06-19T20:03:01Z</time>
</trkpt>
<trkpt lat="53.3466436" lon="18.4249645">
<ele>122</ele>
<time>2016-06-19T20:03:03Z</time>
</trkpt>
<trkpt lat="53.3466515" lon="18.4249391">
<ele>120</ele>
<time>2016-06-19T20:03:05Z</time>
</trkpt>
<trkpt lat="53.3466660" lon="18.4249185">
<ele>119</ele>
<time>2016-06-19T20:03:07Z</time>
</trkpt>
<trkpt lat="53.3466703" lon="18.4248986">
<ele>118</ele>
<time>2016-06-19T20:03:09Z</time>
</trkpt>
<trkpt lat="53.3466796" lon="18.4248984">
<ele>117</ele>
<time>2016-06-19T20:03:11Z</time>
</trkpt>
<trkpt lat="53.3466808" lon="18.4248698">
<ele>115</ele>
<time>2016-06-19T20:03:13Z</time>
</trkpt>
<trkpt lat="53.3466997" lon="18.4248610">
<ele>114</ele>
<time>2016-06-19T20:03:15Z</time>
</trkpt>
<trkpt lat="53.3467138" lon="18.4248644">
<ele>114</ele>
<time>2016-06-19T20:03:17Z</time>
</trkpt>
<trkpt lat="53.3467299" lon="18.4248865">
<ele>114</ele>
<time>2016-06-19T20:03:19Z</time>
</trkpt>
<trkpt lat="53.3467376" lon="18.4249063">
<ele>114</ele>
<time>2016-06-19T20:03:21Z</time>
</trkpt>
<trkpt lat="53.3467437" lon="18.4249375">
<ele>114</ele>
<time>2016-06-19T20:03:23Z</time>
</trkpt>
<trkpt lat="53.3467579" lon="18.4249887">
<ele>113</ele>
<time>2016-06-19T20:03:25Z</time>
</trkpt>
<trkpt lat="53.3467724" lon="18.4250598">
<ele>114</ele>
<time>2016-06-19T20:03:27Z</time>
</trkpt>
<trkpt lat="53.3467815" lon="18.4251464">
<ele>114</ele>
<time>2016-06-19T20:03:29Z</time>
</trkpt>
<trkpt lat="53.3468029" lon="18.4252267">
<ele>115</ele>
<time>2016-06-19T20:03:31Z</time>
</trkpt>
<trkpt lat="53.3468211" lon="18.4253022">
<ele>114</ele>
<time>2016-06-19T20:03:33Z</time>
</trkpt>
<trkpt lat="53.3468522" lon="18.4253804">
<ele>113</ele>
<time>2016-06-19T20:03:35Z</time>
</trkpt>
<trkpt lat="53.3468949" lon="18.4254593">
<ele>112</ele>
<time>2016-06-19T20:03:37Z</time>
</trkpt>
<trkpt lat="53.3469366" lon="18.4255583">
<ele>112</ele>
<time>2016-06-19T20:03:39Z</time>
</trkpt>
<trkpt lat="53.3469685" lon="18.4256522">
<ele>113</ele>
<time>2016-06-19T20:03:41Z</time>
</trkpt>
<trkpt lat="53.3470025" lon="18.4257314">
<ele>112</ele>
<time>2016-06-19T20:03:43Z</time>
</trkpt>
<trkpt lat="53.3470386" lon="18.4257803">
<ele>110</ele>
<time>2016-06-19T20:03:45Z</time>
</trkpt>
<trkpt lat="53.3470743" lon="18.4258124">
<ele>108</ele>
<time>2016-06-19T20:03:47Z</time>
</trkpt>
<trkpt lat="53.3471054" lon="18.4258659">
<ele>109</ele>
<time>2016-06-19T20:03:49Z</time>
</trkpt>
<trkpt lat="53.3471335" lon="18.4259331">
<ele>108</ele>
<time>2016-06-19T20:03:51Z</time>
</trkpt>
<trkpt lat="53.3471619" lon="18.4259985">
<ele>108</ele>
<time>2016-06-19T20:03:53Z</time>
</trkpt>
<trkpt lat="53.3471908" lon="18.4260592">
<ele>107</ele>
<time>2016-06-19T20:03:55Z</time>
</trkpt>
<trkpt lat="53.3472224" lon="18.4261042">
<ele>107</ele>
<time>2016-06-19T20:03:57Z</time>
</trkpt>
<trkpt lat="53.3472636" lon="18.4261328">
<ele>107</ele>
<time>2016-06-19T20:03:59Z</time>
</trkpt>
<trkpt lat="53.3473031" lon="18.4261280">
<ele>107</ele>
<time>2016-06-19T20:04:01Z</time>
</trkpt>
<trkpt lat="53.3473454" lon="18.4261001">
<ele>107</ele>
<time>2016-06-19T20:04:03Z</time>
</trkpt>
<trkpt lat="53.3473930" lon="18.4260681">
<ele>106</ele>
<time>2016-06-19T20:04:05Z</time>
</trkpt>
<trkpt lat="53.3474403" lon="18.4260283">
<ele>107</ele>
<time>2016-06-19T20:04:07Z</time>
</trkpt>
<trkpt lat="53.3474749" lon="18.4259858">
<ele>107</ele>
<time>2016-06-19T20:04:09Z</time>
</trkpt>
<trkpt lat="53.3475137" lon="18.4259462">
<ele>107</ele>
<time>2016-06-19T20:04:11Z</time>
</trkpt>
<trkpt lat="53.3475380" lon="18.4259092">
<ele>106</ele>
<time>2016-06-19T20:04:13Z</time>
</trkpt>
<trkpt lat="53.3475550" lon="18.4258799">
<ele>106</ele>
<time>2016-06-19T20:04:15Z</time>
</trkpt>
<trkpt lat="53.3475711" lon="18.4258416">
<ele>106</ele>
<time>2016-06-19T20:04:17Z</time>
</trkpt>
<trkpt lat="53.3475759" lon="18.4258426">
<ele>104</ele>
<time>2016-06-19T20:04:19Z</time>
</trkpt>
<trkpt lat="53.3475930" lon="18.4259005">
<ele>103</ele>
<time>2016-06-19T20:04:21Z</time>
</trkpt>
<trkpt lat="53.3476198" lon="18.4259481">
<ele>102</ele>
<time>2016-06-19T20:04:23Z</time>
</trkpt>
<trkpt lat="53.3476420" lon="18.4259984">
<ele>103</ele>
<time>2016-06-19T20:04:25Z</time>
</trkpt>
<trkpt lat="53.3476607" lon="18.4260379">
<ele>102</ele>
<time>2016-06-19T20:04:27Z</time>
</trkpt>
<trkpt lat="53.3476786" lon="18.4261033">
<ele>101</ele>
<time>2016-06-19T20:04:29Z</time>
</trkpt>
<trkpt lat="53.3477036" lon="18.4261535">
<ele>98</ele>
<time>2016-06-19T20:04:31Z</time>
</trkpt>
<trkpt lat="53.3477520" lon="18.4262047">
<ele>97</ele>
<time>2016-06-19T20:04:33Z</time>
</trkpt>
<trkpt lat="53.3477954" lon="18.4262632">
<ele>97</ele>
<time>2016-06-19T20:04:35Z</time>
</trkpt>
<trkpt lat="53.3478283" lon="18.4263526">
<ele>98</ele>
<time>2016-06-19T20:04:37Z</time>
</trkpt>
<trkpt lat="53.3478621" lon="18.4264309">
<ele>95</ele>
<time>2016-06-19T20:04:39Z</time>
</trkpt>
<trkpt lat="53.3479099" lon="18.4264930">
<ele>92</ele>
<time>2016-06-19T20:04:41Z</time>
</trkpt>
<trkpt lat="53.3479419" lon="18.4265590">
<ele>91</ele>
<time>2016-06-19T20:04:43Z</time>
</trkpt>
<trkpt lat="53.3479557" lon="18.4266323">
<ele>92</ele>
<time>2016-06-19T20:04:45Z</time>
</trkpt>
<trkpt lat="53.3479731" lon="18.4267075">
<ele>91</ele>
<time>2016-06-19T20:04:47Z</time>
</trkpt>
<trkpt lat="53.3479921" lon="18.4267866">
<ele>91</ele>
<time>2016-06-19T20:04:49Z</time>
</trkpt>
<trkpt lat="53.3480036" lon="18.4268635">
<ele>91</ele>
<time>2016-06-19T20:04:51Z</time>
</trkpt>
<trkpt lat="53.3480141" lon="18.4269331">
<ele>91</ele>
<time>2016-06-19T20:04:53Z</time>
</trkpt>
<trkpt lat="53.3480319" lon="18.4269944">
<ele>91</ele>
<time>2016-06-19T20:04:55Z</time>
</trkpt>
<trkpt lat="53.3480722" lon="18.4271096">
<ele>96</ele>
<time>2016-06-19T20:04:57Z</time>
</trkpt>
<trkpt lat="53.3480967" lon="18.4272115">
<ele>96</ele>
<time>2016-06-19T20:04:59Z</time>
</trkpt>
<trkpt lat="53.3481161" lon="18.4272910">
<ele>97</ele>
<time>2016-06-19T20:05:01Z</time>
</trkpt>
<trkpt lat="53.3481302" lon="18.4273775">
<ele>97</ele>
<time>2016-06-19T20:05:03Z</time>
</trkpt>
<trkpt lat="53.3481463" lon="18.4274707">
<ele>99</ele>
<time>2016-06-19T20:05:05Z</time>
</trkpt>
<trkpt lat="53.3481611" lon="18.4275641">
<ele>99</ele>
<time>2016-06-19T20:05:07Z</time>
</trkpt>
<trkpt lat="53.3481864" lon="18.4276585">
<ele>101</ele>
<time>2016-06-19T20:05:09Z</time>
</trkpt>
<trkpt lat="53.3481942" lon="18.4277443">
<ele>101</ele>
<time>2016-06-19T20:05:11Z</time>
</trkpt>
<trkpt lat="53.3481931" lon="18.4278547">
<ele>102</ele>
<time>2016-06-19T20:05:13Z</time>
</trkpt>
<trkpt lat="53.3481851" lon="18.4279592">
<ele>102</ele>
<time>2016-06-19T20:05:15Z</time>
</trkpt>
<trkpt lat="53.3481837" lon="18.4280318">
<ele>103</ele>
<time>2016-06-19T20:05:17Z</time>
</trkpt>
<trkpt lat="53.3481884" lon="18.4281078">
<ele>102</ele>
<time>2016-06-19T20:05:19Z</time>
</trkpt>
<trkpt lat="53.3481908" lon="18.4282057">
<ele>103</ele>
<time>2016-06-19T20:05:21Z</time>
</trkpt>
<trkpt lat="53.3481846" lon="18.4283118">
<ele>104</ele>
<time>2016-06-19T20:05:23Z</time>
</trkpt>
<trkpt lat="53.3481799" lon="18.4284302">
<ele>104</ele>
<time>2016-06-19T20:05:25Z</time>
</trkpt>
<trkpt lat="53.3481810" lon="18.4285264">
<ele>105</ele>
<time>2016-06-19T20:05:27Z</time>
</trkpt>
<trkpt lat="53.3481852" lon="18.4286225">
<ele>105</ele>
<time>2016-06-19T20:05:29Z</time>
</trkpt>
<trkpt lat="53.3481935" lon="18.4287047">
<ele>106</ele>
<time>2016-06-19T20:05:31Z</time>
</trkpt>
<trkpt lat="53.3481872" lon="18.4288184">
<ele>106</ele>
<time>2016-06-19T20:05:33Z</time>
</trkpt>
<trkpt lat="53.3481837" lon="18.4289066">
<ele>107</ele>
<time>2016-06-19T20:05:35Z</time>
</trkpt>
<trkpt lat="53.3481825" lon="18.4290069">
<ele>107</ele>
<time>2016-06-19T20:05:37Z</time>
</trkpt>
<trkpt lat="53.3481760" lon="18.4291158">
<ele>107</ele>
<time>2016-06-19T20:05:39Z</time>
</trkpt>
<trkpt lat="53.3481638" lon="18.4292378">
<ele>107</ele>
<time>2016-06-19T20:05:41Z</time>
</trkpt>
<trkpt lat="53.3481642" lon="18.4293725">
<ele>107</ele>
<time>2016-06-19T20:05:43Z</time>
</trkpt>
<trkpt lat="53.3481689" lon="18.4295164">
<ele>106</ele>
<time>2016-06-19T20:05:45Z</time>
</trkpt>
<trkpt lat="53.3481748" lon="18.4296525">
<ele>109</ele>
<time>2016-06-19T20:05:47Z</time>
</trkpt>
<trkpt lat="53.3481785" lon="18.4297627">
<ele>109</ele>
<time>2016-06-19T20:05:49Z</time>
</trkpt>
<trkpt lat="53.3481843" lon="18.4298393">
<ele>110</ele>
<time>2016-06-19T20:05:51Z</time>
</trkpt>
<trkpt lat="53.3481903" lon="18.4299170">
<ele>111</ele>
<time>2016-06-19T20:05:53Z</time>
</trkpt>
<trkpt lat="53.3481901" lon="18.4300062">
<ele>111</ele>
<time>2016-06-19T20:05:55Z</time>
</trkpt>
<trkpt lat="53.3481905" lon="18.4301024">
<ele>113</ele>
<time>2016-06-19T20:05:57Z</time>
</trkpt>
<trkpt lat="53.3481946" lon="18.4301885">
<ele>113</ele>
<time>2016-06-19T20:05:59Z</time>
</trkpt>
<trkpt lat="53.3482197" lon="18.4302876">
<ele>113</ele>
<time>2016-06-19T20:06:01Z</time>
</trkpt>
<trkpt lat="53.3482533" lon="18.4304123">
<ele>113</ele>
<time>2016-06-19T20:06:03Z</time>
</trkpt>
<trkpt lat="53.3482691" lon="18.4305405">
<ele>112</ele>
<time>2016-06-19T20:06:05Z</time>
</trkpt>
<trkpt lat="53.3482683" lon="18.4306290">
<ele>112</ele>
<time>2016-06-19T20:06:07Z</time>
</trkpt>
<trkpt lat="53.3482628" lon="18.4307049">
<ele>112</ele>
<time>2016-06-19T20:06:09Z</time>
</trkpt>
<trkpt lat="53.3482540" lon="18.4307845">
<ele>112</ele>
<time>2016-06-19T20:06:11Z</time>
</trkpt>
<trkpt lat="53.3482554" lon="18.4308844">
<ele>111</ele>
<time>2016-06-19T20:06:13Z</time>
</trkpt>
<trkpt lat="53.3482727" lon="18.4309869">
<ele>111</ele>
<time>2016-06-19T20:06:15Z</time>
</trkpt>
<trkpt lat="53.3482769" lon="18.4310771">
<ele>110</ele>
<time>2016-06-19T20:06:17Z</time>
</trkpt>
<trkpt lat="53.3482770" lon="18.4312060">
<ele>107</ele>
<time>2016-06-19T20:06:19Z</time>
</trkpt>
<trkpt lat="53.3482904" lon="18.4313139">
<ele>107</ele>
<time>2016-06-19T20:06:21Z</time>
</trkpt>
<trkpt lat="53.3483002" lon="18.4314075">
<ele>108</ele>
<time>2016-06-19T20:06:23Z</time>
</trkpt>
<trkpt lat="53.3482741" lon="18.4314861">
<ele>108</ele>
<time>2016-06-19T20:06:25Z</time>
</trkpt>
<trkpt lat="53.3482482" lon="18.4315635">
<ele>109</ele>
<time>2016-06-19T20:06:27Z</time>
</trkpt>
<trkpt lat="53.3482796" lon="18.4316759">
<ele>110</ele>
<time>2016-06-19T20:06:29Z</time>
</trkpt>
<trkpt lat="53.3483107" lon="18.4318108">
<ele>108</ele>
<time>2016-06-19T20:06:31Z</time>
</trkpt>
<trkpt lat="53.3483254" lon="18.4319240">
<ele>107</ele>
<time>2016-06-19T20:06:33Z</time>
</trkpt>
<trkpt lat="53.3483416" lon="18.4320236">
<ele>108</ele>
<time>2016-06-19T20:06:35Z</time>
</trkpt>
<trkpt lat="53.3483621" lon="18.4321270">
<ele>108</ele>
<time>2016-06-19T20:06:37Z</time>
</trkpt>
<trkpt lat="53.3483969" lon="18.4322438">
<ele>107</ele>
<time>2016-06-19T20:06:39Z</time>
</trkpt>
<trkpt lat="53.3483965" lon="18.4323466">
<ele>107</ele>
<time>2016-06-19T20:06:41Z</time>
</trkpt>
<trkpt lat="53.3483902" lon="18.4324336">
<ele>107</ele>
<time>2016-06-19T20:06:43Z</time>
</trkpt>
<trkpt lat="53.3483937" lon="18.4325077">
<ele>107</ele>
<time>2016-06-19T20:06:45Z</time>
</trkpt>
<trkpt lat="53.3483937" lon="18.4325995">
<ele>108</ele>
<time>2016-06-19T20:06:47Z</time>
</trkpt>
<trkpt lat="53.3483966" lon="18.4327040">
<ele>108</ele>
<time>2016-06-19T20:06:49Z</time>
</trkpt>
<trkpt lat="53.3484178" lon="18.4327888">
<ele>107</ele>
<time>2016-06-19T20:06:51Z</time>
</trkpt>
<trkpt lat="53.3484281" lon="18.4328674">
<ele>107</ele>
<time>2016-06-19T20:06:53Z</time>
</trkpt>
<trkpt lat="53.3484320" lon="18.4329628">
<ele>106</ele>
<time>2016-06-19T20:06:55Z</time>
</trkpt>
<trkpt lat="53.3484425" lon="18.4330711">
<ele>107</ele>
<time>2016-06-19T20:06:57Z</time>
</trkpt>
<trkpt lat="53.3484791" lon="18.4331861">
<ele>108</ele>
<time>2016-06-19T20:06:59Z</time>
</trkpt>
<trkpt lat="53.3485059" lon="18.4333254">
<ele>109</ele>
<time>2016-06-19T20:07:01Z</time>
</trkpt>
<trkpt lat="53.3484993" lon="18.4334482">
<ele>110</ele>
<time>2016-06-19T20:07:03Z</time>
</trkpt>
<trkpt lat="53.3484799" lon="18.4335537">
<ele>110</ele>
<time>2016-06-19T20:07:05Z</time>
</trkpt>
<trkpt lat="53.3484998" lon="18.4336755">
<ele>109</ele>
<time>2016-06-19T20:07:07Z</time>
</trkpt>
<trkpt lat="53.3485376" lon="18.4337993">
<ele>109</ele>
<time>2016-06-19T20:07:09Z</time>
</trkpt>
<trkpt lat="53.3485717" lon="18.4339154">
<ele>110</ele>
<time>2016-06-19T20:07:11Z</time>
</trkpt>
<trkpt lat="53.3485816" lon="18.4340220">
<ele>109</ele>
<time>2016-06-19T20:07:13Z</time>
</trkpt>
<trkpt lat="53.3485984" lon="18.4341133">
<ele>106</ele>
<time>2016-06-19T20:07:15Z</time>
</trkpt>
<trkpt lat="53.3486067" lon="18.4342067">
<ele>105</ele>
<time>2016-06-19T20:07:17Z</time>
</trkpt>
<trkpt lat="53.3486222" lon="18.4342813">
<ele>105</ele>
<time>2016-06-19T20:07:19Z</time>
</trkpt>
<trkpt lat="53.3486388" lon="18.4343612">
<ele>106</ele>
<time>2016-06-19T20:07:21Z</time>
</trkpt>
<trkpt lat="53.3486455" lon="18.4344560">
<ele>108</ele>
<time>2016-06-19T20:07:23Z</time>
</trkpt>
<trkpt lat="53.3486298" lon="18.4345403">
<ele>109</ele>
<time>2016-06-19T20:07:25Z</time>
</trkpt>
<trkpt lat="53.3486217" lon="18.4346108">
<ele>109</ele>
<time>2016-06-19T20:07:27Z</time>
</trkpt>
<trkpt lat="53.3486134" lon="18.4346988">
<ele>110</ele>
<time>2016-06-19T20:07:29Z</time>
</trkpt>
<trkpt lat="53.3486066" lon="18.4347744">
<ele>110</ele>
<time>2016-06-19T20:07:31Z</time>
</trkpt>
<trkpt lat="53.3485988" lon="18.4348645">
<ele>111</ele>
<time>2016-06-19T20:07:33Z</time>
</trkpt>
<trkpt lat="53.3486208" lon="18.4349503">
<ele>110</ele>
<time>2016-06-19T20:07:35Z</time>
</trkpt>
<trkpt lat="53.3486167" lon="18.4350227">
<ele>110</ele>
<time>2016-06-19T20:07:37Z</time>
</trkpt>
<trkpt lat="53.3486182" lon="18.4351360">
<ele>109</ele>
<time>2016-06-19T20:07:39Z</time>
</trkpt>
<trkpt lat="53.3486569" lon="18.4352536">
<ele>107</ele>
<time>2016-06-19T20:07:41Z</time>
</trkpt>
<trkpt lat="53.3487012" lon="18.4353768">
<ele>105</ele>
<time>2016-06-19T20:07:43Z</time>
</trkpt>
<trkpt lat="53.3487492" lon="18.4355197">
<ele>101</ele>
<time>2016-06-19T20:07:45Z</time>
</trkpt>
<trkpt lat="53.3487991" lon="18.4356538">
<ele>102</ele>
<time>2016-06-19T20:07:47Z</time>
</trkpt>
<trkpt lat="53.3488235" lon="18.4357543">
<ele>103</ele>
<time>2016-06-19T20:07:49Z</time>
</trkpt>
<trkpt lat="53.3488327" lon="18.4358353">
<ele>103</ele>
<time>2016-06-19T20:07:51Z</time>
</trkpt>
<trkpt lat="53.3488342" lon="18.4359211">
<ele>103</ele>
<time>2016-06-19T20:07:53Z</time>
</trkpt>
<trkpt lat="53.3488234" lon="18.4360008">
<ele>101</ele>
<time>2016-06-19T20:07:55Z</time>
</trkpt>
<trkpt lat="53.3487963" lon="18.4360271">
<ele>100</ele>
<time>2016-06-19T20:07:57Z</time>
</trkpt>
<trkpt lat="53.3487848" lon="18.4360593">
<ele>98</ele>
<time>2016-06-19T20:07:59Z</time>
</trkpt>
<trkpt lat="53.3487617" lon="18.4361074">
<ele>98</ele>
<time>2016-06-19T20:08:01Z</time>
</trkpt>
<trkpt lat="53.3487264" lon="18.4361784">
<ele>100</ele>
<time>2016-06-19T20:08:03Z</time>
</trkpt>
<trkpt lat="53.3486827" lon="18.4362059">
<ele>100</ele>
<time>2016-06-19T20:08:05Z</time>
</trkpt>
<trkpt lat="53.3486401" lon="18.4362220">
<ele>101</ele>
<time>2016-06-19T20:08:07Z</time>
</trkpt>
<trkpt lat="53.3485996" lon="18.4362347">
<ele>103</ele>
<time>2016-06-19T20:08:09Z</time>
</trkpt>
<trkpt lat="53.3485622" lon="18.4362198">
<ele>103</ele>
<time>2016-06-19T20:08:11Z</time>
</trkpt>
<trkpt lat="53.3485155" lon="18.4361931">
<ele>103</ele>
<time>2016-06-19T20:08:13Z</time>
</trkpt>
<trkpt lat="53.3484669" lon="18.4361716">
<ele>103</ele>
<time>2016-06-19T20:08:15Z</time>
</trkpt>
<trkpt lat="53.3484249" lon="18.4361307">
<ele>104</ele>
<time>2016-06-19T20:08:17Z</time>
</trkpt>
<trkpt lat="53.3483907" lon="18.4360930">
<ele>105</ele>
<time>2016-06-19T20:08:19Z</time>
</trkpt>
<trkpt lat="53.3483493" lon="18.4360723">
<ele>105</ele>
<time>2016-06-19T20:08:21Z</time>
</trkpt>
<trkpt lat="53.3483134" lon="18.4360593">
<ele>106</ele>
<time>2016-06-19T20:08:23Z</time>
</trkpt>
<trkpt lat="53.3482917" lon="18.4360378">
<ele>106</ele>
<time>2016-06-19T20:08:25Z</time>
</trkpt>
<trkpt lat="53.3482651" lon="18.4360253">
<ele>107</ele>
<time>2016-06-19T20:08:27Z</time>
</trkpt>
<trkpt lat="53.3482177" lon="18.4360119">
<ele>107</ele>
<time>2016-06-19T20:08:29Z</time>
</trkpt>
<trkpt lat="53.3481569" lon="18.4359755">
<ele>109</ele>
<time>2016-06-19T20:08:31Z</time>
</trkpt>
<trkpt lat="53.3480973" lon="18.4359351">
<ele>110</ele>
<time>2016-06-19T20:08:33Z</time>
</trkpt>
<trkpt lat="53.3480496" lon="18.4359074">
<ele>110</ele>
<time>2016-06-19T20:08:35Z</time>
</trkpt>
<trkpt lat="53.3480216" lon="18.4358880">
<ele>111</ele>
<time>2016-06-19T20:08:37Z</time>
</trkpt>
<trkpt lat="53.3480021" lon="18.4358734">
<ele>111</ele>
<time>2016-06-19T20:08:39Z</time>
</trkpt>
<trkpt lat="53.3479803" lon="18.4358589">
<ele>112</ele>
<time>2016-06-19T20:08:41Z</time>
</trkpt>
<trkpt lat="53.3479803" lon="18.4358589">
<ele>112</ele>
<time>2016-06-19T20:08:43Z</time>
</trkpt>
<trkpt lat="53.3479803" lon="18.4358589">
<ele>112</ele>
<time>2016-06-19T20:08:45Z</time>
</trkpt>
<trkpt lat="53.3479803" lon="18.4358589">
<ele>112</ele>
<time>2016-06-19T20:08:47Z</time>
</trkpt>
<trkpt lat="53.3479803" lon="18.4358589">
<ele>112</ele>
<time>2016-06-19T20:08:49Z</time>
</trkpt>
<trkpt lat="53.3479803" lon="18.4358589">
<ele>112</ele>
<time>2016-06-19T20:08:51Z</time>
</trkpt>
<trkpt lat="53.3479803" lon="18.4358589">
<ele>112</ele>
<time>2016-06-19T20:08:53Z</time>
</trkpt>
<trkpt lat="53.3479803" lon="18.4358589">
<ele>112</ele>
<time>2016-06-19T20:08:55Z</time>
</trkpt>
<trkpt lat="53.3479803" lon="18.4358589">
<ele>112</ele>
<time>2016-06-19T20:08:57Z</time>
</trkpt>
<trkpt lat="53.3479803" lon="18.4358589">
<ele>112</ele>
<time>2016-06-19T20:08:59Z</time>
</trkpt>
<trkpt lat="53.3479803" lon="18.4358589">
<ele>112</ele>
<time>2016-06-19T20:09:01Z</time>
</trkpt>
<trkpt lat="53.3479749" lon="18.4358904">
<ele>112</ele>
<time>2016-06-19T20:09:03Z</time>
</trkpt>
<trkpt lat="53.3479659" lon="18.4359290">
<ele>111</ele>
<time>2016-06-19T20:09:05Z</time>
</trkpt>
<trkpt lat="53.3479509" lon="18.4359748">
<ele>112</ele>
<time>2016-06-19T20:09:07Z</time>
</trkpt>
<trkpt lat="53.3479446" lon="18.4360191">
<ele>112</ele>
<time>2016-06-19T20:09:09Z</time>
</trkpt>
<trkpt lat="53.3479368" lon="18.4360452">
<ele>112</ele>
<time>2016-06-19T20:09:11Z</time>
</trkpt>
<trkpt lat="53.3479191" lon="18.4360700">
<ele>110</ele>
<time>2016-06-19T20:09:13Z</time>
</trkpt>
<trkpt lat="53.3479191" lon="18.4360700">
<ele>110</ele>
<time>2016-06-19T20:09:15Z</time>
</trkpt>
<trkpt lat="53.3479191" lon="18.4360700">
<ele>110</ele>
<time>2016-06-19T20:09:17Z</time>
</trkpt>
<trkpt lat="53.3479042" lon="18.4361100">
<ele>110</ele>
<time>2016-06-19T20:09:19Z</time>
</trkpt>
<trkpt lat="53.3478866" lon="18.4361272">
<ele>111</ele>
<time>2016-06-19T20:09:21Z</time>
</trkpt>
<trkpt lat="53.3478786" lon="18.4361665">
<ele>111</ele>
<time>2016-06-19T20:09:23Z</time>
</trkpt>
<trkpt lat="53.3478655" lon="18.4361970">
<ele>110</ele>
<time>2016-06-19T20:09:25Z</time>
</trkpt>
<trkpt lat="53.3478648" lon="18.4362277">
<ele>109</ele>
<time>2016-06-19T20:09:27Z</time>
</trkpt>
<trkpt lat="53.3478668" lon="18.4362419">
<ele>109</ele>
<time>2016-06-19T20:09:29Z</time>
</trkpt>
<trkpt lat="53.3478668" lon="18.4362419">
<ele>109</ele>
<time>2016-06-19T20:09:31Z</time>
</trkpt>
<trkpt lat="53.3478668" lon="18.4362419">
<ele>109</ele>
<time>2016-06-19T20:09:33Z</time>
</trkpt>
<trkpt lat="53.3478668" lon="18.4362419">
<ele>109</ele>
<time>2016-06-19T20:09:35Z</time>
</trkpt>
<trkpt lat="53.3478668" lon="18.4362419">
<ele>109</ele>
<time>2016-06-19T20:09:37Z</time>
</trkpt>
<trkpt lat="53.3478668" lon="18.4362419">
<ele>109</ele>
<time>2016-06-19T20:09:39Z</time>
</trkpt>
<trkpt lat="53.3478668" lon="18.4362419">
<ele>109</ele>
<time>2016-06-19T20:09:41Z</time>
</trkpt>
<trkpt lat="53.3478668" lon="18.4362419">
<ele>109</ele>
<time>2016-06-19T20:09:43Z</time>
</trkpt>
<trkpt lat="53.3478668" lon="18.4362419">
<ele>109</ele>
<time>2016-06-19T20:09:45Z</time>
</trkpt>
<trkpt lat="53.3478668" lon="18.4362419">
<ele>109</ele>
<time>2016-06-19T20:09:47Z</time>
</trkpt>
<trkpt lat="53.3478668" lon="18.4362419">
<ele>109</ele>
<time>2016-06-19T20:09:49Z</time>
</trkpt>
<trkpt lat="53.3478668" lon="18.4362419">
<ele>109</ele>
<time>2016-06-19T20:09:51Z</time>
</trkpt>
<trkpt lat="53.3478668" lon="18.4362419">
<ele>109</ele>
<time>2016-06-19T20:09:53Z</time>
</trkpt>
<trkpt lat="53.3478668" lon="18.4362419">
<ele>109</ele>
<time>2016-06-19T20:09:55Z</time>
</trkpt>
<trkpt lat="53.3478668" lon="18.4362419">
<ele>109</ele>
<time>2016-06-19T20:09:57Z</time>
</trkpt>
<trkpt lat="53.3478668" lon="18.4362419">
<ele>109</ele>
<time>2016-06-19T20:09:59Z</time>
</trkpt>
<trkpt lat="53.3478668" lon="18.4362419">
<ele>109</ele>
<time>2016-06-19T20:10:01Z</time>
</trkpt>
<trkpt lat="53.3478668" lon="18.4362419">
<ele>109</ele>
<time>2016-06-19T20:10:03Z</time>
</trkpt>
<trkpt lat="53.3478668" lon="18.4362419">
<ele>109</ele>
<time>2016-06-19T20:10:05Z</time>
</trkpt>
<trkpt lat="53.3478668" lon="18.4362419">
<ele>109</ele>
<time>2016-06-19T20:10:07Z</time>
</trkpt>
<trkpt lat="53.3478668" lon="18.4362419">
<ele>109</ele>
<time>2016-06-19T20:10:09Z</time>
</trkpt>
<trkpt lat="53.3478668" lon="18.4362419">
<ele>109</ele>
<time>2016-06-19T20:10:11Z</time>
</trkpt>
<trkpt lat="53.3478668" lon="18.4362419">
<ele>109</ele>
<time>2016-06-19T20:10:13Z</time>
</trkpt>
<trkpt lat="53.3478668" lon="18.4362419">
<ele>109</ele>
<time>2016-06-19T20:10:15Z</time>
</trkpt>
<trkpt lat="53.3478668" lon="18.4362419">
<ele>109</ele>
<time>2016-06-19T20:10:17Z</time>
</trkpt>
<trkpt lat="53.3478668" lon="18.4362419">
<ele>109</ele>
<time>2016-06-19T20:10:19Z</time>
</trkpt>
<trkpt lat="53.3478668" lon="18.4362419">
<ele>109</ele>
<time>2016-06-19T20:10:21Z</time>
</trkpt>
<trkpt lat="53.3478668" lon="18.4362419">
<ele>109</ele>
<time>2016-06-19T20:10:23Z</time>
</trkpt>
<trkpt lat="53.3478668" lon="18.4362419">
<ele>109</ele>
<time>2016-06-19T20:10:25Z</time>
</trkpt>
<trkpt lat="53.3478668" lon="18.4362419">
<ele>109</ele>
<time>2016-06-19T20:10:27Z</time>
</trkpt>
<trkpt lat="53.3478668" lon="18.4362419">
<ele>109</ele>
<time>2016-06-19T20:10:29Z</time>
</trkpt>
<trkpt lat="53.3478668" lon="18.4362419">
<ele>109</ele>
<time>2016-06-19T20:10:31Z</time>
</trkpt>
<trkpt lat="53.3478668" lon="18.4362419">
<ele>109</ele>
<time>2016-06-19T20:10:33Z</time>
</trkpt>
<trkpt lat="53.3478668" lon="18.4362419">
<ele>109</ele>
<time>2016-06-19T20:10:35Z</time>
</trkpt>
<trkpt lat="53.3478668" lon="18.4362419">
<ele>109</ele>
<time>2016-06-19T20:10:37Z</time>
</trkpt>
<trkpt lat="53.3478668" lon="18.4362419">
<ele>109</ele>
<time>2016-06-19T20:10:39Z</time>
</trkpt>
<trkpt lat="53.3478668" lon="18.4362419">
<ele>109</ele>
<time>2016-06-19T20:10:41Z</time>
</trkpt>
<trkpt lat="53.3478668" lon="18.4362419">
<ele>109</ele>
<time>2016-06-19T20:10:43Z</time>
</trkpt>
<trkpt lat="53.3478668" lon="18.4362419">
<ele>109</ele>
<time>2016-06-19T20:10:45Z</time>
</trkpt>
<trkpt lat="53.3478668" lon="18.4362419">
<ele>109</ele>
<time>2016-06-19T20:10:47Z</time>
</trkpt>
<trkpt lat="53.3478668" lon="18.4362419">
<ele>109</ele>
<time>2016-06-19T20:10:49Z</time>
</trkpt>
<trkpt lat="53.3478668" lon="18.4362419">
<ele>109</ele>
<time>2016-06-19T20:10:51Z</time>
</trkpt>
<trkpt lat="53.3478668" lon="18.4362419">
<ele>109</ele>
<time>2016-06-19T20:10:53Z</time>
</trkpt>
<trkpt lat="53.3478668" lon="18.4362419">
<ele>109</ele>
<time>2016-06-19T20:10:55Z</time>
</trkpt>
<trkpt lat="53.3478668" lon="18.4362419">
<ele>109</ele>
<time>2016-06-19T20:10:57Z</time>
</trkpt>
<trkpt lat="53.3478668" lon="18.4362419">
<ele>109</ele>
<time>2016-06-19T20:10:59Z</time>
</trkpt>
<trkpt lat="53.3478668" lon="18.4362419">
<ele>109</ele>
<time>2016-06-19T20:11:01Z</time>
</trkpt>
<trkpt lat="53.3478668" lon="18.4362419">
<ele>109</ele>
<time>2016-06-19T20:11:03Z</time>
</trkpt>
<trkpt lat="53.3478668" lon="18.4362419">
<ele>109</ele>
<time>2016-06-19T20:11:05Z</time>
</trkpt>
<trkpt lat="53.3478668" lon="18.4362419">
<ele>109</ele>
<time>2016-06-19T20:11:07Z</time>
</trkpt>
<trkpt lat="53.3478668" lon="18.4362419">
<ele>109</ele>
<time>2016-06-19T20:11:09Z</time>
</trkpt>
<trkpt lat="53.3478668" lon="18.4362419">
<ele>109</ele>
<time>2016-06-19T20:11:11Z</time>
</trkpt>
<trkpt lat="53.3478668" lon="18.4362419">
<ele>109</ele>
<time>2016-06-19T20:11:13Z</time>
</trkpt>
<trkpt lat="53.3478668" lon="18.4362419">
<ele>109</ele>
<time>2016-06-19T20:11:15Z</time>
</trkpt>
<trkpt lat="53.3478668" lon="18.4362419">
<ele>109</ele>
<time>2016-06-19T20:11:17Z</time>
</trkpt>
<trkpt lat="53.3478668" lon="18.4362419">
<ele>109</ele>
<time>2016-06-19T20:11:19Z</time>
</trkpt>
<trkpt lat="53.3478668" lon="18.4362419">
<ele>109</ele>
<time>2016-06-19T20:11:21Z</time>
</trkpt>
<trkpt lat="53.3478668" lon="18.4362419">
<ele>109</ele>
<time>2016-06-19T20:11:23Z</time>
</trkpt>
<trkpt lat="53.3478668" lon="18.4362419">
<ele>109</ele>
<time>2016-06-19T20:11:25Z</time>
</trkpt>
<trkpt lat="53.3478668" lon="18.4362419">
<ele>109</ele>
<time>2016-06-19T20:11:27Z</time>
</trkpt>
<trkpt lat="53.3478668" lon="18.4362419">
<ele>109</ele>
<time>2016-06-19T20:11:29Z</time>
</trkpt>
<trkpt lat="53.3478668" lon="18.4362419">
<ele>109</ele>
<time>2016-06-19T20:11:31Z</time>
</trkpt>
<trkpt lat="53.3478668" lon="18.4362419">
<ele>109</ele>
<time>2016-06-19T20:11:33Z</time>
</trkpt>
<trkpt lat="53.3478668" lon="18.4362419">
<ele>109</ele>
<time>2016-06-19T20:11:35Z</time>
</trkpt>
<trkpt lat="53.3478668" lon="18.4362419">
<ele>109</ele>
<time>2016-06-19T20:11:37Z</time>
</trkpt>
<trkpt lat="53.3478668" lon="18.4362419">
<ele>109</ele>
<time>2016-06-19T20:11:39Z</time>
</trkpt>
<trkpt lat="53.3478668" lon="18.4362419">
<ele>109</ele>
<time>2016-06-19T20:11:41Z</time>
</trkpt>
<trkpt lat="53.3478668" lon="18.4362419">
<ele>109</ele>
<time>2016-06-19T20:11:43Z</time>
</trkpt>
<trkpt lat="53.3478668" lon="18.4362419">
<ele>109</ele>
<time>2016-06-19T20:11:45Z</time>
</trkpt>
<trkpt lat="53.3478668" lon="18.4362419">
<ele>109</ele>
<time>2016-06-19T20:11:47Z</time>
</trkpt>
<trkpt lat="53.3478668" lon="18.4362419">
<ele>109</ele>
<time>2016-06-19T20:11:49Z</time>
</trkpt>
<trkpt lat="53.3478668" lon="18.4362419">
<ele>109</ele>
<time>2016-06-19T20:11:51Z</time>
</trkpt>
<trkpt lat="53.3478668" lon="18.4362419">
<ele>109</ele>
<time>2016-06-19T20:11:53Z</time>
</trkpt>
<trkpt lat="53.3478668" lon="18.4362419">
<ele>109</ele>
<time>2016-06-19T20:11:55Z</time>
</trkpt>
<trkpt lat="53.3478668" lon="18.4362419">
<ele>109</ele>
<time>2016-06-19T20:11:57Z</time>
</trkpt>
<trkpt lat="53.3478668" lon="18.4362419">
<ele>109</ele>
<time>2016-06-19T20:11:59Z</time>
</trkpt>
<trkpt lat="53.3478668" lon="18.4362419">
<ele>109</ele>
<time>2016-06-19T20:12:01Z</time>
</trkpt>
<trkpt lat="53.3478668" lon="18.4362419">
<ele>109</ele>
<time>2016-06-19T20:12:03Z</time>
</trkpt>
<trkpt lat="53.3478668" lon="18.4362419">
<ele>109</ele>
<time>2016-06-19T20:12:05Z</time>
</trkpt>
<trkpt lat="53.3478668" lon="18.4362419">
<ele>109</ele>
<time>2016-06-19T20:12:07Z</time>
</trkpt>
<trkpt lat="53.3478668" lon="18.4362419">
<ele>109</ele>
<time>2016-06-19T20:12:09Z</time>
</trkpt>
<trkpt lat="53.3478687" lon="18.4362346">
<ele>109</ele>
<time>2016-06-19T20:12:11Z</time>
</trkpt>
<trkpt lat="53.3478717" lon="18.4362087">
<ele>109</ele>
<time>2016-06-19T20:12:13Z</time>
</trkpt>
<trkpt lat="53.3478841" lon="18.4361674">
<ele>108</ele>
<time>2016-06-19T20:12:15Z</time>
</trkpt>
<trkpt lat="53.3478931" lon="18.4361364">
<ele>108</ele>
<time>2016-06-19T20:12:17Z</time>
</trkpt>
<trkpt lat="53.3478835" lon="18.4361293">
<ele>108</ele>
<time>2016-06-19T20:12:19Z</time>
</trkpt>
<trkpt lat="53.3478918" lon="18.4360895">
<ele>108</ele>
<time>2016-06-19T20:12:21Z</time>
</trkpt>
<trkpt lat="53.3478932" lon="18.4360655">
<ele>108</ele>
<time>2016-06-19T20:12:23Z</time>
</trkpt>
<trkpt lat="53.3479041" lon="18.4360403">
<ele>108</ele>
<time>2016-06-19T20:12:25Z</time>
</trkpt>
<trkpt lat="53.3479143" lon="18.4359935">
<ele>108</ele>
<time>2016-06-19T20:12:27Z</time>
</trkpt>
<trkpt lat="53.3479173" lon="18.4359657">
<ele>107</ele>
<time>2016-06-19T20:12:29Z</time>
</trkpt>
<trkpt lat="53.3479249" lon="18.4359231">
<ele>107</ele>
<time>2016-06-19T20:12:31Z</time>
</trkpt>
<trkpt lat="53.3479302" lon="18.4359005">
<ele>106</ele>
<time>2016-06-19T20:12:33Z</time>
</trkpt>
<trkpt lat="53.3479265" lon="18.4358969">
<ele>106</ele>
<time>2016-06-19T20:12:35Z</time>
</trkpt>
<trkpt lat="53.3479265" lon="18.4358969">
<ele>106</ele>
<time>2016-06-19T20:12:37Z</time>
</trkpt>
<trkpt lat="53.3479265" lon="18.4358969">
<ele>106</ele>
<time>2016-06-19T20:12:39Z</time>
</trkpt>
<trkpt lat="53.3479265" lon="18.4358969">
<ele>106</ele>
<time>2016-06-19T20:12:41Z</time>
</trkpt>
<trkpt lat="53.3479321" lon="18.4358946">
<ele>105</ele>
<time>2016-06-19T20:12:43Z</time>
</trkpt>
<trkpt lat="53.3479321" lon="18.4358989">
<ele>105</ele>
<time>2016-06-19T20:12:45Z</time>
</trkpt>
<trkpt lat="53.3479321" lon="18.4358989">
<ele>105</ele>
<time>2016-06-19T20:12:47Z</time>
</trkpt>
<trkpt lat="53.3479321" lon="18.4358989">
<ele>105</ele>
<time>2016-06-19T20:12:49Z</time>
</trkpt>
<trkpt lat="53.3479321" lon="18.4358989">
<ele>105</ele>
<time>2016-06-19T20:12:51Z</time>
</trkpt>
<trkpt lat="53.3479321" lon="18.4358989">
<ele>105</ele>
<time>2016-06-19T20:12:53Z</time>
</trkpt>
<trkpt lat="53.3479321" lon="18.4358989">
<ele>105</ele>
<time>2016-06-19T20:12:55Z</time>
</trkpt>
<trkpt lat="53.3479321" lon="18.4358989">
<ele>105</ele>
<time>2016-06-19T20:12:57Z</time>
</trkpt>
<trkpt lat="53.3479424" lon="18.4359021">
<ele>105</ele>
<time>2016-06-19T20:12:59Z</time>
</trkpt>
<trkpt lat="53.3479578" lon="18.4359191">
<ele>105</ele>
<time>2016-06-19T20:13:01Z</time>
</trkpt>
<trkpt lat="53.3479637" lon="18.4359260">
<ele>105</ele>
<time>2016-06-19T20:13:03Z</time>
</trkpt>
<trkpt lat="53.3479752" lon="18.4359115">
<ele>105</ele>
<time>2016-06-19T20:13:05Z</time>
</trkpt>
<trkpt lat="53.3479865" lon="18.4359009">
<ele>106</ele>
<time>2016-06-19T20:13:07Z</time>
</trkpt>
<trkpt lat="53.3480015" lon="18.4359050">
<ele>106</ele>
<time>2016-06-19T20:13:09Z</time>
</trkpt>
<trkpt lat="53.3480245" lon="18.4359096">
<ele>106</ele>
<time>2016-06-19T20:13:11Z</time>
</trkpt>
<trkpt lat="53.3480625" lon="18.4359202">
<ele>106</ele>
<time>2016-06-19T20:13:13Z</time>
</trkpt>
<trkpt lat="53.3480909" lon="18.4359353">
<ele>106</ele>
<time>2016-06-19T20:13:15Z</time>
</trkpt>
<trkpt lat="53.3481005" lon="18.4359411">
<ele>107</ele>
<time>2016-06-19T20:13:17Z</time>
</trkpt>
<trkpt lat="53.3481196" lon="18.4359397">
<ele>107</ele>
<time>2016-06-19T20:13:19Z</time>
</trkpt>
<trkpt lat="53.3481470" lon="18.4359631">
<ele>108</ele>
<time>2016-06-19T20:13:21Z</time>
</trkpt>
<trkpt lat="53.3481655" lon="18.4359678">
<ele>109</ele>
<time>2016-06-19T20:13:23Z</time>
</trkpt>
<trkpt lat="53.3481829" lon="18.4359614">
<ele>109</ele>
<time>2016-06-19T20:13:25Z</time>
</trkpt>
<trkpt lat="53.3482019" lon="18.4359728">
<ele>109</ele>
<time>2016-06-19T20:13:27Z</time>
</trkpt>
<trkpt lat="53.3482276" lon="18.4359941">
<ele>111</ele>
<time>2016-06-19T20:13:29Z</time>
</trkpt>
<trkpt lat="53.3482499" lon="18.4360149">
<ele>110</ele>
<time>2016-06-19T20:13:31Z</time>
</trkpt>
<trkpt lat="53.3483018" lon="18.4360859">
<ele>105</ele>
<time>2016-06-19T20:13:33Z</time>
</trkpt>
<trkpt lat="53.3483530" lon="18.4361380">
<ele>103</ele>
<time>2016-06-19T20:13:35Z</time>
</trkpt>
<trkpt lat="53.3483980" lon="18.4361772">
<ele>106</ele>
<time>2016-06-19T20:13:37Z</time>
</trkpt>
<trkpt lat="53.3484649" lon="18.4362437">
<ele>107</ele>
<time>2016-06-19T20:13:39Z</time>
</trkpt>
<trkpt lat="53.3485357" lon="18.4362857">
<ele>108</ele>
<time>2016-06-19T20:13:41Z</time>
</trkpt>
<trkpt lat="53.3485872" lon="18.4363327">
<ele>108</ele>
<time>2016-06-19T20:13:43Z</time>
</trkpt>
<trkpt lat="53.3485884" lon="18.4363380">
<ele>113</ele>
<time>2016-06-19T20:13:45Z</time>
</trkpt>
<trkpt lat="53.3485916" lon="18.4363065">
<ele>118</ele>
<time>2016-06-19T20:13:47Z</time>
</trkpt>
<trkpt lat="53.3486187" lon="18.4362828">
<ele>122</ele>
<time>2016-06-19T20:13:49Z</time>
</trkpt>
<trkpt lat="53.3486614" lon="18.4362687">
<ele>123</ele>
<time>2016-06-19T20:13:51Z</time>
</trkpt>
<trkpt lat="53.3487195" lon="18.4362513">
<ele>124</ele>
<time>2016-06-19T20:13:53Z</time>
</trkpt>
<trkpt lat="53.3487858" lon="18.4362572">
<ele>124</ele>
<time>2016-06-19T20:13:55Z</time>
</trkpt>
<trkpt lat="53.3488487" lon="18.4362943">
<ele>125</ele>
<time>2016-06-19T20:13:57Z</time>
</trkpt>
<trkpt lat="53.3489155" lon="18.4363299">
<ele>125</ele>
<time>2016-06-19T20:13:59Z</time>
</trkpt>
<trkpt lat="53.3489679" lon="18.4363738">
<ele>126</ele>
<time>2016-06-19T20:14:01Z</time>
</trkpt>
<trkpt lat="53.3490297" lon="18.4364126">
<ele>126</ele>
<time>2016-06-19T20:14:03Z</time>
</trkpt>
<trkpt lat="53.3490762" lon="18.4364243">
<ele>126</ele>
<time>2016-06-19T20:14:05Z</time>
</trkpt>
<trkpt lat="53.3491040" lon="18.4364603">
<ele>127</ele>
<time>2016-06-19T20:14:07Z</time>
</trkpt>
<trkpt lat="53.3491436" lon="18.4364896">
<ele>128</ele>
<time>2016-06-19T20:14:09Z</time>
</trkpt>
<trkpt lat="53.3491745" lon="18.4365195">
<ele>128</ele>
<time>2016-06-19T20:14:11Z</time>
</trkpt>
<trkpt lat="53.3492189" lon="18.4365609">
<ele>127</ele>
<time>2016-06-19T20:14:13Z</time>
</trkpt>
<trkpt lat="53.3492631" lon="18.4365913">
<ele>126</ele>
<time>2016-06-19T20:14:15Z</time>
</trkpt>
<trkpt lat="53.3493107" lon="18.4366592">
<ele>123</ele>
<time>2016-06-19T20:14:17Z</time>
</trkpt>
<trkpt lat="53.3493354" lon="18.4367433">
<ele>122</ele>
<time>2016-06-19T20:14:19Z</time>
</trkpt>
<trkpt lat="53.3493475" lon="18.4368450">
<ele>121</ele>
<time>2016-06-19T20:14:21Z</time>
</trkpt>
<trkpt lat="53.3493420" lon="18.4369412">
<ele>121</ele>
<time>2016-06-19T20:14:23Z</time>
</trkpt>
<trkpt lat="53.3493381" lon="18.4370262">
<ele>121</ele>
<time>2016-06-19T20:14:25Z</time>
</trkpt>
<trkpt lat="53.3493312" lon="18.4371005">
<ele>121</ele>
<time>2016-06-19T20:14:27Z</time>
</trkpt>
<trkpt lat="53.3493461" lon="18.4371926">
<ele>120</ele>
<time>2016-06-19T20:14:29Z</time>
</trkpt>
<trkpt lat="53.3493410" lon="18.4372694">
<ele>120</ele>
<time>2016-06-19T20:14:31Z</time>
</trkpt>
<trkpt lat="53.3493314" lon="18.4373639">
<ele>121</ele>
<time>2016-06-19T20:14:33Z</time>
</trkpt>
<trkpt lat="53.3493126" lon="18.4374508">
<ele>122</ele>
<time>2016-06-19T20:14:35Z</time>
</trkpt>
<trkpt lat="53.3492916" lon="18.4375489">
<ele>122</ele>
<time>2016-06-19T20:14:37Z</time>
</trkpt>
<trkpt lat="53.3492759" lon="18.4376350">
<ele>123</ele>
<time>2016-06-19T20:14:39Z</time>
</trkpt>
<trkpt lat="53.3492680" lon="18.4377366">
<ele>122</ele>
<time>2016-06-19T20:14:41Z</time>
</trkpt>
<trkpt lat="53.3492586" lon="18.4378308">
<ele>122</ele>
<time>2016-06-19T20:14:43Z</time>
</trkpt>
<trkpt lat="53.3492449" lon="18.4378781">
<ele>121</ele>
<time>2016-06-19T20:14:45Z</time>
</trkpt>
<trkpt lat="53.3490082" lon="18.4383387">
<ele>114</ele>
<time>2016-06-19T20:16:57Z</time>
</trkpt>
<trkpt lat="53.3489730" lon="18.4383559">
<ele>114</ele>
<time>2016-06-19T20:17:01Z</time>
</trkpt>
<trkpt lat="53.3489551" lon="18.4383512">
<ele>113</ele>
<time>2016-06-19T20:17:03Z</time>
</trkpt>
<trkpt lat="53.3489403" lon="18.4383658">
<ele>113</ele>
<time>2016-06-19T20:17:05Z</time>
</trkpt>
<trkpt lat="53.3489324" lon="18.4383795">
<ele>112</ele>
<time>2016-06-19T20:17:07Z</time>
</trkpt>
<trkpt lat="53.3489240" lon="18.4384305">
<ele>113</ele>
<time>2016-06-19T20:17:09Z</time>
</trkpt>
<trkpt lat="53.3489378" lon="18.4383561">
<ele>113</ele>
<time>2016-06-19T20:17:11Z</time>
</trkpt>
<trkpt lat="53.3489372" lon="18.4383659">
<ele>113</ele>
<time>2016-06-19T20:17:13Z</time>
</trkpt>
<trkpt lat="53.3489260" lon="18.4383832">
<ele>113</ele>
<time>2016-06-19T20:17:15Z</time>
</trkpt>
<trkpt lat="53.3489097" lon="18.4383899">
<ele>113</ele>
<time>2016-06-19T20:17:17Z</time>
</trkpt>
<trkpt lat="53.3489026" lon="18.4384252">
<ele>113</ele>
<time>2016-06-19T20:17:19Z</time>
</trkpt>
<trkpt lat="53.3488903" lon="18.4384745">
<ele>112</ele>
<time>2016-06-19T20:17:21Z</time>
</trkpt>
<trkpt lat="53.3488816" lon="18.4384982">
<ele>112</ele>
<time>2016-06-19T20:17:23Z</time>
</trkpt>
<trkpt lat="53.3488762" lon="18.4385092">
<ele>112</ele>
<time>2016-06-19T20:17:25Z</time>
</trkpt>
<trkpt lat="53.3488732" lon="18.4385215">
<ele>112</ele>
<time>2016-06-19T20:17:27Z</time>
</trkpt>
<trkpt lat="53.3488736" lon="18.4385311">
<ele>111</ele>
<time>2016-06-19T20:17:29Z</time>
</trkpt>
<trkpt lat="53.3488791" lon="18.4385467">
<ele>111</ele>
<time>2016-06-19T20:17:31Z</time>
</trkpt>
<trkpt lat="53.3488875" lon="18.4385570">
<ele>111</ele>
<time>2016-06-19T20:17:33Z</time>
</trkpt>
<trkpt lat="53.3489418" lon="18.4386183">
<ele>111</ele>
<time>2016-06-19T20:17:35Z</time>
</trkpt>
<trkpt lat="" lon="">
<ele></ele>
<time>2016-06-19TZ</time>
</trkpt>
</trkseg>
</trk>
<wpt lat="" lon="">
	<name></name>
	<desc></desc>
	<cmt></cmt>
	<photoid></photoid>
	<type></type>
</wpt>
</gpx>
